<?xml version="1.0" encoding="UTF-8" standalone="no" ?>
<gpx xmlns="http://www.topografix.com/GPX/1/1" xmlns:xsi="http://www.w3.org/2001/XMLSchema-instance" xsi:schemaLocation="http://www.topografix.com/GPX/1/1 http://www.topografix.com/GPX/1/1/gpx.xsd" version="1.1" creator="VisuGPX - https://www.visugpx.com">
  <metadata>
    <name>villons-lasson</name>
  </metadata>
  <trk>
    <name><![CDATA[villons-lasson]]></name>
    <trkseg>
      <trkpt lat="49.24077" lon="-0.40991">
        <ele>58.976375148629</ele>
        <time>2019-09-07T07:11:03Z</time>
      </trkpt>
      <trkpt lat="49.2408" lon="-0.40998">
        <ele>58.976461905296</ele>
        <time>2019-09-07T07:11:23Z</time>
      </trkpt>
      <trkpt lat="49.2409" lon="-0.41023">
        <ele>67.976659593341</ele>
        <time>2019-09-07T07:11:27Z</time>
      </trkpt>
      <trkpt lat="49.24103" lon="-0.41023">
        <ele>69.976991141281</ele>
        <time>2019-09-07T07:11:31Z</time>
      </trkpt>
      <trkpt lat="49.24077" lon="-0.41023">
        <ele>63.976334587306</ele>
        <time>2019-09-07T07:11:35Z</time>
      </trkpt>
      <trkpt lat="49.24082" lon="-0.41032">
        <ele>59.976448629621</ele>
        <time>2019-09-07T07:11:39Z</time>
      </trkpt>
      <trkpt lat="49.24092" lon="-0.41037">
        <ele>64.976698922558</ele>
        <time>2019-09-07T07:11:43Z</time>
      </trkpt>
      <trkpt lat="49.24087" lon="-0.41046">
        <ele>57.976551047641</ele>
        <time>2019-09-07T07:11:55Z</time>
      </trkpt>
      <trkpt lat="49.24087" lon="-0.41058">
        <ele>60.976535627995</ele>
        <time>2019-09-07T07:12:01Z</time>
      </trkpt>
      <trkpt lat="49.24088" lon="-0.41072">
        <ele>61.976538458231</ele>
        <time>2019-09-07T07:12:07Z</time>
      </trkpt>
      <trkpt lat="49.24088" lon="-0.41086">
        <ele>65.976518764688</ele>
        <time>2019-09-07T07:12:15Z</time>
      </trkpt>
      <trkpt lat="49.24087" lon="-0.41098">
        <ele>63.976478521536</ele>
        <time>2019-09-07T07:12:24Z</time>
      </trkpt>
      <trkpt lat="49.24087" lon="-0.4111">
        <ele>66.976467106642</ele>
        <time>2019-09-07T07:12:29Z</time>
      </trkpt>
      <trkpt lat="49.24085" lon="-0.41119">
        <ele>67.976400783036</ele>
        <time>2019-09-07T07:12:35Z</time>
      </trkpt>
      <trkpt lat="49.24075" lon="-0.41126">
        <ele>65.976138874258</ele>
        <time>2019-09-07T07:12:39Z</time>
      </trkpt>
      <trkpt lat="49.24079" lon="-0.41135">
        <ele>61.976214171573</ele>
        <time>2019-09-07T07:12:43Z</time>
      </trkpt>
      <trkpt lat="49.24083" lon="-0.41144">
        <ele>61.976322743909</ele>
        <time>2019-09-07T07:12:47Z</time>
      </trkpt>
      <trkpt lat="49.24087" lon="-0.41151">
        <ele>61.976412251497</ele>
        <time>2019-09-07T07:12:51Z</time>
      </trkpt>
      <trkpt lat="49.24082" lon="-0.4116">
        <ele>61.976257608391</ele>
        <time>2019-09-07T07:12:59Z</time>
      </trkpt>
      <trkpt lat="49.24076" lon="-0.41168">
        <ele>62.976103706311</ele>
        <time>2019-09-07T07:13:04Z</time>
      </trkpt>
      <trkpt lat="49.24075" lon="-0.4118">
        <ele>62.976060458209</ele>
        <time>2019-09-07T07:13:11Z</time>
      </trkpt>
      <trkpt lat="49.24077" lon="-0.41191">
        <ele>63.97609414239</ele>
        <time>2019-09-07T07:13:16Z</time>
      </trkpt>
      <trkpt lat="49.24076" lon="-0.41203">
        <ele>63.976044888874</ele>
        <time>2019-09-07T07:13:24Z</time>
      </trkpt>
      <trkpt lat="49.24073" lon="-0.41213">
        <ele>63.975946845598</ele>
        <time>2019-09-07T07:13:29Z</time>
      </trkpt>
      <trkpt lat="49.24075" lon="-0.41225">
        <ele>63.975973169243</ele>
        <time>2019-09-07T07:13:38Z</time>
      </trkpt>
      <trkpt lat="49.2408" lon="-0.41234">
        <ele>63.976104623663</ele>
        <time>2019-09-07T07:13:42Z</time>
      </trkpt>
      <trkpt lat="49.24079" lon="-0.41244">
        <ele>62.976072287149</ele>
        <time>2019-09-07T07:13:48Z</time>
      </trkpt>
      <trkpt lat="49.24089" lon="-0.41253">
        <ele>63.976302083854</ele>
        <time>2019-09-07T07:13:52Z</time>
      </trkpt>
      <trkpt lat="49.24089" lon="-0.41263">
        <ele>63.976292295043</ele>
        <time>2019-09-07T07:13:58Z</time>
      </trkpt>
      <trkpt lat="49.24086" lon="-0.41275">
        <ele>66.976197753936</ele>
        <time>2019-09-07T07:14:03Z</time>
      </trkpt>
      <trkpt lat="49.24083" lon="-0.41287">
        <ele>67.976100387232</ele>
        <time>2019-09-07T07:14:08Z</time>
      </trkpt>
      <trkpt lat="49.24087" lon="-0.41297">
        <ele>67.976181048103</ele>
        <time>2019-09-07T07:14:19Z</time>
      </trkpt>
      <trkpt lat="49.24091" lon="-0.41307">
        <ele>68.976277943188</ele>
        <time>2019-09-07T07:14:23Z</time>
      </trkpt>
      <trkpt lat="49.24083" lon="-0.41315">
        <ele>70.976070643329</ele>
        <time>2019-09-07T07:14:28Z</time>
      </trkpt>
      <trkpt lat="49.24086" lon="-0.41327">
        <ele>71.976129491209</ele>
        <time>2019-09-07T07:14:34Z</time>
      </trkpt>
      <trkpt lat="49.24095" lon="-0.4134">
        <ele>73.976337927217</ele>
        <time>2019-09-07T07:14:39Z</time>
      </trkpt>
      <trkpt lat="49.24098" lon="-0.41352">
        <ele>75.976399476159</ele>
        <time>2019-09-07T07:14:46Z</time>
      </trkpt>
      <trkpt lat="49.24095" lon="-0.41363">
        <ele>77.976317197177</ele>
        <time>2019-09-07T07:14:54Z</time>
      </trkpt>
      <trkpt lat="49.24089" lon="-0.41371">
        <ele>74.976140660963</ele>
        <time>2019-09-07T07:14:59Z</time>
      </trkpt>
      <trkpt lat="49.24091" lon="-0.41384">
        <ele>72.976170508581</ele>
        <time>2019-09-07T07:15:06Z</time>
      </trkpt>
      <trkpt lat="49.24092" lon="-0.41397">
        <ele>69.976169398733</ele>
        <time>2019-09-07T07:15:14Z</time>
      </trkpt>
      <trkpt lat="49.24094" lon="-0.41409">
        <ele>68.976213753936</ele>
        <time>2019-09-07T07:15:22Z</time>
      </trkpt>
      <trkpt lat="49.24095" lon="-0.41421">
        <ele>69.97621478956</ele>
        <time>2019-09-07T07:15:29Z</time>
      </trkpt>
      <trkpt lat="49.24094" lon="-0.41434">
        <ele>70.976183022379</ele>
        <time>2019-09-07T07:15:36Z</time>
      </trkpt>
      <trkpt lat="49.24096" lon="-0.41447">
        <ele>70.976201636512</ele>
        <time>2019-09-07T07:15:42Z</time>
      </trkpt>
      <trkpt lat="49.24098" lon="-0.41458">
        <ele>69.976234209786</ele>
        <time>2019-09-07T07:15:49Z</time>
      </trkpt>
      <trkpt lat="49.241" lon="-0.41472">
        <ele>69.976274745052</ele>
        <time>2019-09-07T07:15:53Z</time>
      </trkpt>
      <trkpt lat="49.241" lon="-0.41485">
        <ele>70.976268285158</ele>
        <time>2019-09-07T07:16:02Z</time>
      </trkpt>
      <trkpt lat="49.24101" lon="-0.41498">
        <ele>64.976275455389</ele>
        <time>2019-09-07T07:16:11Z</time>
      </trkpt>
      <trkpt lat="49.24104" lon="-0.4151">
        <ele>67.976326418286</ele>
        <time>2019-09-07T07:16:18Z</time>
      </trkpt>
      <trkpt lat="49.24104" lon="-0.41522">
        <ele>66.976305478157</ele>
        <time>2019-09-07T07:16:24Z</time>
      </trkpt>
      <trkpt lat="49.24105" lon="-0.41535">
        <ele>65.976309327308</ele>
        <time>2019-09-07T07:16:30Z</time>
      </trkpt>
      <trkpt lat="49.24106" lon="-0.41549">
        <ele>66.976317703965</ele>
        <time>2019-09-07T07:16:38Z</time>
      </trkpt>
      <trkpt lat="49.24107" lon="-0.41562">
        <ele>64.976328224735</ele>
        <time>2019-09-07T07:16:46Z</time>
      </trkpt>
      <trkpt lat="49.2411" lon="-0.4157">
        <ele>65.976409197795</ele>
        <time>2019-09-07T07:16:52Z</time>
      </trkpt>
      <trkpt lat="49.24109" lon="-0.41584">
        <ele>68.976358235297</ele>
        <time>2019-09-07T07:16:58Z</time>
      </trkpt>
      <trkpt lat="49.24112" lon="-0.41595">
        <ele>67.976408812342</ele>
        <time>2019-09-07T07:17:07Z</time>
      </trkpt>
      <trkpt lat="49.24112" lon="-0.41607">
        <ele>66.976415878628</ele>
        <time>2019-09-07T07:17:13Z</time>
      </trkpt>
      <trkpt lat="49.24113" lon="-0.4162">
        <ele>64.97641966862</ele>
        <time>2019-09-07T07:17:20Z</time>
      </trkpt>
      <trkpt lat="49.24115" lon="-0.41633">
        <ele>64.976452742329</ele>
        <time>2019-09-07T07:17:28Z</time>
      </trkpt>
      <trkpt lat="49.24116" lon="-0.41645">
        <ele>65.976451403844</ele>
        <time>2019-09-07T07:17:34Z</time>
      </trkpt>
      <trkpt lat="49.24118" lon="-0.41657">
        <ele>68.97648293186</ele>
        <time>2019-09-07T07:17:39Z</time>
      </trkpt>
      <trkpt lat="49.24117" lon="-0.4167">
        <ele>66.976452359239</ele>
        <time>2019-09-07T07:17:47Z</time>
      </trkpt>
      <trkpt lat="49.24123" lon="-0.41679">
        <ele>69.976607934944</ele>
        <time>2019-09-07T07:17:53Z</time>
      </trkpt>
      <trkpt lat="49.24118" lon="-0.41689">
        <ele>66.976436119136</ele>
        <time>2019-09-07T07:18:00Z</time>
      </trkpt>
      <trkpt lat="49.24117" lon="-0.41702">
        <ele>62.97640906341</ele>
        <time>2019-09-07T07:18:06Z</time>
      </trkpt>
      <trkpt lat="49.24119" lon="-0.41713">
        <ele>64.976451113821</ele>
        <time>2019-09-07T07:18:13Z</time>
      </trkpt>
      <trkpt lat="49.24119" lon="-0.41718">
        <ele>63.976424772427</ele>
        <time>2019-09-07T07:18:17Z</time>
      </trkpt>
      <trkpt lat="49.24134" lon="-0.41739">
        <ele>72.976794405199</ele>
        <time>2019-09-07T07:18:25Z</time>
      </trkpt>
      <trkpt lat="49.24132" lon="-0.4175">
        <ele>67.976729031016</ele>
        <time>2019-09-07T07:18:32Z</time>
      </trkpt>
      <trkpt lat="49.24129" lon="-0.41761">
        <ele>67.976639697467</ele>
        <time>2019-09-07T07:18:37Z</time>
      </trkpt>
      <trkpt lat="49.24128" lon="-0.41774">
        <ele>66.976598983429</ele>
        <time>2019-09-07T07:18:45Z</time>
      </trkpt>
      <trkpt lat="49.24131" lon="-0.41784">
        <ele>68.976652806238</ele>
        <time>2019-09-07T07:18:52Z</time>
      </trkpt>
      <trkpt lat="49.24134" lon="-0.41795">
        <ele>69.976728248328</ele>
        <time>2019-09-07T07:18:57Z</time>
      </trkpt>
      <trkpt lat="49.24128" lon="-0.41805">
        <ele>63.976560346794</ele>
        <time>2019-09-07T07:19:02Z</time>
      </trkpt>
      <trkpt lat="49.24133" lon="-0.41816">
        <ele>63.976659371398</ele>
        <time>2019-09-07T07:19:08Z</time>
      </trkpt>
      <trkpt lat="49.24133" lon="-0.41828">
        <ele>64.976648147949</ele>
        <time>2019-09-07T07:19:15Z</time>
      </trkpt>
      <trkpt lat="49.24134" lon="-0.41841">
        <ele>63.976658151714</ele>
        <time>2019-09-07T07:19:23Z</time>
      </trkpt>
      <trkpt lat="49.24136" lon="-0.41854">
        <ele>63.976697015064</ele>
        <time>2019-09-07T07:19:30Z</time>
      </trkpt>
      <trkpt lat="49.24136" lon="-0.41865">
        <ele>64.976674014885</ele>
        <time>2019-09-07T07:19:36Z</time>
      </trkpt>
      <trkpt lat="49.24136" lon="-0.41878">
        <ele>65.976676814321</ele>
        <time>2019-09-07T07:19:43Z</time>
      </trkpt>
      <trkpt lat="49.24137" lon="-0.41891">
        <ele>65.976673594858</ele>
        <time>2019-09-07T07:19:50Z</time>
      </trkpt>
      <trkpt lat="49.24139" lon="-0.41904">
        <ele>67.976708598358</ele>
        <time>2019-09-07T07:19:55Z</time>
      </trkpt>
      <trkpt lat="49.2414" lon="-0.41916">
        <ele>65.976716177661</ele>
        <time>2019-09-07T07:20:13Z</time>
      </trkpt>
      <trkpt lat="49.2414" lon="-0.41929">
        <ele>63.976694919562</ele>
        <time>2019-09-07T07:20:20Z</time>
      </trkpt>
      <trkpt lat="49.24141" lon="-0.41941">
        <ele>63.976708072671</ele>
        <time>2019-09-07T07:20:26Z</time>
      </trkpt>
      <trkpt lat="49.24144" lon="-0.41953">
        <ele>66.976785970722</ele>
        <time>2019-09-07T07:20:33Z</time>
      </trkpt>
      <trkpt lat="49.24145" lon="-0.41965">
        <ele>66.976791476728</ele>
        <time>2019-09-07T07:20:39Z</time>
      </trkpt>
      <trkpt lat="49.24147" lon="-0.41978">
        <ele>65.97683301565</ele>
        <time>2019-09-07T07:20:45Z</time>
      </trkpt>
      <trkpt lat="49.24149" lon="-0.41988">
        <ele>65.976870392911</ele>
        <time>2019-09-07T07:20:51Z</time>
      </trkpt>
      <trkpt lat="49.24155" lon="-0.42003">
        <ele>66.977000630099</ele>
        <time>2019-09-07T07:20:56Z</time>
      </trkpt>
      <trkpt lat="49.24153" lon="-0.42016">
        <ele>65.976938359966</ele>
        <time>2019-09-07T07:21:05Z</time>
      </trkpt>
      <trkpt lat="49.24152" lon="-0.42028">
        <ele>64.976885689527</ele>
        <time>2019-09-07T07:21:11Z</time>
      </trkpt>
      <trkpt lat="49.24154" lon="-0.4204">
        <ele>65.976942765077</ele>
        <time>2019-09-07T07:21:18Z</time>
      </trkpt>
      <trkpt lat="49.24154" lon="-0.42052">
        <ele>66.976918099424</ele>
        <time>2019-09-07T07:21:25Z</time>
      </trkpt>
      <trkpt lat="49.24155" lon="-0.42065">
        <ele>65.976925350436</ele>
        <time>2019-09-07T07:21:31Z</time>
      </trkpt>
      <trkpt lat="49.24157" lon="-0.42078">
        <ele>62.976954627366</ele>
        <time>2019-09-07T07:21:38Z</time>
      </trkpt>
      <trkpt lat="49.2416" lon="-0.42089">
        <ele>65.977037319069</ele>
        <time>2019-09-07T07:21:45Z</time>
      </trkpt>
      <trkpt lat="49.2416" lon="-0.421">
        <ele>63.977006225625</ele>
        <time>2019-09-07T07:21:51Z</time>
      </trkpt>
      <trkpt lat="49.24158" lon="-0.42116">
        <ele>64.976937309215</ele>
        <time>2019-09-07T07:21:56Z</time>
      </trkpt>
      <trkpt lat="49.2415" lon="-0.42122">
        <ele>64.976705960148</ele>
        <time>2019-09-07T07:22:08Z</time>
      </trkpt>
      <trkpt lat="49.24141" lon="-0.42122">
        <ele>60.976475055544</ele>
        <time>2019-09-07T07:22:17Z</time>
      </trkpt>
      <trkpt lat="49.24133" lon="-0.42124">
        <ele>61.976239710671</ele>
        <time>2019-09-07T07:22:24Z</time>
      </trkpt>
      <trkpt lat="49.24125" lon="-0.42127">
        <ele>63.976025004595</ele>
        <time>2019-09-07T07:22:30Z</time>
      </trkpt>
      <trkpt lat="49.24116" lon="-0.42128">
        <ele>64.975779913549</ele>
        <time>2019-09-07T07:22:37Z</time>
      </trkpt>
      <trkpt lat="49.24109" lon="-0.42131">
        <ele>63.975568134645</ele>
        <time>2019-09-07T07:22:43Z</time>
      </trkpt>
      <trkpt lat="49.241" lon="-0.42131">
        <ele>62.975333722725</ele>
        <time>2019-09-07T07:22:51Z</time>
      </trkpt>
      <trkpt lat="49.24092" lon="-0.42131">
        <ele>62.975105559916</ele>
        <time>2019-09-07T07:22:58Z</time>
      </trkpt>
      <trkpt lat="49.24084" lon="-0.42133">
        <ele>64.974899118888</ele>
        <time>2019-09-07T07:23:04Z</time>
      </trkpt>
      <trkpt lat="49.24076" lon="-0.42135">
        <ele>65.97467965719</ele>
        <time>2019-09-07T07:23:10Z</time>
      </trkpt>
      <trkpt lat="49.24068" lon="-0.42135">
        <ele>64.974442378031</ele>
        <time>2019-09-07T07:23:18Z</time>
      </trkpt>
      <trkpt lat="49.2406" lon="-0.42138">
        <ele>62.974229439663</ele>
        <time>2019-09-07T07:23:25Z</time>
      </trkpt>
      <trkpt lat="49.24052" lon="-0.42141">
        <ele>64.974008397404</ele>
        <time>2019-09-07T07:23:30Z</time>
      </trkpt>
      <trkpt lat="49.24044" lon="-0.42144">
        <ele>64.973781297945</ele>
        <time>2019-09-07T07:23:37Z</time>
      </trkpt>
      <trkpt lat="49.24036" lon="-0.42144">
        <ele>61.973556809697</ele>
        <time>2019-09-07T07:23:45Z</time>
      </trkpt>
      <trkpt lat="49.24029" lon="-0.42147">
        <ele>63.973368235831</ele>
        <time>2019-09-07T07:23:50Z</time>
      </trkpt>
      <trkpt lat="49.24023" lon="-0.42148">
        <ele>63.973182260223</ele>
        <time>2019-09-07T07:23:56Z</time>
      </trkpt>
      <trkpt lat="49.24015" lon="-0.42148">
        <ele>65.9729619655</ele>
        <time>2019-09-07T07:24:01Z</time>
      </trkpt>
      <trkpt lat="49.24007" lon="-0.42149">
        <ele>63.972755337479</ele>
        <time>2019-09-07T07:24:09Z</time>
      </trkpt>
      <trkpt lat="49.23998" lon="-0.42151">
        <ele>66.972514189152</ele>
        <time>2019-09-07T07:24:15Z</time>
      </trkpt>
      <trkpt lat="49.2399" lon="-0.42152">
        <ele>66.972281019048</ele>
        <time>2019-09-07T07:24:22Z</time>
      </trkpt>
      <trkpt lat="49.23982" lon="-0.42153">
        <ele>63.972053311278</ele>
        <time>2019-09-07T07:24:30Z</time>
      </trkpt>
      <trkpt lat="49.23974" lon="-0.42155">
        <ele>63.971838826325</ele>
        <time>2019-09-07T07:24:36Z</time>
      </trkpt>
      <trkpt lat="49.23965" lon="-0.4216">
        <ele>64.97159016574</ele>
        <time>2019-09-07T07:24:41Z</time>
      </trkpt>
      <trkpt lat="49.23958" lon="-0.42164">
        <ele>62.971383847952</ele>
        <time>2019-09-07T07:24:46Z</time>
      </trkpt>
      <trkpt lat="49.2395" lon="-0.42166">
        <ele>62.97115075626</ele>
        <time>2019-09-07T07:24:52Z</time>
      </trkpt>
      <trkpt lat="49.23941" lon="-0.42168">
        <ele>62.970912781373</ele>
        <time>2019-09-07T07:25:00Z</time>
      </trkpt>
      <trkpt lat="49.23933" lon="-0.4217">
        <ele>62.970687304115</ele>
        <time>2019-09-07T07:25:08Z</time>
      </trkpt>
      <trkpt lat="49.23924" lon="-0.42172">
        <ele>62.970446046223</ele>
        <time>2019-09-07T07:25:14Z</time>
      </trkpt>
      <trkpt lat="49.23916" lon="-0.42174">
        <ele>62.970216823166</ele>
        <time>2019-09-07T07:25:19Z</time>
      </trkpt>
      <trkpt lat="49.23908" lon="-0.42176">
        <ele>62.969993554033</ele>
        <time>2019-09-07T07:25:27Z</time>
      </trkpt>
      <trkpt lat="49.239" lon="-0.42177">
        <ele>63.969762211675</ele>
        <time>2019-09-07T07:25:34Z</time>
      </trkpt>
      <trkpt lat="49.23892" lon="-0.42178">
        <ele>63.969537979947</ele>
        <time>2019-09-07T07:25:40Z</time>
      </trkpt>
      <trkpt lat="49.23883" lon="-0.42181">
        <ele>62.969304051482</ele>
        <time>2019-09-07T07:25:48Z</time>
      </trkpt>
      <trkpt lat="49.23875" lon="-0.42184">
        <ele>64.969073100273</ele>
        <time>2019-09-07T07:25:54Z</time>
      </trkpt>
      <trkpt lat="49.23867" lon="-0.42188">
        <ele>63.968846663745</ele>
        <time>2019-09-07T07:26:00Z</time>
      </trkpt>
      <trkpt lat="49.23859" lon="-0.4219">
        <ele>62.968615902073</ele>
        <time>2019-09-07T07:26:06Z</time>
      </trkpt>
      <trkpt lat="49.2385" lon="-0.42192">
        <ele>61.968371307731</ele>
        <time>2019-09-07T07:26:13Z</time>
      </trkpt>
      <trkpt lat="49.23842" lon="-0.42193">
        <ele>61.968131422757</ele>
        <time>2019-09-07T07:26:20Z</time>
      </trkpt>
      <trkpt lat="49.23834" lon="-0.42197">
        <ele>64.9679109293</ele>
        <time>2019-09-07T07:26:27Z</time>
      </trkpt>
      <trkpt lat="49.23825" lon="-0.422">
        <ele>63.967675656917</ele>
        <time>2019-09-07T07:26:34Z</time>
      </trkpt>
      <trkpt lat="49.23818" lon="-0.42204">
        <ele>62.967466341695</ele>
        <time>2019-09-07T07:26:40Z</time>
      </trkpt>
      <trkpt lat="49.2381" lon="-0.42206">
        <ele>62.967241149764</ele>
        <time>2019-09-07T07:26:46Z</time>
      </trkpt>
      <trkpt lat="49.23802" lon="-0.42208">
        <ele>61.967025815988</ele>
        <time>2019-09-07T07:26:53Z</time>
      </trkpt>
      <trkpt lat="49.23794" lon="-0.42212">
        <ele>63.966797556167</ele>
        <time>2019-09-07T07:27:00Z</time>
      </trkpt>
      <trkpt lat="49.23786" lon="-0.42215">
        <ele>63.966564329393</ele>
        <time>2019-09-07T07:27:07Z</time>
      </trkpt>
      <trkpt lat="49.23778" lon="-0.42216">
        <ele>64.966340040347</ele>
        <time>2019-09-07T07:27:14Z</time>
      </trkpt>
      <trkpt lat="49.23769" lon="-0.42219">
        <ele>62.966092768559</ele>
        <time>2019-09-07T07:27:21Z</time>
      </trkpt>
      <trkpt lat="49.23762" lon="-0.42221">
        <ele>60.965879950243</ele>
        <time>2019-09-07T07:27:28Z</time>
      </trkpt>
      <trkpt lat="49.23754" lon="-0.42226">
        <ele>61.965667193506</ele>
        <time>2019-09-07T07:27:35Z</time>
      </trkpt>
      <trkpt lat="49.23748" lon="-0.42226">
        <ele>63.965482831575</ele>
        <time>2019-09-07T07:27:41Z</time>
      </trkpt>
      <trkpt lat="49.2374" lon="-0.42229">
        <ele>60.965263797838</ele>
        <time>2019-09-07T07:27:47Z</time>
      </trkpt>
      <trkpt lat="49.23732" lon="-0.42232">
        <ele>58.96504424882</ele>
        <time>2019-09-07T07:27:53Z</time>
      </trkpt>
      <trkpt lat="49.23724" lon="-0.42233">
        <ele>58.964807456793</ele>
        <time>2019-09-07T07:28:00Z</time>
      </trkpt>
      <trkpt lat="49.23715" lon="-0.42237">
        <ele>58.964566164433</ele>
        <time>2019-09-07T07:28:08Z</time>
      </trkpt>
      <trkpt lat="49.23708" lon="-0.4224">
        <ele>58.964350659403</ele>
        <time>2019-09-07T07:28:14Z</time>
      </trkpt>
      <trkpt lat="49.23699" lon="-0.42242">
        <ele>56.964102398587</ele>
        <time>2019-09-07T07:28:23Z</time>
      </trkpt>
      <trkpt lat="49.23691" lon="-0.42248">
        <ele>55.963865049531</ele>
        <time>2019-09-07T07:28:31Z</time>
      </trkpt>
      <trkpt lat="49.23683" lon="-0.42253">
        <ele>54.963652122057</ele>
        <time>2019-09-07T07:28:36Z</time>
      </trkpt>
      <trkpt lat="49.23675" lon="-0.42257">
        <ele>53.963426794852</ele>
        <time>2019-09-07T07:28:41Z</time>
      </trkpt>
      <trkpt lat="49.23667" lon="-0.42251">
        <ele>57.963215579534</ele>
        <time>2019-09-07T07:28:49Z</time>
      </trkpt>
      <trkpt lat="49.23663" lon="-0.42241">
        <ele>58.963119670415</ele>
        <time>2019-09-07T07:28:56Z</time>
      </trkpt>
      <trkpt lat="49.23658" lon="-0.4223">
        <ele>59.963000446196</ele>
        <time>2019-09-07T07:29:04Z</time>
      </trkpt>
      <trkpt lat="49.23663" lon="-0.42219">
        <ele>58.963153446695</ele>
        <time>2019-09-07T07:29:31Z</time>
      </trkpt>
      <trkpt lat="49.2366" lon="-0.42207">
        <ele>58.963111691396</ele>
        <time>2019-09-07T07:29:40Z</time>
      </trkpt>
      <trkpt lat="49.23657" lon="-0.42196">
        <ele>56.96304458888</ele>
        <time>2019-09-07T07:29:47Z</time>
      </trkpt>
      <trkpt lat="49.23656" lon="-0.42183">
        <ele>57.963052070532</ele>
        <time>2019-09-07T07:29:56Z</time>
      </trkpt>
      <trkpt lat="49.23653" lon="-0.42171">
        <ele>54.962992830628</ele>
        <time>2019-09-07T07:30:03Z</time>
      </trkpt>
      <trkpt lat="49.23652" lon="-0.42158">
        <ele>57.963003939739</ele>
        <time>2019-09-07T07:30:10Z</time>
      </trkpt>
      <trkpt lat="49.23648" lon="-0.42147">
        <ele>59.962911618784</ele>
        <time>2019-09-07T07:30:17Z</time>
      </trkpt>
      <trkpt lat="49.23639" lon="-0.42146">
        <ele>56.962673517681</ele>
        <time>2019-09-07T07:30:28Z</time>
      </trkpt>
      <trkpt lat="49.23634" lon="-0.42156">
        <ele>57.962491260152</ele>
        <time>2019-09-07T07:30:42Z</time>
      </trkpt>
      <trkpt lat="49.23629" lon="-0.42166">
        <ele>57.962346434592</ele>
        <time>2019-09-07T07:30:48Z</time>
      </trkpt>
      <trkpt lat="49.23624" lon="-0.42177">
        <ele>58.962194680968</ele>
        <time>2019-09-07T07:30:56Z</time>
      </trkpt>
      <trkpt lat="49.23621" lon="-0.42189">
        <ele>59.962084488312</ele>
        <time>2019-09-07T07:31:04Z</time>
      </trkpt>
      <trkpt lat="49.23623" lon="-0.42202">
        <ele>59.962103585024</ele>
        <time>2019-09-07T07:31:13Z</time>
      </trkpt>
      <trkpt lat="49.23618" lon="-0.42213">
        <ele>61.961936233253</ele>
        <time>2019-09-07T07:31:25Z</time>
      </trkpt>
      <trkpt lat="49.23612" lon="-0.42222">
        <ele>56.96175415816</ele>
        <time>2019-09-07T07:31:39Z</time>
      </trkpt>
      <trkpt lat="49.23609" lon="-0.42234">
        <ele>58.961629995329</ele>
        <time>2019-09-07T07:31:45Z</time>
      </trkpt>
      <trkpt lat="49.23607" lon="-0.42247">
        <ele>57.961567072517</ele>
        <time>2019-09-07T07:31:52Z</time>
      </trkpt>
      <trkpt lat="49.23604" lon="-0.42259">
        <ele>56.961460866175</ele>
        <time>2019-09-07T07:31:59Z</time>
      </trkpt>
      <trkpt lat="49.23601" lon="-0.42271">
        <ele>55.961349555451</ele>
        <time>2019-09-07T07:32:04Z</time>
      </trkpt>
      <trkpt lat="49.23598" lon="-0.42283">
        <ele>57.961239189246</ele>
        <time>2019-09-07T07:32:15Z</time>
      </trkpt>
      <trkpt lat="49.23593" lon="-0.42293">
        <ele>61.961064510972</ele>
        <time>2019-09-07T07:32:24Z</time>
      </trkpt>
      <trkpt lat="49.23591" lon="-0.42304">
        <ele>62.960984200492</ele>
        <time>2019-09-07T07:32:31Z</time>
      </trkpt>
      <trkpt lat="49.23589" lon="-0.42317">
        <ele>63.960892413289</ele>
        <time>2019-09-07T07:32:36Z</time>
      </trkpt>
      <trkpt lat="49.23584" lon="-0.42328">
        <ele>64.960741951696</ele>
        <time>2019-09-07T07:32:43Z</time>
      </trkpt>
      <trkpt lat="49.2358" lon="-0.42339">
        <ele>66.960600696749</ele>
        <time>2019-09-07T07:32:50Z</time>
      </trkpt>
      <trkpt lat="49.23574" lon="-0.4235">
        <ele>62.960411310062</ele>
        <time>2019-09-07T07:33:25Z</time>
      </trkpt>
      <trkpt lat="49.23573" lon="-0.42363">
        <ele>63.960353791984</ele>
        <time>2019-09-07T07:33:30Z</time>
      </trkpt>
      <trkpt lat="49.23569" lon="-0.42373">
        <ele>61.960213467193</ele>
        <time>2019-09-07T07:33:34Z</time>
      </trkpt>
      <trkpt lat="49.23566" lon="-0.42386">
        <ele>60.960105222377</ele>
        <time>2019-09-07T07:33:39Z</time>
      </trkpt>
      <trkpt lat="49.23563" lon="-0.42398">
        <ele>59.959992555523</ele>
        <time>2019-09-07T07:33:45Z</time>
      </trkpt>
      <trkpt lat="49.23561" lon="-0.4241">
        <ele>62.959914012682</ele>
        <time>2019-09-07T07:33:52Z</time>
      </trkpt>
      <trkpt lat="49.23558" lon="-0.42422">
        <ele>64.959804396256</ele>
        <time>2019-09-07T07:33:58Z</time>
      </trkpt>
      <trkpt lat="49.23557" lon="-0.42435">
        <ele>67.959748598436</ele>
        <time>2019-09-07T07:34:05Z</time>
      </trkpt>
      <trkpt lat="49.23553" lon="-0.42446">
        <ele>67.959609824801</ele>
        <time>2019-09-07T07:34:12Z</time>
      </trkpt>
      <trkpt lat="49.2355" lon="-0.42457">
        <ele>64.959485923181</ele>
        <time>2019-09-07T07:34:19Z</time>
      </trkpt>
      <trkpt lat="49.23547" lon="-0.4247">
        <ele>63.959374654928</ele>
        <time>2019-09-07T07:34:26Z</time>
      </trkpt>
      <trkpt lat="49.23543" lon="-0.42482">
        <ele>62.959233369723</ele>
        <time>2019-09-07T07:34:32Z</time>
      </trkpt>
      <trkpt lat="49.2354" lon="-0.42494">
        <ele>64.959131629981</ele>
        <time>2019-09-07T07:34:38Z</time>
      </trkpt>
      <trkpt lat="49.23537" lon="-0.42506">
        <ele>63.95903288223</ele>
        <time>2019-09-07T07:34:44Z</time>
      </trkpt>
      <trkpt lat="49.23533" lon="-0.42518">
        <ele>63.958889995861</ele>
        <time>2019-09-07T07:34:52Z</time>
      </trkpt>
      <trkpt lat="49.2353" lon="-0.42529">
        <ele>63.958779250908</ele>
        <time>2019-09-07T07:34:59Z</time>
      </trkpt>
      <trkpt lat="49.23528" lon="-0.42541">
        <ele>63.958691489967</ele>
        <time>2019-09-07T07:35:05Z</time>
      </trkpt>
      <trkpt lat="49.23525" lon="-0.42553">
        <ele>64.958587056337</ele>
        <time>2019-09-07T07:35:12Z</time>
      </trkpt>
      <trkpt lat="49.23523" lon="-0.42564">
        <ele>64.958499134862</ele>
        <time>2019-09-07T07:35:23Z</time>
      </trkpt>
      <trkpt lat="49.23521" lon="-0.42577">
        <ele>64.958415579005</ele>
        <time>2019-09-07T07:35:31Z</time>
      </trkpt>
      <trkpt lat="49.23518" lon="-0.42588">
        <ele>62.95828741986</ele>
        <time>2019-09-07T07:35:39Z</time>
      </trkpt>
      <trkpt lat="49.23514" lon="-0.42599">
        <ele>61.958161805827</ele>
        <time>2019-09-07T07:35:47Z</time>
      </trkpt>
      <trkpt lat="49.23512" lon="-0.4261">
        <ele>63.958063734485</ele>
        <time>2019-09-07T07:35:55Z</time>
      </trkpt>
      <trkpt lat="49.2351" lon="-0.42622">
        <ele>64.957976125565</ele>
        <time>2019-09-07T07:36:02Z</time>
      </trkpt>
      <trkpt lat="49.23506" lon="-0.42633">
        <ele>62.957860273904</ele>
        <time>2019-09-07T07:36:09Z</time>
      </trkpt>
      <trkpt lat="49.23503" lon="-0.42646">
        <ele>63.957737878823</ele>
        <time>2019-09-07T07:36:16Z</time>
      </trkpt>
      <trkpt lat="49.23501" lon="-0.42659">
        <ele>64.95765111318</ele>
        <time>2019-09-07T07:36:23Z</time>
      </trkpt>
      <trkpt lat="49.23498" lon="-0.42671">
        <ele>67.957544943416</ele>
        <time>2019-09-07T07:36:30Z</time>
      </trkpt>
      <trkpt lat="49.23494" lon="-0.42683">
        <ele>66.95740139869</ele>
        <time>2019-09-07T07:36:37Z</time>
      </trkpt>
      <trkpt lat="49.23492" lon="-0.42695">
        <ele>65.957300654175</ele>
        <time>2019-09-07T07:36:43Z</time>
      </trkpt>
      <trkpt lat="49.23489" lon="-0.42707">
        <ele>66.957198195848</ele>
        <time>2019-09-07T07:36:50Z</time>
      </trkpt>
      <trkpt lat="49.23486" lon="-0.4272">
        <ele>64.957078317635</ele>
        <time>2019-09-07T07:36:57Z</time>
      </trkpt>
      <trkpt lat="49.23483" lon="-0.42732">
        <ele>65.95697288203</ele>
        <time>2019-09-07T07:37:04Z</time>
      </trkpt>
      <trkpt lat="49.2348" lon="-0.42745">
        <ele>64.956853365369</ele>
        <time>2019-09-07T07:37:11Z</time>
      </trkpt>
      <trkpt lat="49.23478" lon="-0.42753">
        <ele>66.95676451562</ele>
        <time>2019-09-07T07:37:16Z</time>
      </trkpt>
      <trkpt lat="49.23475" lon="-0.42766">
        <ele>68.956656394461</ele>
        <time>2019-09-07T07:37:21Z</time>
      </trkpt>
      <trkpt lat="49.23471" lon="-0.42777">
        <ele>68.956508661117</ele>
        <time>2019-09-07T07:37:28Z</time>
      </trkpt>
      <trkpt lat="49.23471" lon="-0.4279">
        <ele>64.956481657677</ele>
        <time>2019-09-07T07:37:37Z</time>
      </trkpt>
      <trkpt lat="49.23469" lon="-0.42803">
        <ele>66.956388273027</ele>
        <time>2019-09-07T07:37:44Z</time>
      </trkpt>
      <trkpt lat="49.23466" lon="-0.42816">
        <ele>69.956277715991</ele>
        <time>2019-09-07T07:37:50Z</time>
      </trkpt>
      <trkpt lat="49.23464" lon="-0.42828">
        <ele>68.956182382633</ele>
        <time>2019-09-07T07:37:58Z</time>
      </trkpt>
      <trkpt lat="49.2346" lon="-0.4284">
        <ele>67.956045733128</ele>
        <time>2019-09-07T07:38:06Z</time>
      </trkpt>
      <trkpt lat="49.23458" lon="-0.42851">
        <ele>63.955946994205</ele>
        <time>2019-09-07T07:38:16Z</time>
      </trkpt>
      <trkpt lat="49.23457" lon="-0.42864">
        <ele>64.955885572866</ele>
        <time>2019-09-07T07:38:26Z</time>
      </trkpt>
      <trkpt lat="49.23455" lon="-0.42877">
        <ele>65.955796313058</ele>
        <time>2019-09-07T07:38:34Z</time>
      </trkpt>
      <trkpt lat="49.23451" lon="-0.42889">
        <ele>63.955661421498</ele>
        <time>2019-09-07T07:38:40Z</time>
      </trkpt>
      <trkpt lat="49.23448" lon="-0.42901">
        <ele>62.955549895317</ele>
        <time>2019-09-07T07:38:47Z</time>
      </trkpt>
      <trkpt lat="49.23448" lon="-0.42913">
        <ele>62.95552473927</ele>
        <time>2019-09-07T07:38:54Z</time>
      </trkpt>
      <trkpt lat="49.23446" lon="-0.42921">
        <ele>62.955432522455</ele>
        <time>2019-09-07T07:38:59Z</time>
      </trkpt>
      <trkpt lat="49.23439" lon="-0.42933">
        <ele>61.955200307566</ele>
        <time>2019-09-07T07:39:03Z</time>
      </trkpt>
      <trkpt lat="49.23437" lon="-0.42946">
        <ele>60.955134564657</ele>
        <time>2019-09-07T07:39:10Z</time>
      </trkpt>
      <trkpt lat="49.23434" lon="-0.42958">
        <ele>59.955012270372</ele>
        <time>2019-09-07T07:39:17Z</time>
      </trkpt>
      <trkpt lat="49.23431" lon="-0.42968">
        <ele>59.954891554796</ele>
        <time>2019-09-07T07:39:22Z</time>
      </trkpt>
      <trkpt lat="49.23428" lon="-0.42979">
        <ele>60.95477225785</ele>
        <time>2019-09-07T07:39:28Z</time>
      </trkpt>
      <trkpt lat="49.23425" lon="-0.4299">
        <ele>59.954652742726</ele>
        <time>2019-09-07T07:39:34Z</time>
      </trkpt>
      <trkpt lat="49.23422" lon="-0.43003">
        <ele>59.954558421611</ele>
        <time>2019-09-07T07:39:42Z</time>
      </trkpt>
      <trkpt lat="49.23421" lon="-0.43014">
        <ele>60.95448634773</ele>
        <time>2019-09-07T07:39:48Z</time>
      </trkpt>
      <trkpt lat="49.23419" lon="-0.43027">
        <ele>58.954395177412</ele>
        <time>2019-09-07T07:39:55Z</time>
      </trkpt>
      <trkpt lat="49.23417" lon="-0.43038">
        <ele>56.954299045595</ele>
        <time>2019-09-07T07:40:02Z</time>
      </trkpt>
      <trkpt lat="49.23413" lon="-0.4305">
        <ele>57.954174737155</ele>
        <time>2019-09-07T07:40:09Z</time>
      </trkpt>
      <trkpt lat="49.23411" lon="-0.43063">
        <ele>59.954077513555</ele>
        <time>2019-09-07T07:40:23Z</time>
      </trkpt>
      <trkpt lat="49.23408" lon="-0.43074">
        <ele>60.953953837668</ele>
        <time>2019-09-07T07:40:29Z</time>
      </trkpt>
      <trkpt lat="49.23403" lon="-0.43083">
        <ele>57.953781405397</ele>
        <time>2019-09-07T07:40:34Z</time>
      </trkpt>
      <trkpt lat="49.23402" lon="-0.43097">
        <ele>59.95373275829</ele>
        <time>2019-09-07T07:40:42Z</time>
      </trkpt>
      <trkpt lat="49.23399" lon="-0.43109">
        <ele>59.953620020621</ele>
        <time>2019-09-07T07:40:49Z</time>
      </trkpt>
      <trkpt lat="49.23395" lon="-0.43121">
        <ele>59.953473345735</ele>
        <time>2019-09-07T07:40:56Z</time>
      </trkpt>
      <trkpt lat="49.23395" lon="-0.43134">
        <ele>62.953428601939</ele>
        <time>2019-09-07T07:41:03Z</time>
      </trkpt>
      <trkpt lat="49.23392" lon="-0.43146">
        <ele>59.953320568446</ele>
        <time>2019-09-07T07:41:12Z</time>
      </trkpt>
      <trkpt lat="49.23386" lon="-0.43157">
        <ele>56.953111771234</ele>
        <time>2019-09-07T07:41:17Z</time>
      </trkpt>
      <trkpt lat="49.23385" lon="-0.43169">
        <ele>56.953040872528</ele>
        <time>2019-09-07T07:41:24Z</time>
      </trkpt>
      <trkpt lat="49.23382" lon="-0.43181">
        <ele>56.952933357825</ele>
        <time>2019-09-07T07:41:31Z</time>
      </trkpt>
      <trkpt lat="49.23381" lon="-0.43194">
        <ele>56.952862968152</ele>
        <time>2019-09-07T07:41:38Z</time>
      </trkpt>
      <trkpt lat="49.23377" lon="-0.43204">
        <ele>54.952720543417</ele>
        <time>2019-09-07T07:41:44Z</time>
      </trkpt>
      <trkpt lat="49.23376" lon="-0.43217">
        <ele>54.952657619493</ele>
        <time>2019-09-07T07:41:50Z</time>
      </trkpt>
      <trkpt lat="49.23373" lon="-0.43229">
        <ele>54.952537063243</ele>
        <time>2019-09-07T07:41:57Z</time>
      </trkpt>
      <trkpt lat="49.2337" lon="-0.43242">
        <ele>54.952431832009</ele>
        <time>2019-09-07T07:42:04Z</time>
      </trkpt>
      <trkpt lat="49.23368" lon="-0.43254">
        <ele>57.95234158508</ele>
        <time>2019-09-07T07:42:11Z</time>
      </trkpt>
      <trkpt lat="49.23364" lon="-0.43265">
        <ele>54.952174956173</ele>
        <time>2019-09-07T07:42:17Z</time>
      </trkpt>
      <trkpt lat="49.2336" lon="-0.43276">
        <ele>54.95204985868</ele>
        <time>2019-09-07T07:42:24Z</time>
      </trkpt>
      <trkpt lat="49.2336" lon="-0.4329">
        <ele>58.951993499418</ele>
        <time>2019-09-07T07:42:31Z</time>
      </trkpt>
      <trkpt lat="49.23358" lon="-0.43303">
        <ele>57.951899044314</ele>
        <time>2019-09-07T07:42:37Z</time>
      </trkpt>
      <trkpt lat="49.23354" lon="-0.43315">
        <ele>53.951752399354</ele>
        <time>2019-09-07T07:42:44Z</time>
      </trkpt>
      <trkpt lat="49.23352" lon="-0.43328">
        <ele>54.951662829824</ele>
        <time>2019-09-07T07:42:52Z</time>
      </trkpt>
      <trkpt lat="49.23348" lon="-0.43339">
        <ele>53.95153198711</ele>
        <time>2019-09-07T07:42:58Z</time>
      </trkpt>
      <trkpt lat="49.23344" lon="-0.4335">
        <ele>52.951368610033</ele>
        <time>2019-09-07T07:43:04Z</time>
      </trkpt>
      <trkpt lat="49.23341" lon="-0.43362">
        <ele>53.95126207117</ele>
        <time>2019-09-07T07:43:13Z</time>
      </trkpt>
      <trkpt lat="49.23337" lon="-0.43374">
        <ele>52.951110656363</ele>
        <time>2019-09-07T07:43:21Z</time>
      </trkpt>
      <trkpt lat="49.23333" lon="-0.43385">
        <ele>51.950965957146</ele>
        <time>2019-09-07T07:43:26Z</time>
      </trkpt>
      <trkpt lat="49.2333" lon="-0.43397">
        <ele>51.950856404425</ele>
        <time>2019-09-07T07:43:33Z</time>
      </trkpt>
      <trkpt lat="49.23327" lon="-0.43409">
        <ele>48.950715585832</ele>
        <time>2019-09-07T07:43:41Z</time>
      </trkpt>
      <trkpt lat="49.23323" lon="-0.43421">
        <ele>48.950568390627</ele>
        <time>2019-09-07T07:43:47Z</time>
      </trkpt>
      <trkpt lat="49.23319" lon="-0.4343">
        <ele>48.950438024349</ele>
        <time>2019-09-07T07:43:54Z</time>
      </trkpt>
      <trkpt lat="49.23317" lon="-0.43443">
        <ele>48.950334795751</ele>
        <time>2019-09-07T07:44:01Z</time>
      </trkpt>
      <trkpt lat="49.23314" lon="-0.43454">
        <ele>47.950218503644</ele>
        <time>2019-09-07T07:44:11Z</time>
      </trkpt>
      <trkpt lat="49.2331" lon="-0.43467">
        <ele>46.950075193597</ele>
        <time>2019-09-07T07:44:16Z</time>
      </trkpt>
      <trkpt lat="49.23309" lon="-0.43479">
        <ele>47.949987324716</ele>
        <time>2019-09-07T07:44:23Z</time>
      </trkpt>
      <trkpt lat="49.23307" lon="-0.43491">
        <ele>47.949898940474</ele>
        <time>2019-09-07T07:44:29Z</time>
      </trkpt>
      <trkpt lat="49.23302" lon="-0.43503">
        <ele>46.949735932507</ele>
        <time>2019-09-07T07:44:36Z</time>
      </trkpt>
      <trkpt lat="49.23301" lon="-0.43515">
        <ele>47.94966063397</ele>
        <time>2019-09-07T07:44:42Z</time>
      </trkpt>
      <trkpt lat="49.23298" lon="-0.43526">
        <ele>47.949540985094</ele>
        <time>2019-09-07T07:44:48Z</time>
      </trkpt>
      <trkpt lat="49.23296" lon="-0.43539">
        <ele>46.949450960681</ele>
        <time>2019-09-07T07:44:55Z</time>
      </trkpt>
      <trkpt lat="49.23295" lon="-0.43553">
        <ele>49.949372076881</ele>
        <time>2019-09-07T07:45:02Z</time>
      </trkpt>
      <trkpt lat="49.23293" lon="-0.43563">
        <ele>50.949294559235</ele>
        <time>2019-09-07T07:45:08Z</time>
      </trkpt>
      <trkpt lat="49.23291" lon="-0.43575">
        <ele>52.949197546409</ele>
        <time>2019-09-07T07:45:15Z</time>
      </trkpt>
      <trkpt lat="49.23286" lon="-0.43585">
        <ele>50.949028691281</ele>
        <time>2019-09-07T07:45:21Z</time>
      </trkpt>
      <trkpt lat="49.23283" lon="-0.43598">
        <ele>48.948895758319</ele>
        <time>2019-09-07T07:45:27Z</time>
      </trkpt>
      <trkpt lat="49.23281" lon="-0.4361">
        <ele>46.94880882737</ele>
        <time>2019-09-07T07:45:33Z</time>
      </trkpt>
      <trkpt lat="49.23279" lon="-0.43622">
        <ele>44.948710756313</ele>
        <time>2019-09-07T07:45:39Z</time>
      </trkpt>
      <trkpt lat="49.23279" lon="-0.43634">
        <ele>43.948675068572</ele>
        <time>2019-09-07T07:45:46Z</time>
      </trkpt>
      <trkpt lat="49.23278" lon="-0.43648">
        <ele>44.948634574544</ele>
        <time>2019-09-07T07:45:53Z</time>
      </trkpt>
      <trkpt lat="49.2328" lon="-0.4366">
        <ele>47.948635729975</ele>
        <time>2019-09-07T07:45:59Z</time>
      </trkpt>
      <trkpt lat="49.23277" lon="-0.43672">
        <ele>44.948529467948</ele>
        <time>2019-09-07T07:46:05Z</time>
      </trkpt>
      <trkpt lat="49.23276" lon="-0.43684">
        <ele>46.948457464961</ele>
        <time>2019-09-07T07:46:12Z</time>
      </trkpt>
      <trkpt lat="49.23275" lon="-0.43697">
        <ele>45.948397674585</ele>
        <time>2019-09-07T07:46:19Z</time>
      </trkpt>
      <trkpt lat="49.23272" lon="-0.4371">
        <ele>42.948266615647</ele>
        <time>2019-09-07T07:46:25Z</time>
      </trkpt>
      <trkpt lat="49.23269" lon="-0.43722">
        <ele>41.94814158163</ele>
        <time>2019-09-07T07:46:31Z</time>
      </trkpt>
      <trkpt lat="49.23269" lon="-0.43734">
        <ele>43.948103084881</ele>
        <time>2019-09-07T07:46:38Z</time>
      </trkpt>
      <trkpt lat="49.23266" lon="-0.43743">
        <ele>44.947994865277</ele>
        <time>2019-09-07T07:46:43Z</time>
      </trkpt>
      <trkpt lat="49.23262" lon="-0.43755">
        <ele>42.947851190146</ele>
        <time>2019-09-07T07:46:49Z</time>
      </trkpt>
      <trkpt lat="49.23259" lon="-0.43766">
        <ele>42.947711722258</ele>
        <time>2019-09-07T07:46:56Z</time>
      </trkpt>
      <trkpt lat="49.23254" lon="-0.43777">
        <ele>42.947532467723</ele>
        <time>2019-09-07T07:47:03Z</time>
      </trkpt>
      <trkpt lat="49.23251" lon="-0.43789">
        <ele>43.947414389743</ele>
        <time>2019-09-07T07:47:10Z</time>
      </trkpt>
      <trkpt lat="49.23245" lon="-0.438">
        <ele>42.947220872401</ele>
        <time>2019-09-07T07:47:16Z</time>
      </trkpt>
      <trkpt lat="49.23241" lon="-0.43812">
        <ele>40.947051668977</ele>
        <time>2019-09-07T07:47:23Z</time>
      </trkpt>
      <trkpt lat="49.23236" lon="-0.43824">
        <ele>41.946884751342</ele>
        <time>2019-09-07T07:47:30Z</time>
      </trkpt>
      <trkpt lat="49.23231" lon="-0.43833">
        <ele>41.946704539451</ele>
        <time>2019-09-07T07:47:36Z</time>
      </trkpt>
      <trkpt lat="49.23227" lon="-0.43845">
        <ele>42.946533791625</ele>
        <time>2019-09-07T07:47:43Z</time>
      </trkpt>
      <trkpt lat="49.23226" lon="-0.43858">
        <ele>44.946472188368</ele>
        <time>2019-09-07T07:47:50Z</time>
      </trkpt>
      <trkpt lat="49.23221" lon="-0.43868">
        <ele>43.946300223781</ele>
        <time>2019-09-07T07:47:56Z</time>
      </trkpt>
      <trkpt lat="49.23217" lon="-0.43878">
        <ele>42.946131553857</ele>
        <time>2019-09-07T07:48:02Z</time>
      </trkpt>
      <trkpt lat="49.23211" lon="-0.43888">
        <ele>41.945917704334</ele>
        <time>2019-09-07T07:48:10Z</time>
      </trkpt>
      <trkpt lat="49.23209" lon="-0.43901">
        <ele>42.945822613471</ele>
        <time>2019-09-07T07:48:16Z</time>
      </trkpt>
      <trkpt lat="49.23204" lon="-0.43913">
        <ele>42.945643488145</ele>
        <time>2019-09-07T07:48:23Z</time>
      </trkpt>
      <trkpt lat="49.23198" lon="-0.43923">
        <ele>41.945448511606</ele>
        <time>2019-09-07T07:48:30Z</time>
      </trkpt>
      <trkpt lat="49.23193" lon="-0.43933">
        <ele>42.94527392902</ele>
        <time>2019-09-07T07:48:38Z</time>
      </trkpt>
      <trkpt lat="49.23185" lon="-0.43937">
        <ele>39.945010759463</ele>
        <time>2019-09-07T07:49:14Z</time>
      </trkpt>
      <trkpt lat="49.23177" lon="-0.43934">
        <ele>38.944776890271</ele>
        <time>2019-09-07T07:49:20Z</time>
      </trkpt>
      <trkpt lat="49.23168" lon="-0.43935">
        <ele>38.944502623157</ele>
        <time>2019-09-07T07:49:26Z</time>
      </trkpt>
      <trkpt lat="49.2316" lon="-0.43931">
        <ele>36.944266837143</ele>
        <time>2019-09-07T07:49:34Z</time>
      </trkpt>
      <trkpt lat="49.23151" lon="-0.43929">
        <ele>38.944012827709</ele>
        <time>2019-09-07T07:49:41Z</time>
      </trkpt>
      <trkpt lat="49.23143" lon="-0.43927">
        <ele>39.943772700712</ele>
        <time>2019-09-07T07:49:47Z</time>
      </trkpt>
      <trkpt lat="49.23135" lon="-0.43923">
        <ele>38.943524267093</ele>
        <time>2019-09-07T07:49:55Z</time>
      </trkpt>
      <trkpt lat="49.23126" lon="-0.43919">
        <ele>41.943277646908</ele>
        <time>2019-09-07T07:50:03Z</time>
      </trkpt>
      <trkpt lat="49.23118" lon="-0.4392">
        <ele>38.943041699861</ele>
        <time>2019-09-07T07:51:34Z</time>
      </trkpt>
      <trkpt lat="49.2311" lon="-0.43918">
        <ele>39.942780431616</ele>
        <time>2019-09-07T07:51:42Z</time>
      </trkpt>
      <trkpt lat="49.23101" lon="-0.43915">
        <ele>35.942540000441</ele>
        <time>2019-09-07T07:51:58Z</time>
      </trkpt>
      <trkpt lat="49.23093" lon="-0.4391">
        <ele>36.942297836447</ele>
        <time>2019-09-07T07:52:15Z</time>
      </trkpt>
      <trkpt lat="49.23084" lon="-0.4391">
        <ele>37.942031473837</ele>
        <time>2019-09-07T07:52:25Z</time>
      </trkpt>
      <trkpt lat="49.23076" lon="-0.43906">
        <ele>36.941792557287</ele>
        <time>2019-09-07T07:52:32Z</time>
      </trkpt>
      <trkpt lat="49.23068" lon="-0.439">
        <ele>40.941589988089</ele>
        <time>2019-09-07T07:52:41Z</time>
      </trkpt>
      <trkpt lat="49.23061" lon="-0.43897">
        <ele>40.941361036792</ele>
        <time>2019-09-07T07:52:48Z</time>
      </trkpt>
      <trkpt lat="49.23053" lon="-0.43894">
        <ele>40.941145020617</ele>
        <time>2019-09-07T07:52:55Z</time>
      </trkpt>
      <trkpt lat="49.23045" lon="-0.43895">
        <ele>39.940895290963</ele>
        <time>2019-09-07T07:53:08Z</time>
      </trkpt>
      <trkpt lat="49.23037" lon="-0.43894">
        <ele>38.940643134512</ele>
        <time>2019-09-07T07:53:14Z</time>
      </trkpt>
      <trkpt lat="49.23028" lon="-0.4389">
        <ele>41.940400477062</ele>
        <time>2019-09-07T07:53:20Z</time>
      </trkpt>
      <trkpt lat="49.2302" lon="-0.43888">
        <ele>41.940151126692</ele>
        <time>2019-09-07T07:53:28Z</time>
      </trkpt>
      <trkpt lat="49.23012" lon="-0.43883">
        <ele>40.939941304437</ele>
        <time>2019-09-07T07:53:37Z</time>
      </trkpt>
      <trkpt lat="49.23005" lon="-0.43881">
        <ele>39.93972197423</ele>
        <time>2019-09-07T07:53:43Z</time>
      </trkpt>
      <trkpt lat="49.22997" lon="-0.43878">
        <ele>36.939500428404</ele>
        <time>2019-09-07T07:53:51Z</time>
      </trkpt>
      <trkpt lat="49.22989" lon="-0.43877">
        <ele>37.939246319905</ele>
        <time>2019-09-07T07:53:59Z</time>
      </trkpt>
      <trkpt lat="49.22984" lon="-0.43887">
        <ele>39.939061851374</ele>
        <time>2019-09-07T07:54:06Z</time>
      </trkpt>
      <trkpt lat="49.22975" lon="-0.43891">
        <ele>42.93879461365</ele>
        <time>2019-09-07T07:54:15Z</time>
      </trkpt>
      <trkpt lat="49.22969" lon="-0.43884">
        <ele>43.938620587811</ele>
        <time>2019-09-07T07:54:26Z</time>
      </trkpt>
      <trkpt lat="49.22961" lon="-0.43877">
        <ele>45.938426312906</ele>
        <time>2019-09-07T07:54:32Z</time>
      </trkpt>
      <trkpt lat="49.22956" lon="-0.43868">
        <ele>45.938288107006</ele>
        <time>2019-09-07T07:54:39Z</time>
      </trkpt>
      <trkpt lat="49.22948" lon="-0.43861">
        <ele>44.93808455808</ele>
        <time>2019-09-07T07:54:46Z</time>
      </trkpt>
      <trkpt lat="49.22942" lon="-0.43853">
        <ele>44.93791396863</ele>
        <time>2019-09-07T07:54:53Z</time>
      </trkpt>
      <trkpt lat="49.22934" lon="-0.43849">
        <ele>45.93768945229</ele>
        <time>2019-09-07T07:54:59Z</time>
      </trkpt>
      <trkpt lat="49.22926" lon="-0.43845">
        <ele>45.937454101835</ele>
        <time>2019-09-07T07:55:06Z</time>
      </trkpt>
      <trkpt lat="49.22921" lon="-0.43833">
        <ele>45.937364302065</ele>
        <time>2019-09-07T07:55:13Z</time>
      </trkpt>
      <trkpt lat="49.22914" lon="-0.43829">
        <ele>46.937165636863</ele>
        <time>2019-09-07T07:55:20Z</time>
      </trkpt>
      <trkpt lat="49.22907" lon="-0.43823">
        <ele>46.936957808779</ele>
        <time>2019-09-07T07:55:27Z</time>
      </trkpt>
      <trkpt lat="49.229" lon="-0.43814">
        <ele>46.936788367656</ele>
        <time>2019-09-07T07:55:34Z</time>
      </trkpt>
      <trkpt lat="49.22893" lon="-0.43809">
        <ele>46.936590356238</ele>
        <time>2019-09-07T07:55:41Z</time>
      </trkpt>
      <trkpt lat="49.22885" lon="-0.43808">
        <ele>42.936356667203</ele>
        <time>2019-09-07T07:55:53Z</time>
      </trkpt>
      <trkpt lat="49.22878" lon="-0.43816">
        <ele>43.936127634839</ele>
        <time>2019-09-07T07:56:19Z</time>
      </trkpt>
      <trkpt lat="49.22876" lon="-0.43828">
        <ele>42.936027562694</ele>
        <time>2019-09-07T07:56:25Z</time>
      </trkpt>
      <trkpt lat="49.22875" lon="-0.43841">
        <ele>41.935948569829</ele>
        <time>2019-09-07T07:56:32Z</time>
      </trkpt>
      <trkpt lat="49.22875" lon="-0.43854">
        <ele>41.935906631357</ele>
        <time>2019-09-07T07:56:38Z</time>
      </trkpt>
      <trkpt lat="49.22877" lon="-0.43866">
        <ele>44.935914458386</ele>
        <time>2019-09-07T07:56:45Z</time>
      </trkpt>
      <trkpt lat="49.2288" lon="-0.43878">
        <ele>41.935963797098</ele>
        <time>2019-09-07T07:56:54Z</time>
      </trkpt>
      <trkpt lat="49.2288" lon="-0.43889">
        <ele>39.935938875333</ele>
        <time>2019-09-07T07:57:01Z</time>
      </trkpt>
      <trkpt lat="49.22882" lon="-0.43902">
        <ele>39.935942828147</ele>
        <time>2019-09-07T07:57:08Z</time>
      </trkpt>
      <trkpt lat="49.22883" lon="-0.43915">
        <ele>38.935926532078</ele>
        <time>2019-09-07T07:57:16Z</time>
      </trkpt>
      <trkpt lat="49.22886" lon="-0.43926">
        <ele>37.935981100855</ele>
        <time>2019-09-07T07:57:23Z</time>
      </trkpt>
      <trkpt lat="49.22885" lon="-0.43938">
        <ele>40.93591933419</ele>
        <time>2019-09-07T07:57:30Z</time>
      </trkpt>
      <trkpt lat="49.22884" lon="-0.43952">
        <ele>41.935842278817</ele>
        <time>2019-09-07T07:57:38Z</time>
      </trkpt>
      <trkpt lat="49.22887" lon="-0.43964">
        <ele>42.93587055986</ele>
        <time>2019-09-07T07:57:45Z</time>
      </trkpt>
      <trkpt lat="49.22888" lon="-0.43977">
        <ele>41.935861433076</ele>
        <time>2019-09-07T07:57:52Z</time>
      </trkpt>
      <trkpt lat="49.22887" lon="-0.43989">
        <ele>42.935807420742</ele>
        <time>2019-09-07T07:57:59Z</time>
      </trkpt>
      <trkpt lat="49.22888" lon="-0.44001">
        <ele>41.935792134802</ele>
        <time>2019-09-07T07:58:06Z</time>
      </trkpt>
      <trkpt lat="49.2289" lon="-0.44014">
        <ele>39.935819500947</ele>
        <time>2019-09-07T07:58:15Z</time>
      </trkpt>
      <trkpt lat="49.22892" lon="-0.44027">
        <ele>37.935832445667</ele>
        <time>2019-09-07T07:58:23Z</time>
      </trkpt>
      <trkpt lat="49.22892" lon="-0.4404">
        <ele>37.935787206862</ele>
        <time>2019-09-07T07:58:31Z</time>
      </trkpt>
      <trkpt lat="49.22884" lon="-0.44046">
        <ele>39.935521461524</ele>
        <time>2019-09-07T07:58:38Z</time>
      </trkpt>
      <trkpt lat="49.22876" lon="-0.44045">
        <ele>38.935279137089</ele>
        <time>2019-09-07T07:58:45Z</time>
      </trkpt>
      <trkpt lat="49.22868" lon="-0.44046">
        <ele>37.935041468833</ele>
        <time>2019-09-07T07:58:51Z</time>
      </trkpt>
      <trkpt lat="49.2286" lon="-0.44044">
        <ele>36.934788918612</ele>
        <time>2019-09-07T07:59:00Z</time>
      </trkpt>
      <trkpt lat="49.22852" lon="-0.4404">
        <ele>32.93457492367</ele>
        <time>2019-09-07T07:59:05Z</time>
      </trkpt>
      <trkpt lat="49.22845" lon="-0.44034">
        <ele>34.934383525619</ele>
        <time>2019-09-07T07:59:13Z</time>
      </trkpt>
      <trkpt lat="49.22837" lon="-0.44034">
        <ele>34.93411289042</ele>
        <time>2019-09-07T07:59:21Z</time>
      </trkpt>
      <trkpt lat="49.22828" lon="-0.4403">
        <ele>37.933869086777</ele>
        <time>2019-09-07T07:59:28Z</time>
      </trkpt>
      <trkpt lat="49.22821" lon="-0.44027">
        <ele>37.93365091686</ele>
        <time>2019-09-07T07:59:34Z</time>
      </trkpt>
      <trkpt lat="49.22812" lon="-0.44026">
        <ele>38.933396077375</ele>
        <time>2019-09-07T07:59:41Z</time>
      </trkpt>
      <trkpt lat="49.22803" lon="-0.44026">
        <ele>37.93312597051</ele>
        <time>2019-09-07T07:59:49Z</time>
      </trkpt>
      <trkpt lat="49.22795" lon="-0.44029">
        <ele>36.932873342689</ele>
        <time>2019-09-07T07:59:56Z</time>
      </trkpt>
      <trkpt lat="49.22788" lon="-0.44032">
        <ele>38.93262882139</ele>
        <time>2019-09-07T08:00:04Z</time>
      </trkpt>
      <trkpt lat="49.22779" lon="-0.44036">
        <ele>37.932356653719</ele>
        <time>2019-09-07T08:00:12Z</time>
      </trkpt>
      <trkpt lat="49.2277" lon="-0.44036">
        <ele>39.932090552985</ele>
        <time>2019-09-07T08:00:23Z</time>
      </trkpt>
      <trkpt lat="49.22762" lon="-0.4404">
        <ele>38.93181612054</ele>
        <time>2019-09-07T08:00:30Z</time>
      </trkpt>
      <trkpt lat="49.22753" lon="-0.44042">
        <ele>37.931545846086</ele>
        <time>2019-09-07T08:00:36Z</time>
      </trkpt>
      <trkpt lat="49.22745" lon="-0.44041">
        <ele>36.931298852205</ele>
        <time>2019-09-07T08:00:42Z</time>
      </trkpt>
      <trkpt lat="49.22737" lon="-0.44037">
        <ele>36.931056376666</ele>
        <time>2019-09-07T08:00:53Z</time>
      </trkpt>
      <trkpt lat="49.22728" lon="-0.44034">
        <ele>36.930816782223</ele>
        <time>2019-09-07T08:00:59Z</time>
      </trkpt>
      <trkpt lat="49.2272" lon="-0.44031">
        <ele>38.930565534071</ele>
        <time>2019-09-07T08:01:06Z</time>
      </trkpt>
      <trkpt lat="49.22712" lon="-0.44029">
        <ele>36.930326316069</ele>
        <time>2019-09-07T08:01:15Z</time>
      </trkpt>
      <trkpt lat="49.22703" lon="-0.44025">
        <ele>37.930086680606</ele>
        <time>2019-09-07T08:01:22Z</time>
      </trkpt>
      <trkpt lat="49.22696" lon="-0.4402">
        <ele>39.92988902336</ele>
        <time>2019-09-07T08:01:31Z</time>
      </trkpt>
      <trkpt lat="49.22688" lon="-0.44017">
        <ele>40.92964567594</ele>
        <time>2019-09-07T08:01:39Z</time>
      </trkpt>
      <trkpt lat="49.22679" lon="-0.44015">
        <ele>41.929399231913</ele>
        <time>2019-09-07T08:01:47Z</time>
      </trkpt>
      <trkpt lat="49.22672" lon="-0.44014">
        <ele>42.929166859875</ele>
        <time>2019-09-07T08:01:53Z</time>
      </trkpt>
      <trkpt lat="49.22664" lon="-0.44014">
        <ele>42.928936281907</ele>
        <time>2019-09-07T08:02:00Z</time>
      </trkpt>
      <trkpt lat="49.22656" lon="-0.4401">
        <ele>44.928696958409</ele>
        <time>2019-09-07T08:02:06Z</time>
      </trkpt>
      <trkpt lat="49.22647" lon="-0.44008">
        <ele>44.928435317813</ele>
        <time>2019-09-07T08:02:13Z</time>
      </trkpt>
      <trkpt lat="49.22639" lon="-0.44006">
        <ele>46.928195760338</ele>
        <time>2019-09-07T08:02:24Z</time>
      </trkpt>
      <trkpt lat="49.2263" lon="-0.44005">
        <ele>46.92793914673</ele>
        <time>2019-09-07T08:02:30Z</time>
      </trkpt>
      <trkpt lat="49.22622" lon="-0.44006">
        <ele>47.927670911759</ele>
        <time>2019-09-07T08:02:37Z</time>
      </trkpt>
      <trkpt lat="49.22613" lon="-0.44008">
        <ele>48.927412332195</ele>
        <time>2019-09-07T08:02:44Z</time>
      </trkpt>
      <trkpt lat="49.22605" lon="-0.44007">
        <ele>45.927171813719</ele>
        <time>2019-09-07T08:02:51Z</time>
      </trkpt>
      <trkpt lat="49.22597" lon="-0.44007">
        <ele>45.926920976223</ele>
        <time>2019-09-07T08:02:59Z</time>
      </trkpt>
      <trkpt lat="49.22589" lon="-0.44011">
        <ele>46.926653285603</ele>
        <time>2019-09-07T08:03:06Z</time>
      </trkpt>
      <trkpt lat="49.2258" lon="-0.44012">
        <ele>45.926390581161</ele>
        <time>2019-09-07T08:03:15Z</time>
      </trkpt>
      <trkpt lat="49.22573" lon="-0.44012">
        <ele>47.926170964822</ele>
        <time>2019-09-07T08:03:22Z</time>
      </trkpt>
      <trkpt lat="49.22564" lon="-0.44013">
        <ele>48.925903690557</ele>
        <time>2019-09-07T08:03:29Z</time>
      </trkpt>
      <trkpt lat="49.22556" lon="-0.44013">
        <ele>48.925660683039</ele>
        <time>2019-09-07T08:03:36Z</time>
      </trkpt>
      <trkpt lat="49.22548" lon="-0.44012">
        <ele>49.925419784036</ele>
        <time>2019-09-07T08:03:43Z</time>
      </trkpt>
      <trkpt lat="49.22541" lon="-0.44015">
        <ele>50.925179535062</ele>
        <time>2019-09-07T08:03:50Z</time>
      </trkpt>
      <trkpt lat="49.22533" lon="-0.44014">
        <ele>51.924957701361</ele>
        <time>2019-09-07T08:03:58Z</time>
      </trkpt>
      <trkpt lat="49.22525" lon="-0.44013">
        <ele>51.924718465401</ele>
        <time>2019-09-07T08:04:05Z</time>
      </trkpt>
      <trkpt lat="49.22517" lon="-0.44014">
        <ele>53.924452593737</ele>
        <time>2019-09-07T08:04:12Z</time>
      </trkpt>
      <trkpt lat="49.22509" lon="-0.44014">
        <ele>52.924216052746</ele>
        <time>2019-09-07T08:04:18Z</time>
      </trkpt>
      <trkpt lat="49.225" lon="-0.44014">
        <ele>54.923951881032</ele>
        <time>2019-09-07T08:04:26Z</time>
      </trkpt>
      <trkpt lat="49.22492" lon="-0.44015">
        <ele>55.923698952393</ele>
        <time>2019-09-07T08:04:33Z</time>
      </trkpt>
      <trkpt lat="49.22484" lon="-0.44015">
        <ele>53.923440210467</ele>
        <time>2019-09-07T08:04:40Z</time>
      </trkpt>
      <trkpt lat="49.22475" lon="-0.44014">
        <ele>52.923175852701</ele>
        <time>2019-09-07T08:04:47Z</time>
      </trkpt>
      <trkpt lat="49.22467" lon="-0.44013">
        <ele>52.922947570998</ele>
        <time>2019-09-07T08:04:54Z</time>
      </trkpt>
      <trkpt lat="49.22459" lon="-0.44013">
        <ele>51.922692356924</ele>
        <time>2019-09-07T08:05:01Z</time>
      </trkpt>
      <trkpt lat="49.2245" lon="-0.44012">
        <ele>50.922444457785</ele>
        <time>2019-09-07T08:05:09Z</time>
      </trkpt>
      <trkpt lat="49.22442" lon="-0.44011">
        <ele>51.922184466623</ele>
        <time>2019-09-07T08:05:16Z</time>
      </trkpt>
      <trkpt lat="49.22434" lon="-0.4401">
        <ele>52.921949789844</ele>
        <time>2019-09-07T08:05:23Z</time>
      </trkpt>
      <trkpt lat="49.22426" lon="-0.4401">
        <ele>52.9217024529</ele>
        <time>2019-09-07T08:05:29Z</time>
      </trkpt>
      <trkpt lat="49.22417" lon="-0.4401">
        <ele>50.921442247658</ele>
        <time>2019-09-07T08:05:36Z</time>
      </trkpt>
      <trkpt lat="49.22409" lon="-0.44008">
        <ele>51.921198144857</ele>
        <time>2019-09-07T08:05:47Z</time>
      </trkpt>
      <trkpt lat="49.224" lon="-0.44006">
        <ele>51.920943519803</ele>
        <time>2019-09-07T08:05:55Z</time>
      </trkpt>
      <trkpt lat="49.22392" lon="-0.44004">
        <ele>51.920693240641</ele>
        <time>2019-09-07T08:06:04Z</time>
      </trkpt>
      <trkpt lat="49.22385" lon="-0.43998">
        <ele>56.920500079091</ele>
        <time>2019-09-07T08:06:12Z</time>
      </trkpt>
      <trkpt lat="49.22376" lon="-0.43996">
        <ele>55.920260418696</ele>
        <time>2019-09-07T08:06:19Z</time>
      </trkpt>
      <trkpt lat="49.22369" lon="-0.43992">
        <ele>53.920057340931</ele>
        <time>2019-09-07T08:06:26Z</time>
      </trkpt>
      <trkpt lat="49.22361" lon="-0.43988">
        <ele>54.919829552143</ele>
        <time>2019-09-07T08:06:34Z</time>
      </trkpt>
      <trkpt lat="49.22352" lon="-0.43985">
        <ele>53.919577573309</ele>
        <time>2019-09-07T08:06:41Z</time>
      </trkpt>
      <trkpt lat="49.22345" lon="-0.43981">
        <ele>53.91935976664</ele>
        <time>2019-09-07T08:06:49Z</time>
      </trkpt>
      <trkpt lat="49.22337" lon="-0.43975">
        <ele>52.919159842562</ele>
        <time>2019-09-07T08:06:56Z</time>
      </trkpt>
      <trkpt lat="49.22329" lon="-0.43972">
        <ele>53.918920694484</ele>
        <time>2019-09-07T08:07:03Z</time>
      </trkpt>
      <trkpt lat="49.22322" lon="-0.43968">
        <ele>53.918718309091</ele>
        <time>2019-09-07T08:07:10Z</time>
      </trkpt>
      <trkpt lat="49.22313" lon="-0.43965">
        <ele>54.918469373185</ele>
        <time>2019-09-07T08:07:17Z</time>
      </trkpt>
      <trkpt lat="49.22305" lon="-0.4396">
        <ele>54.918256713011</ele>
        <time>2019-09-07T08:07:24Z</time>
      </trkpt>
      <trkpt lat="49.22298" lon="-0.43957">
        <ele>55.918035975057</ele>
        <time>2019-09-07T08:07:31Z</time>
      </trkpt>
      <trkpt lat="49.22289" lon="-0.43954">
        <ele>57.917790155458</ele>
        <time>2019-09-07T08:07:38Z</time>
      </trkpt>
      <trkpt lat="49.22281" lon="-0.43951">
        <ele>58.917557923199</ele>
        <time>2019-09-07T08:07:45Z</time>
      </trkpt>
      <trkpt lat="49.22273" lon="-0.43946">
        <ele>57.917324310374</ele>
        <time>2019-09-07T08:07:53Z</time>
      </trkpt>
      <trkpt lat="49.22265" lon="-0.43941">
        <ele>58.917109734683</ele>
        <time>2019-09-07T08:08:01Z</time>
      </trkpt>
      <trkpt lat="49.22258" lon="-0.43937">
        <ele>56.91690944054</ele>
        <time>2019-09-07T08:08:08Z</time>
      </trkpt>
      <trkpt lat="49.2225" lon="-0.43935">
        <ele>56.916685075173</ele>
        <time>2019-09-07T08:08:14Z</time>
      </trkpt>
      <trkpt lat="49.22241" lon="-0.43933">
        <ele>56.916427880797</ele>
        <time>2019-09-07T08:08:21Z</time>
      </trkpt>
      <trkpt lat="49.22234" lon="-0.43927">
        <ele>56.916219147286</ele>
        <time>2019-09-07T08:08:29Z</time>
      </trkpt>
      <trkpt lat="49.22226" lon="-0.43921">
        <ele>56.916028576967</ele>
        <time>2019-09-07T08:08:35Z</time>
      </trkpt>
      <trkpt lat="49.22218" lon="-0.43918">
        <ele>57.915781973667</ele>
        <time>2019-09-07T08:08:43Z</time>
      </trkpt>
      <trkpt lat="49.2221" lon="-0.43914">
        <ele>57.915556966748</ele>
        <time>2019-09-07T08:08:50Z</time>
      </trkpt>
      <trkpt lat="49.22201" lon="-0.43911">
        <ele>57.915303354037</ele>
        <time>2019-09-07T08:08:57Z</time>
      </trkpt>
      <trkpt lat="49.22192" lon="-0.43909">
        <ele>60.915054330658</ele>
        <time>2019-09-07T08:09:04Z</time>
      </trkpt>
      <trkpt lat="49.22186" lon="-0.43915">
        <ele>61.914843756332</ele>
        <time>2019-09-07T08:09:11Z</time>
      </trkpt>
      <trkpt lat="49.22179" lon="-0.43923">
        <ele>61.914587675661</ele>
        <time>2019-09-07T08:09:18Z</time>
      </trkpt>
      <trkpt lat="49.22172" lon="-0.43931">
        <ele>60.914333969635</ele>
        <time>2019-09-07T08:09:25Z</time>
      </trkpt>
      <trkpt lat="49.22164" lon="-0.43938">
        <ele>61.914067861259</ele>
        <time>2019-09-07T08:09:33Z</time>
      </trkpt>
      <trkpt lat="49.22157" lon="-0.43945">
        <ele>59.913812398831</ele>
        <time>2019-09-07T08:09:40Z</time>
      </trkpt>
      <trkpt lat="49.2215" lon="-0.43953">
        <ele>58.913571083294</ele>
        <time>2019-09-07T08:09:48Z</time>
      </trkpt>
      <trkpt lat="49.22143" lon="-0.4396">
        <ele>58.913340493791</ele>
        <time>2019-09-07T08:09:54Z</time>
      </trkpt>
      <trkpt lat="49.22136" lon="-0.43967">
        <ele>60.913084933905</ele>
        <time>2019-09-07T08:10:02Z</time>
      </trkpt>
      <trkpt lat="49.22129" lon="-0.43974">
        <ele>60.912828164653</ele>
        <time>2019-09-07T08:10:11Z</time>
      </trkpt>
      <trkpt lat="49.22121" lon="-0.4398">
        <ele>58.91257481241</ele>
        <time>2019-09-07T08:10:18Z</time>
      </trkpt>
      <trkpt lat="49.22115" lon="-0.43989">
        <ele>58.912329321919</ele>
        <time>2019-09-07T08:10:25Z</time>
      </trkpt>
      <trkpt lat="49.22108" lon="-0.43993">
        <ele>57.912123350167</ele>
        <time>2019-09-07T08:10:43Z</time>
      </trkpt>
      <trkpt lat="49.22102" lon="-0.44">
        <ele>56.911887407475</ele>
        <time>2019-09-07T08:10:48Z</time>
      </trkpt>
      <trkpt lat="49.22096" lon="-0.44008">
        <ele>59.911665261796</ele>
        <time>2019-09-07T08:10:54Z</time>
      </trkpt>
      <trkpt lat="49.22089" lon="-0.44015">
        <ele>60.91143208165</ele>
        <time>2019-09-07T08:11:00Z</time>
      </trkpt>
      <trkpt lat="49.22082" lon="-0.44021">
        <ele>60.911207245224</ele>
        <time>2019-09-07T08:11:06Z</time>
      </trkpt>
      <trkpt lat="49.22076" lon="-0.4403">
        <ele>60.910968122344</ele>
        <time>2019-09-07T08:11:13Z</time>
      </trkpt>
      <trkpt lat="49.22071" lon="-0.44041">
        <ele>60.910767010139</ele>
        <time>2019-09-07T08:11:23Z</time>
      </trkpt>
      <trkpt lat="49.22077" lon="-0.4405">
        <ele>62.910917156547</ele>
        <time>2019-09-07T08:11:30Z</time>
      </trkpt>
      <trkpt lat="49.22082" lon="-0.44062">
        <ele>60.910986566002</ele>
        <time>2019-09-07T08:11:38Z</time>
      </trkpt>
      <trkpt lat="49.22088" lon="-0.44072">
        <ele>60.911131737546</ele>
        <time>2019-09-07T08:11:45Z</time>
      </trkpt>
      <trkpt lat="49.22092" lon="-0.44081">
        <ele>58.911230285806</ele>
        <time>2019-09-07T08:11:51Z</time>
      </trkpt>
      <trkpt lat="49.22097" lon="-0.44093">
        <ele>60.911320909741</ele>
        <time>2019-09-07T08:12:01Z</time>
      </trkpt>
      <trkpt lat="49.22102" lon="-0.44102">
        <ele>59.911423987081</ele>
        <time>2019-09-07T08:12:08Z</time>
      </trkpt>
      <trkpt lat="49.22106" lon="-0.44114">
        <ele>58.911489445371</ele>
        <time>2019-09-07T08:12:15Z</time>
      </trkpt>
      <trkpt lat="49.22112" lon="-0.44122">
        <ele>58.911634844244</ele>
        <time>2019-09-07T08:12:21Z</time>
      </trkpt>
      <trkpt lat="49.22115" lon="-0.44134">
        <ele>57.911666442883</ele>
        <time>2019-09-07T08:12:27Z</time>
      </trkpt>
      <trkpt lat="49.22118" lon="-0.44146">
        <ele>59.911729306847</ele>
        <time>2019-09-07T08:12:34Z</time>
      </trkpt>
      <trkpt lat="49.22123" lon="-0.44155">
        <ele>56.911825335195</ele>
        <time>2019-09-07T08:12:52Z</time>
      </trkpt>
      <trkpt lat="49.22128" lon="-0.44165">
        <ele>53.911935043939</ele>
        <time>2019-09-07T08:12:59Z</time>
      </trkpt>
      <trkpt lat="49.22132" lon="-0.44177">
        <ele>53.91198543934</ele>
        <time>2019-09-07T08:13:06Z</time>
      </trkpt>
      <trkpt lat="49.22136" lon="-0.44188">
        <ele>52.9120863528</ele>
        <time>2019-09-07T08:13:14Z</time>
      </trkpt>
      <trkpt lat="49.22141" lon="-0.44199">
        <ele>52.912186631783</ele>
        <time>2019-09-07T08:13:22Z</time>
      </trkpt>
      <trkpt lat="49.22145" lon="-0.4421">
        <ele>51.912234476848</ele>
        <time>2019-09-07T08:13:29Z</time>
      </trkpt>
      <trkpt lat="49.22149" lon="-0.44221">
        <ele>52.912331108595</ele>
        <time>2019-09-07T08:13:36Z</time>
      </trkpt>
      <trkpt lat="49.22154" lon="-0.44232">
        <ele>53.912411154973</ele>
        <time>2019-09-07T08:13:42Z</time>
      </trkpt>
      <trkpt lat="49.22159" lon="-0.44243">
        <ele>53.912513893842</ele>
        <time>2019-09-07T08:13:49Z</time>
      </trkpt>
      <trkpt lat="49.22164" lon="-0.44253">
        <ele>54.912632955251</ele>
        <time>2019-09-07T08:13:55Z</time>
      </trkpt>
      <trkpt lat="49.22167" lon="-0.44264">
        <ele>55.912671893036</ele>
        <time>2019-09-07T08:14:03Z</time>
      </trkpt>
      <trkpt lat="49.2217" lon="-0.44276">
        <ele>56.912714277428</ele>
        <time>2019-09-07T08:14:10Z</time>
      </trkpt>
      <trkpt lat="49.22175" lon="-0.44287">
        <ele>56.912805964138</ele>
        <time>2019-09-07T08:14:17Z</time>
      </trkpt>
      <trkpt lat="49.22178" lon="-0.44299">
        <ele>55.912864515949</ele>
        <time>2019-09-07T08:14:24Z</time>
      </trkpt>
      <trkpt lat="49.22182" lon="-0.4431">
        <ele>53.912944272972</ele>
        <time>2019-09-07T08:14:32Z</time>
      </trkpt>
      <trkpt lat="49.22187" lon="-0.44322">
        <ele>56.913022750124</ele>
        <time>2019-09-07T08:14:39Z</time>
      </trkpt>
      <trkpt lat="49.22191" lon="-0.44333">
        <ele>57.913112402549</ele>
        <time>2019-09-07T08:14:48Z</time>
      </trkpt>
      <trkpt lat="49.22194" lon="-0.44344">
        <ele>56.913159851014</ele>
        <time>2019-09-07T08:14:56Z</time>
      </trkpt>
      <trkpt lat="49.22199" lon="-0.44355">
        <ele>57.91327254779</ele>
        <time>2019-09-07T08:15:03Z</time>
      </trkpt>
      <trkpt lat="49.22204" lon="-0.44366">
        <ele>58.913366713782</ele>
        <time>2019-09-07T08:15:10Z</time>
      </trkpt>
      <trkpt lat="49.22208" lon="-0.44377">
        <ele>57.913448540256</ele>
        <time>2019-09-07T08:15:18Z</time>
      </trkpt>
      <trkpt lat="49.22214" lon="-0.44387">
        <ele>60.913582063617</ele>
        <time>2019-09-07T08:15:25Z</time>
      </trkpt>
      <trkpt lat="49.22219" lon="-0.44399">
        <ele>59.913671846143</ele>
        <time>2019-09-07T08:15:33Z</time>
      </trkpt>
      <trkpt lat="49.22222" lon="-0.4441">
        <ele>59.913731169732</ele>
        <time>2019-09-07T08:15:41Z</time>
      </trkpt>
      <trkpt lat="49.22227" lon="-0.44422">
        <ele>57.913814419238</ele>
        <time>2019-09-07T08:15:48Z</time>
      </trkpt>
      <trkpt lat="49.22231" lon="-0.44433">
        <ele>58.913909013535</ele>
        <time>2019-09-07T08:15:55Z</time>
      </trkpt>
      <trkpt lat="49.22232" lon="-0.44446">
        <ele>58.913883105249</ele>
        <time>2019-09-07T08:16:02Z</time>
      </trkpt>
      <trkpt lat="49.22233" lon="-0.4446">
        <ele>57.913848135694</ele>
        <time>2019-09-07T08:16:09Z</time>
      </trkpt>
      <trkpt lat="49.22237" lon="-0.44471">
        <ele>58.913930456852</ele>
        <time>2019-09-07T08:16:17Z</time>
      </trkpt>
      <trkpt lat="49.22243" lon="-0.4448">
        <ele>58.914056377499</ele>
        <time>2019-09-07T08:16:23Z</time>
      </trkpt>
      <trkpt lat="49.22243" lon="-0.44493">
        <ele>57.914021396148</ele>
        <time>2019-09-07T08:16:33Z</time>
      </trkpt>
      <trkpt lat="49.22236" lon="-0.44499">
        <ele>56.913766959376</ele>
        <time>2019-09-07T08:16:47Z</time>
      </trkpt>
      <trkpt lat="49.22228" lon="-0.44504">
        <ele>54.913508415371</ele>
        <time>2019-09-07T08:16:52Z</time>
      </trkpt>
      <trkpt lat="49.22222" lon="-0.44512">
        <ele>52.913276413099</ele>
        <time>2019-09-07T08:16:59Z</time>
      </trkpt>
      <trkpt lat="49.22215" lon="-0.44519">
        <ele>55.913023618043</ele>
        <time>2019-09-07T08:17:05Z</time>
      </trkpt>
      <trkpt lat="49.22207" lon="-0.44523">
        <ele>57.912738225268</ele>
        <time>2019-09-07T08:17:14Z</time>
      </trkpt>
      <trkpt lat="49.22199" lon="-0.44528">
        <ele>56.912496798442</ele>
        <time>2019-09-07T08:17:23Z</time>
      </trkpt>
      <trkpt lat="49.22193" lon="-0.44534">
        <ele>54.912274955755</ele>
        <time>2019-09-07T08:17:29Z</time>
      </trkpt>
      <trkpt lat="49.22186" lon="-0.4454">
        <ele>54.91203005016</ele>
        <time>2019-09-07T08:17:36Z</time>
      </trkpt>
      <trkpt lat="49.22179" lon="-0.44548">
        <ele>56.911773729044</ele>
        <time>2019-09-07T08:17:43Z</time>
      </trkpt>
      <trkpt lat="49.22172" lon="-0.44555">
        <ele>56.911507050542</ele>
        <time>2019-09-07T08:17:50Z</time>
      </trkpt>
      <trkpt lat="49.22165" lon="-0.44561">
        <ele>58.911256705488</ele>
        <time>2019-09-07T08:17:56Z</time>
      </trkpt>
      <trkpt lat="49.22157" lon="-0.44569">
        <ele>56.910997418567</ele>
        <time>2019-09-07T08:18:04Z</time>
      </trkpt>
      <trkpt lat="49.22149" lon="-0.44574">
        <ele>56.910721203572</ele>
        <time>2019-09-07T08:18:12Z</time>
      </trkpt>
      <trkpt lat="49.22141" lon="-0.4458">
        <ele>53.910446715641</ele>
        <time>2019-09-07T08:18:19Z</time>
      </trkpt>
      <trkpt lat="49.22134" lon="-0.44587">
        <ele>55.910182101068</ele>
        <time>2019-09-07T08:18:26Z</time>
      </trkpt>
      <trkpt lat="49.22127" lon="-0.44595">
        <ele>52.909935603107</ele>
        <time>2019-09-07T08:18:32Z</time>
      </trkpt>
      <trkpt lat="49.2212" lon="-0.44599">
        <ele>51.909675091356</ele>
        <time>2019-09-07T08:18:41Z</time>
      </trkpt>
      <trkpt lat="49.22113" lon="-0.44607">
        <ele>55.90942755775</ele>
        <time>2019-09-07T08:18:48Z</time>
      </trkpt>
      <trkpt lat="49.22105" lon="-0.44614">
        <ele>57.909161789774</ele>
        <time>2019-09-07T08:18:55Z</time>
      </trkpt>
      <trkpt lat="49.221" lon="-0.44624">
        <ele>55.908929456874</ele>
        <time>2019-09-07T08:19:03Z</time>
      </trkpt>
      <trkpt lat="49.22099" lon="-0.44636">
        <ele>57.908844090775</ele>
        <time>2019-09-07T08:19:10Z</time>
      </trkpt>
      <trkpt lat="49.22103" lon="-0.44647">
        <ele>57.908921537193</ele>
        <time>2019-09-07T08:19:17Z</time>
      </trkpt>
      <trkpt lat="49.22108" lon="-0.44657">
        <ele>58.909030501279</ele>
        <time>2019-09-07T08:19:24Z</time>
      </trkpt>
      <trkpt lat="49.22113" lon="-0.44668">
        <ele>57.909134267311</ele>
        <time>2019-09-07T08:19:32Z</time>
      </trkpt>
      <trkpt lat="49.22117" lon="-0.4468">
        <ele>57.909230544513</ele>
        <time>2019-09-07T08:19:39Z</time>
      </trkpt>
      <trkpt lat="49.22122" lon="-0.4469">
        <ele>57.909328893049</ele>
        <time>2019-09-07T08:19:46Z</time>
      </trkpt>
      <trkpt lat="49.22127" lon="-0.44701">
        <ele>58.90943005859</ele>
        <time>2019-09-07T08:19:53Z</time>
      </trkpt>
      <trkpt lat="49.22132" lon="-0.44711">
        <ele>59.909557110986</ele>
        <time>2019-09-07T08:20:00Z</time>
      </trkpt>
      <trkpt lat="49.22137" lon="-0.44722">
        <ele>59.909654218208</ele>
        <time>2019-09-07T08:20:07Z</time>
      </trkpt>
      <trkpt lat="49.22142" lon="-0.44732">
        <ele>60.909773485712</ele>
        <time>2019-09-07T08:20:14Z</time>
      </trkpt>
      <trkpt lat="49.22147" lon="-0.44742">
        <ele>59.909884052754</ele>
        <time>2019-09-07T08:20:21Z</time>
      </trkpt>
      <trkpt lat="49.22152" lon="-0.44753">
        <ele>59.909987693878</ele>
        <time>2019-09-07T08:20:28Z</time>
      </trkpt>
      <trkpt lat="49.22156" lon="-0.44764">
        <ele>57.910066855297</ele>
        <time>2019-09-07T08:20:35Z</time>
      </trkpt>
      <trkpt lat="49.22161" lon="-0.44773">
        <ele>57.910183640233</ele>
        <time>2019-09-07T08:20:41Z</time>
      </trkpt>
      <trkpt lat="49.22166" lon="-0.44783">
        <ele>57.910305297585</ele>
        <time>2019-09-07T08:20:49Z</time>
      </trkpt>
      <trkpt lat="49.2217" lon="-0.44796">
        <ele>56.910361088138</ele>
        <time>2019-09-07T08:20:57Z</time>
      </trkpt>
      <trkpt lat="49.22175" lon="-0.44807">
        <ele>54.910484562829</ele>
        <time>2019-09-07T08:21:05Z</time>
      </trkpt>
      <trkpt lat="49.2218" lon="-0.44818">
        <ele>57.910584459147</ele>
        <time>2019-09-07T08:21:12Z</time>
      </trkpt>
      <trkpt lat="49.22185" lon="-0.44828">
        <ele>55.910695570805</ele>
        <time>2019-09-07T08:21:19Z</time>
      </trkpt>
      <trkpt lat="49.22191" lon="-0.44837">
        <ele>54.910840460414</ele>
        <time>2019-09-07T08:21:26Z</time>
      </trkpt>
      <trkpt lat="49.22196" lon="-0.44846">
        <ele>54.910976605953</ele>
        <time>2019-09-07T08:21:32Z</time>
      </trkpt>
      <trkpt lat="49.22201" lon="-0.44857">
        <ele>55.911075773989</ele>
        <time>2019-09-07T08:21:39Z</time>
      </trkpt>
      <trkpt lat="49.22207" lon="-0.44865">
        <ele>54.911216040095</ele>
        <time>2019-09-07T08:21:46Z</time>
      </trkpt>
      <trkpt lat="49.22212" lon="-0.44876">
        <ele>54.911345735369</ele>
        <time>2019-09-07T08:21:53Z</time>
      </trkpt>
      <trkpt lat="49.22216" lon="-0.44887">
        <ele>56.911416513123</ele>
        <time>2019-09-07T08:22:01Z</time>
      </trkpt>
      <trkpt lat="49.22221" lon="-0.44898">
        <ele>54.911531802346</ele>
        <time>2019-09-07T08:22:09Z</time>
      </trkpt>
      <trkpt lat="49.22226" lon="-0.44908">
        <ele>53.911647867731</ele>
        <time>2019-09-07T08:22:16Z</time>
      </trkpt>
      <trkpt lat="49.22232" lon="-0.44919">
        <ele>53.911772170563</ele>
        <time>2019-09-07T08:22:23Z</time>
      </trkpt>
      <trkpt lat="49.22237" lon="-0.44929">
        <ele>53.911914552227</ele>
        <time>2019-09-07T08:22:30Z</time>
      </trkpt>
      <trkpt lat="49.22242" lon="-0.4494">
        <ele>51.912010538963</ele>
        <time>2019-09-07T08:22:44Z</time>
      </trkpt>
      <trkpt lat="49.22246" lon="-0.44951">
        <ele>52.912095204042</ele>
        <time>2019-09-07T08:22:51Z</time>
      </trkpt>
      <trkpt lat="49.22251" lon="-0.44961">
        <ele>56.912190980307</ele>
        <time>2019-09-07T08:22:57Z</time>
      </trkpt>
      <trkpt lat="49.22256" lon="-0.44971">
        <ele>54.912313377981</ele>
        <time>2019-09-07T08:23:04Z</time>
      </trkpt>
      <trkpt lat="49.2226" lon="-0.44981">
        <ele>54.912408537685</ele>
        <time>2019-09-07T08:23:11Z</time>
      </trkpt>
      <trkpt lat="49.22265" lon="-0.44992">
        <ele>54.912523154928</ele>
        <time>2019-09-07T08:23:18Z</time>
      </trkpt>
      <trkpt lat="49.22269" lon="-0.45004">
        <ele>52.912605001344</ele>
        <time>2019-09-07T08:23:25Z</time>
      </trkpt>
      <trkpt lat="49.22273" lon="-0.45015">
        <ele>51.912679715874</ele>
        <time>2019-09-07T08:23:32Z</time>
      </trkpt>
      <trkpt lat="49.22278" lon="-0.45026">
        <ele>52.912775567097</ele>
        <time>2019-09-07T08:23:39Z</time>
      </trkpt>
      <trkpt lat="49.22283" lon="-0.45036">
        <ele>53.912902988501</ele>
        <time>2019-09-07T08:23:46Z</time>
      </trkpt>
      <trkpt lat="49.22288" lon="-0.45047">
        <ele>52.912994531521</ele>
        <time>2019-09-07T08:23:53Z</time>
      </trkpt>
      <trkpt lat="49.22292" lon="-0.45059">
        <ele>52.913092811127</ele>
        <time>2019-09-07T08:24:00Z</time>
      </trkpt>
      <trkpt lat="49.22298" lon="-0.45069">
        <ele>49.91322175113</ele>
        <time>2019-09-07T08:24:07Z</time>
      </trkpt>
      <trkpt lat="49.22302" lon="-0.45079">
        <ele>48.913325892314</ele>
        <time>2019-09-07T08:24:14Z</time>
      </trkpt>
      <trkpt lat="49.22307" lon="-0.45089">
        <ele>48.913428122726</ele>
        <time>2019-09-07T08:24:20Z</time>
      </trkpt>
      <trkpt lat="49.22311" lon="-0.45099">
        <ele>48.913530249157</ele>
        <time>2019-09-07T08:24:26Z</time>
      </trkpt>
      <trkpt lat="49.22315" lon="-0.45108">
        <ele>46.913617734038</ele>
        <time>2019-09-07T08:24:33Z</time>
      </trkpt>
      <trkpt lat="49.22319" lon="-0.45119">
        <ele>45.913702371332</ele>
        <time>2019-09-07T08:24:39Z</time>
      </trkpt>
      <trkpt lat="49.22323" lon="-0.4513">
        <ele>45.91378831648</ele>
        <time>2019-09-07T08:24:46Z</time>
      </trkpt>
      <trkpt lat="49.22327" lon="-0.45142">
        <ele>47.913867693293</ele>
        <time>2019-09-07T08:24:53Z</time>
      </trkpt>
      <trkpt lat="49.22332" lon="-0.45152">
        <ele>47.913963638077</ele>
        <time>2019-09-07T08:25:00Z</time>
      </trkpt>
      <trkpt lat="49.22336" lon="-0.45163">
        <ele>47.914051584135</ele>
        <time>2019-09-07T08:25:06Z</time>
      </trkpt>
      <trkpt lat="49.22341" lon="-0.45173">
        <ele>48.914165906067</ele>
        <time>2019-09-07T08:25:12Z</time>
      </trkpt>
      <trkpt lat="49.22345" lon="-0.45184">
        <ele>48.914245858923</ele>
        <time>2019-09-07T08:25:18Z</time>
      </trkpt>
      <trkpt lat="49.22348" lon="-0.45195">
        <ele>46.914319675648</ele>
        <time>2019-09-07T08:25:25Z</time>
      </trkpt>
      <trkpt lat="49.22352" lon="-0.45206">
        <ele>46.914398831131</ele>
        <time>2019-09-07T08:25:32Z</time>
      </trkpt>
      <trkpt lat="49.22356" lon="-0.45218">
        <ele>45.914481910331</ele>
        <time>2019-09-07T08:25:39Z</time>
      </trkpt>
      <trkpt lat="49.22359" lon="-0.45229">
        <ele>44.914529161065</ele>
        <time>2019-09-07T08:25:45Z</time>
      </trkpt>
      <trkpt lat="49.22362" lon="-0.4524">
        <ele>42.914584376641</ele>
        <time>2019-09-07T08:25:51Z</time>
      </trkpt>
      <trkpt lat="49.22366" lon="-0.45249">
        <ele>41.914660441073</ele>
        <time>2019-09-07T08:25:57Z</time>
      </trkpt>
      <trkpt lat="49.22368" lon="-0.45262">
        <ele>42.914680333207</ele>
        <time>2019-09-07T08:26:03Z</time>
      </trkpt>
      <trkpt lat="49.22373" lon="-0.45271">
        <ele>42.914785331464</ele>
        <time>2019-09-07T08:26:09Z</time>
      </trkpt>
      <trkpt lat="49.22376" lon="-0.45282">
        <ele>41.914863025616</ele>
        <time>2019-09-07T08:26:15Z</time>
      </trkpt>
      <trkpt lat="49.22379" lon="-0.45293">
        <ele>39.91491044168</ele>
        <time>2019-09-07T08:26:22Z</time>
      </trkpt>
      <trkpt lat="49.22381" lon="-0.45304">
        <ele>39.914914833279</ele>
        <time>2019-09-07T08:26:28Z</time>
      </trkpt>
      <trkpt lat="49.22385" lon="-0.45315">
        <ele>42.915005097612</ele>
        <time>2019-09-07T08:26:34Z</time>
      </trkpt>
      <trkpt lat="49.22388" lon="-0.45327">
        <ele>43.915064526753</ele>
        <time>2019-09-07T08:26:41Z</time>
      </trkpt>
      <trkpt lat="49.22392" lon="-0.45338">
        <ele>42.915132467995</ele>
        <time>2019-09-07T08:26:48Z</time>
      </trkpt>
      <trkpt lat="49.22394" lon="-0.45349">
        <ele>44.915162193185</ele>
        <time>2019-09-07T08:26:54Z</time>
      </trkpt>
      <trkpt lat="49.22398" lon="-0.45361">
        <ele>44.915244775086</ele>
        <time>2019-09-07T08:27:01Z</time>
      </trkpt>
      <trkpt lat="49.22401" lon="-0.45374">
        <ele>45.915281791383</ele>
        <time>2019-09-07T08:27:08Z</time>
      </trkpt>
      <trkpt lat="49.22404" lon="-0.45386">
        <ele>45.915326594528</ele>
        <time>2019-09-07T08:27:15Z</time>
      </trkpt>
      <trkpt lat="49.22406" lon="-0.45398">
        <ele>45.915339366187</ele>
        <time>2019-09-07T08:27:22Z</time>
      </trkpt>
      <trkpt lat="49.22409" lon="-0.4541">
        <ele>45.915384504816</ele>
        <time>2019-09-07T08:27:28Z</time>
      </trkpt>
      <trkpt lat="49.22411" lon="-0.45423">
        <ele>45.915387483667</ele>
        <time>2019-09-07T08:27:36Z</time>
      </trkpt>
      <trkpt lat="49.22415" lon="-0.45435">
        <ele>45.915475840675</ele>
        <time>2019-09-07T08:27:43Z</time>
      </trkpt>
      <trkpt lat="49.22417" lon="-0.45447">
        <ele>47.915491126258</ele>
        <time>2019-09-07T08:27:50Z</time>
      </trkpt>
      <trkpt lat="49.22418" lon="-0.4546">
        <ele>47.915480488336</ele>
        <time>2019-09-07T08:27:57Z</time>
      </trkpt>
      <trkpt lat="49.22421" lon="-0.45472">
        <ele>48.915537588292</ele>
        <time>2019-09-07T08:28:04Z</time>
      </trkpt>
      <trkpt lat="49.2243" lon="-0.45477">
        <ele>47.915795402947</ele>
        <time>2019-09-07T08:28:09Z</time>
      </trkpt>
      <trkpt lat="49.2243" lon="-0.45485">
        <ele>50.915754495916</ele>
        <time>2019-09-07T08:28:17Z</time>
      </trkpt>
      <trkpt lat="49.22427" lon="-0.45501">
        <ele>49.915604596668</ele>
        <time>2019-09-07T08:28:22Z</time>
      </trkpt>
      <trkpt lat="49.22431" lon="-0.45512">
        <ele>50.915690855954</ele>
        <time>2019-09-07T08:28:29Z</time>
      </trkpt>
      <trkpt lat="49.22432" lon="-0.45524">
        <ele>48.915677042542</ele>
        <time>2019-09-07T08:28:35Z</time>
      </trkpt>
      <trkpt lat="49.22435" lon="-0.45536">
        <ele>50.915727383358</ele>
        <time>2019-09-07T08:28:48Z</time>
      </trkpt>
      <trkpt lat="49.22439" lon="-0.45548">
        <ele>50.915794207519</ele>
        <time>2019-09-07T08:28:55Z</time>
      </trkpt>
      <trkpt lat="49.22443" lon="-0.4556">
        <ele>52.915876985505</ele>
        <time>2019-09-07T08:29:04Z</time>
      </trkpt>
      <trkpt lat="49.22444" lon="-0.45573">
        <ele>52.915871475984</ele>
        <time>2019-09-07T08:29:11Z</time>
      </trkpt>
      <trkpt lat="49.22446" lon="-0.45586">
        <ele>49.915889494207</ele>
        <time>2019-09-07T08:29:17Z</time>
      </trkpt>
      <trkpt lat="49.22448" lon="-0.45599">
        <ele>50.915901700376</ele>
        <time>2019-09-07T08:29:24Z</time>
      </trkpt>
      <trkpt lat="49.22453" lon="-0.4561">
        <ele>49.916002709126</ele>
        <time>2019-09-07T08:29:38Z</time>
      </trkpt>
      <trkpt lat="49.22455" lon="-0.45622">
        <ele>49.916009685623</ele>
        <time>2019-09-07T08:29:45Z</time>
      </trkpt>
      <trkpt lat="49.22456" lon="-0.45635">
        <ele>49.916010742801</ele>
        <time>2019-09-07T08:29:52Z</time>
      </trkpt>
      <trkpt lat="49.2246" lon="-0.45646">
        <ele>50.916104115231</ele>
        <time>2019-09-07T08:29:59Z</time>
      </trkpt>
      <trkpt lat="49.22461" lon="-0.45658">
        <ele>51.916083330287</ele>
        <time>2019-09-07T08:30:06Z</time>
      </trkpt>
      <trkpt lat="49.22462" lon="-0.45671">
        <ele>51.916056731851</ele>
        <time>2019-09-07T08:30:13Z</time>
      </trkpt>
      <trkpt lat="49.22465" lon="-0.45684">
        <ele>51.916103029603</ele>
        <time>2019-09-07T08:30:20Z</time>
      </trkpt>
      <trkpt lat="49.22466" lon="-0.45696">
        <ele>52.916098865927</ele>
        <time>2019-09-07T08:30:27Z</time>
      </trkpt>
      <trkpt lat="49.22469" lon="-0.45708">
        <ele>51.916128625373</ele>
        <time>2019-09-07T08:30:34Z</time>
      </trkpt>
      <trkpt lat="49.22473" lon="-0.4572">
        <ele>51.916221724942</ele>
        <time>2019-09-07T08:30:41Z</time>
      </trkpt>
      <trkpt lat="49.22477" lon="-0.45731">
        <ele>52.91631772065</ele>
        <time>2019-09-07T08:30:48Z</time>
      </trkpt>
      <trkpt lat="49.22476" lon="-0.45744">
        <ele>50.916241578977</ele>
        <time>2019-09-07T08:30:54Z</time>
      </trkpt>
      <trkpt lat="49.22479" lon="-0.45755">
        <ele>51.916285169335</ele>
        <time>2019-09-07T08:31:01Z</time>
      </trkpt>
      <trkpt lat="49.22482" lon="-0.45767">
        <ele>51.916336992901</ele>
        <time>2019-09-07T08:31:09Z</time>
      </trkpt>
      <trkpt lat="49.22484" lon="-0.4578">
        <ele>51.91633103135</ele>
        <time>2019-09-07T08:31:16Z</time>
      </trkpt>
      <trkpt lat="49.22485" lon="-0.45792">
        <ele>51.916318395869</ele>
        <time>2019-09-07T08:31:23Z</time>
      </trkpt>
      <trkpt lat="49.22486" lon="-0.45805">
        <ele>51.916313370459</ele>
        <time>2019-09-07T08:31:30Z</time>
      </trkpt>
      <trkpt lat="49.22489" lon="-0.45818">
        <ele>51.916358189667</ele>
        <time>2019-09-07T08:31:37Z</time>
      </trkpt>
      <trkpt lat="49.22494" lon="-0.45828">
        <ele>52.916473887767</ele>
        <time>2019-09-07T08:31:44Z</time>
      </trkpt>
      <trkpt lat="49.22497" lon="-0.4584">
        <ele>53.916536242077</ele>
        <time>2019-09-07T08:31:51Z</time>
      </trkpt>
      <trkpt lat="49.225" lon="-0.45852">
        <ele>52.916587886722</ele>
        <time>2019-09-07T08:31:59Z</time>
      </trkpt>
      <trkpt lat="49.22502" lon="-0.45865">
        <ele>50.9165986443</ele>
        <time>2019-09-07T08:32:06Z</time>
      </trkpt>
      <trkpt lat="49.22504" lon="-0.45878">
        <ele>50.916614670986</ele>
        <time>2019-09-07T08:32:14Z</time>
      </trkpt>
      <trkpt lat="49.22508" lon="-0.45888">
        <ele>51.91670137413</ele>
        <time>2019-09-07T08:32:20Z</time>
      </trkpt>
      <trkpt lat="49.22508" lon="-0.459">
        <ele>50.916664198386</ele>
        <time>2019-09-07T08:32:26Z</time>
      </trkpt>
      <trkpt lat="49.22511" lon="-0.45913">
        <ele>49.916702767987</ele>
        <time>2019-09-07T08:32:33Z</time>
      </trkpt>
      <trkpt lat="49.22514" lon="-0.45925">
        <ele>49.916758858263</ele>
        <time>2019-09-07T08:32:41Z</time>
      </trkpt>
      <trkpt lat="49.22516" lon="-0.45938">
        <ele>48.916776303061</ele>
        <time>2019-09-07T08:32:49Z</time>
      </trkpt>
      <trkpt lat="49.22518" lon="-0.4595">
        <ele>48.916805969653</ele>
        <time>2019-09-07T08:32:56Z</time>
      </trkpt>
      <trkpt lat="49.2252" lon="-0.45962">
        <ele>46.916832693434</ele>
        <time>2019-09-07T08:33:03Z</time>
      </trkpt>
      <trkpt lat="49.22524" lon="-0.45974">
        <ele>47.916909167664</ele>
        <time>2019-09-07T08:33:12Z</time>
      </trkpt>
      <trkpt lat="49.22527" lon="-0.45987">
        <ele>45.916938610272</ele>
        <time>2019-09-07T08:33:19Z</time>
      </trkpt>
      <trkpt lat="49.22529" lon="-0.45999">
        <ele>46.916986685945</ele>
        <time>2019-09-07T08:33:27Z</time>
      </trkpt>
      <trkpt lat="49.22533" lon="-0.46012">
        <ele>45.917066669953</ele>
        <time>2019-09-07T08:33:35Z</time>
      </trkpt>
      <trkpt lat="49.22535" lon="-0.46024">
        <ele>44.917075891448</ele>
        <time>2019-09-07T08:33:42Z</time>
      </trkpt>
      <trkpt lat="49.22539" lon="-0.46036">
        <ele>44.917149868009</ele>
        <time>2019-09-07T08:33:49Z</time>
      </trkpt>
      <trkpt lat="49.22543" lon="-0.46048">
        <ele>42.917241263062</ele>
        <time>2019-09-07T08:33:57Z</time>
      </trkpt>
      <trkpt lat="49.22545" lon="-0.46061">
        <ele>39.917274172201</ele>
        <time>2019-09-07T08:34:05Z</time>
      </trkpt>
      <trkpt lat="49.22549" lon="-0.46073">
        <ele>43.91736280691</ele>
        <time>2019-09-07T08:34:12Z</time>
      </trkpt>
      <trkpt lat="49.22554" lon="-0.46083">
        <ele>43.917473917011</ele>
        <time>2019-09-07T08:34:18Z</time>
      </trkpt>
      <trkpt lat="49.22556" lon="-0.46096">
        <ele>42.917518033621</ele>
        <time>2019-09-07T08:34:26Z</time>
      </trkpt>
      <trkpt lat="49.22559" lon="-0.46108">
        <ele>42.917564424307</ele>
        <time>2019-09-07T08:34:33Z</time>
      </trkpt>
      <trkpt lat="49.22566" lon="-0.46115">
        <ele>40.917759220005</ele>
        <time>2019-09-07T08:34:39Z</time>
      </trkpt>
      <trkpt lat="49.22572" lon="-0.46125">
        <ele>39.917918714797</ele>
        <time>2019-09-07T08:34:49Z</time>
      </trkpt>
      <trkpt lat="49.22579" lon="-0.46122">
        <ele>38.918192257518</ele>
        <time>2019-09-07T08:34:56Z</time>
      </trkpt>
      <trkpt lat="49.22587" lon="-0.46118">
        <ele>38.918473259128</ele>
        <time>2019-09-07T08:35:04Z</time>
      </trkpt>
      <trkpt lat="49.22594" lon="-0.4611">
        <ele>40.918717555034</ele>
        <time>2019-09-07T08:35:12Z</time>
      </trkpt>
      <trkpt lat="49.22601" lon="-0.46103">
        <ele>40.918995051716</ele>
        <time>2019-09-07T08:35:19Z</time>
      </trkpt>
      <trkpt lat="49.22608" lon="-0.46097">
        <ele>37.91925711268</ele>
        <time>2019-09-07T08:35:25Z</time>
      </trkpt>
      <trkpt lat="49.22615" lon="-0.46089">
        <ele>43.919528293256</ele>
        <time>2019-09-07T08:35:39Z</time>
      </trkpt>
      <trkpt lat="49.22623" lon="-0.46083">
        <ele>44.91980969644</ele>
        <time>2019-09-07T08:35:47Z</time>
      </trkpt>
      <trkpt lat="49.22629" lon="-0.46073">
        <ele>43.92005495763</ele>
        <time>2019-09-07T08:35:53Z</time>
      </trkpt>
      <trkpt lat="49.22637" lon="-0.46068">
        <ele>43.9203308441</ele>
        <time>2019-09-07T08:36:00Z</time>
      </trkpt>
      <trkpt lat="49.22643" lon="-0.46059">
        <ele>47.920586697105</ele>
        <time>2019-09-07T08:36:17Z</time>
      </trkpt>
      <trkpt lat="49.22651" lon="-0.46054">
        <ele>47.920864060674</ele>
        <time>2019-09-07T08:36:23Z</time>
      </trkpt>
      <trkpt lat="49.22657" lon="-0.46046">
        <ele>47.921109814827</ele>
        <time>2019-09-07T08:37:03Z</time>
      </trkpt>
      <trkpt lat="49.22664" lon="-0.46041">
        <ele>44.92136435883</ele>
        <time>2019-09-07T08:37:08Z</time>
      </trkpt>
      <trkpt lat="49.22672" lon="-0.46034">
        <ele>43.921643279356</ele>
        <time>2019-09-07T08:37:15Z</time>
      </trkpt>
      <trkpt lat="49.22678" lon="-0.46026">
        <ele>44.921894572143</ele>
        <time>2019-09-07T08:37:27Z</time>
      </trkpt>
      <trkpt lat="49.22686" lon="-0.4602">
        <ele>44.922159141346</ele>
        <time>2019-09-07T08:37:33Z</time>
      </trkpt>
      <trkpt lat="49.22693" lon="-0.46013">
        <ele>41.922424761413</ele>
        <time>2019-09-07T08:37:43Z</time>
      </trkpt>
      <trkpt lat="49.227" lon="-0.46007">
        <ele>40.922700815768</ele>
        <time>2019-09-07T08:37:52Z</time>
      </trkpt>
      <trkpt lat="49.22708" lon="-0.46">
        <ele>42.922979284577</ele>
        <time>2019-09-07T08:37:59Z</time>
      </trkpt>
      <trkpt lat="49.22715" lon="-0.45993">
        <ele>46.92325992522</ele>
        <time>2019-09-07T08:38:07Z</time>
      </trkpt>
      <trkpt lat="49.22721" lon="-0.45985">
        <ele>46.923495631819</ele>
        <time>2019-09-07T08:38:15Z</time>
      </trkpt>
      <trkpt lat="49.22728" lon="-0.45978">
        <ele>43.923739962064</ele>
        <time>2019-09-07T08:38:39Z</time>
      </trkpt>
      <trkpt lat="49.22736" lon="-0.45983">
        <ele>43.923976679862</ele>
        <time>2019-09-07T08:38:45Z</time>
      </trkpt>
      <trkpt lat="49.22743" lon="-0.4599">
        <ele>43.92418579027</ele>
        <time>2019-09-07T08:38:58Z</time>
      </trkpt>
      <trkpt lat="49.22751" lon="-0.45985">
        <ele>42.924478861939</ele>
        <time>2019-09-07T08:39:10Z</time>
      </trkpt>
      <trkpt lat="49.22758" lon="-0.45989">
        <ele>37.924722260475</ele>
        <time>2019-09-07T08:39:17Z</time>
      </trkpt>
      <trkpt lat="49.22764" lon="-0.45999">
        <ele>39.924858968126</ele>
        <time>2019-09-07T08:39:24Z</time>
      </trkpt>
      <trkpt lat="49.22772" lon="-0.46">
        <ele>42.925129899082</ele>
        <time>2019-09-07T08:39:33Z</time>
      </trkpt>
      <trkpt lat="49.22779" lon="-0.45996">
        <ele>41.925391748013</ele>
        <time>2019-09-07T08:39:39Z</time>
      </trkpt>
      <trkpt lat="49.22788" lon="-0.45993">
        <ele>43.925687917805</ele>
        <time>2019-09-07T08:39:48Z</time>
      </trkpt>
      <trkpt lat="49.22795" lon="-0.45987">
        <ele>41.925946706878</ele>
        <time>2019-09-07T08:39:55Z</time>
      </trkpt>
      <trkpt lat="49.228" lon="-0.45979">
        <ele>43.926139949245</ele>
        <time>2019-09-07T08:40:02Z</time>
      </trkpt>
      <trkpt lat="49.22807" lon="-0.45972">
        <ele>45.926419847346</ele>
        <time>2019-09-07T08:40:07Z</time>
      </trkpt>
      <trkpt lat="49.22812" lon="-0.45962">
        <ele>45.926618584353</ele>
        <time>2019-09-07T08:40:14Z</time>
      </trkpt>
      <trkpt lat="49.22819" lon="-0.45954">
        <ele>43.926889718492</ele>
        <time>2019-09-07T08:40:25Z</time>
      </trkpt>
      <trkpt lat="49.22828" lon="-0.45951">
        <ele>40.927187999204</ele>
        <time>2019-09-07T08:40:35Z</time>
      </trkpt>
      <trkpt lat="49.2283" lon="-0.4594">
        <ele>43.927309960182</ele>
        <time>2019-09-07T08:40:43Z</time>
      </trkpt>
      <trkpt lat="49.22838" lon="-0.45942">
        <ele>41.927564132227</ele>
        <time>2019-09-07T08:40:49Z</time>
      </trkpt>
      <trkpt lat="49.22847" lon="-0.45946">
        <ele>40.927831548761</ele>
        <time>2019-09-07T08:40:56Z</time>
      </trkpt>
      <trkpt lat="49.22852" lon="-0.45956">
        <ele>37.927983211893</ele>
        <time>2019-09-07T08:41:04Z</time>
      </trkpt>
      <trkpt lat="49.22859" lon="-0.45963">
        <ele>38.928200257104</ele>
        <time>2019-09-07T08:41:10Z</time>
      </trkpt>
      <trkpt lat="49.22863" lon="-0.45975">
        <ele>39.928298834854</ele>
        <time>2019-09-07T08:41:17Z</time>
      </trkpt>
      <trkpt lat="49.22871" lon="-0.45981">
        <ele>38.928513997952</ele>
        <time>2019-09-07T08:41:24Z</time>
      </trkpt>
      <trkpt lat="49.22875" lon="-0.45993">
        <ele>38.928640076382</ele>
        <time>2019-09-07T08:41:32Z</time>
      </trkpt>
      <trkpt lat="49.22881" lon="-0.46003">
        <ele>41.928775766784</ele>
        <time>2019-09-07T08:41:40Z</time>
      </trkpt>
      <trkpt lat="49.22887" lon="-0.46012">
        <ele>43.928949066269</ele>
        <time>2019-09-07T08:41:46Z</time>
      </trkpt>
      <trkpt lat="49.22894" lon="-0.46019">
        <ele>42.929181479498</ele>
        <time>2019-09-07T08:41:53Z</time>
      </trkpt>
      <trkpt lat="49.22899" lon="-0.46028">
        <ele>37.929322531271</ele>
        <time>2019-09-07T08:42:00Z</time>
      </trkpt>
      <trkpt lat="49.22904" lon="-0.46036">
        <ele>39.929451287177</ele>
        <time>2019-09-07T08:42:06Z</time>
      </trkpt>
      <trkpt lat="49.22912" lon="-0.46043">
        <ele>38.929709912633</ele>
        <time>2019-09-07T08:42:11Z</time>
      </trkpt>
      <trkpt lat="49.22919" lon="-0.46051">
        <ele>39.929912501107</ele>
        <time>2019-09-07T08:42:20Z</time>
      </trkpt>
      <trkpt lat="49.22924" lon="-0.4606">
        <ele>39.930032820209</ele>
        <time>2019-09-07T08:42:26Z</time>
      </trkpt>
      <trkpt lat="49.2293" lon="-0.46069">
        <ele>39.930205055827</ele>
        <time>2019-09-07T08:42:33Z</time>
      </trkpt>
      <trkpt lat="49.22933" lon="-0.46081">
        <ele>38.930288466287</ele>
        <time>2019-09-07T08:42:40Z</time>
      </trkpt>
      <trkpt lat="49.2294" lon="-0.4609">
        <ele>38.930476936285</ele>
        <time>2019-09-07T08:42:49Z</time>
      </trkpt>
      <trkpt lat="49.22945" lon="-0.46099">
        <ele>39.930636595701</ele>
        <time>2019-09-07T08:42:57Z</time>
      </trkpt>
      <trkpt lat="49.22949" lon="-0.4611">
        <ele>38.930733905653</ele>
        <time>2019-09-07T08:43:03Z</time>
      </trkpt>
      <trkpt lat="49.22956" lon="-0.46119">
        <ele>38.930916290773</ele>
        <time>2019-09-07T08:43:10Z</time>
      </trkpt>
      <trkpt lat="49.22963" lon="-0.46124">
        <ele>37.931158159299</ele>
        <time>2019-09-07T08:43:16Z</time>
      </trkpt>
      <trkpt lat="49.22967" lon="-0.46135">
        <ele>37.931253694555</ele>
        <time>2019-09-07T08:43:22Z</time>
      </trkpt>
      <trkpt lat="49.22973" lon="-0.46144">
        <ele>37.931407518202</ele>
        <time>2019-09-07T08:43:30Z</time>
      </trkpt>
      <trkpt lat="49.22977" lon="-0.46153">
        <ele>39.931519518884</ele>
        <time>2019-09-07T08:43:37Z</time>
      </trkpt>
      <trkpt lat="49.22983" lon="-0.46162">
        <ele>40.93171021573</ele>
        <time>2019-09-07T08:43:43Z</time>
      </trkpt>
      <trkpt lat="49.22988" lon="-0.46169">
        <ele>40.931850868382</ele>
        <time>2019-09-07T08:43:50Z</time>
      </trkpt>
      <trkpt lat="49.22996" lon="-0.46174">
        <ele>37.932122908395</ele>
        <time>2019-09-07T08:43:55Z</time>
      </trkpt>
      <trkpt lat="49.23005" lon="-0.46178">
        <ele>37.932392121561</ele>
        <time>2019-09-07T08:44:01Z</time>
      </trkpt>
      <trkpt lat="49.23012" lon="-0.46182">
        <ele>32.932629321674</ele>
        <time>2019-09-07T08:44:55Z</time>
      </trkpt>
      <trkpt lat="49.2302" lon="-0.46189">
        <ele>34.932860907585</ele>
        <time>2019-09-07T08:45:03Z</time>
      </trkpt>
      <trkpt lat="49.23026" lon="-0.46197">
        <ele>33.933061228576</ele>
        <time>2019-09-07T08:45:10Z</time>
      </trkpt>
      <trkpt lat="49.23029" lon="-0.4621">
        <ele>35.933118617973</ele>
        <time>2019-09-07T08:45:18Z</time>
      </trkpt>
      <trkpt lat="49.23038" lon="-0.46212">
        <ele>36.93341159351</ele>
        <time>2019-09-07T08:45:22Z</time>
      </trkpt>
      <trkpt lat="49.23041" lon="-0.46225">
        <ele>41.933473173366</ele>
        <time>2019-09-07T08:45:30Z</time>
      </trkpt>
      <trkpt lat="49.23045" lon="-0.46236">
        <ele>40.93356834609</ele>
        <time>2019-09-07T08:46:02Z</time>
      </trkpt>
      <trkpt lat="49.2305" lon="-0.46247">
        <ele>37.933693135357</ele>
        <time>2019-09-07T08:46:07Z</time>
      </trkpt>
      <trkpt lat="49.23053" lon="-0.46257">
        <ele>39.933782380615</ele>
        <time>2019-09-07T08:46:11Z</time>
      </trkpt>
      <trkpt lat="49.23058" lon="-0.46268">
        <ele>38.93390839155</ele>
        <time>2019-09-07T08:46:18Z</time>
      </trkpt>
      <trkpt lat="49.2306" lon="-0.46281">
        <ele>34.933946333243</ele>
        <time>2019-09-07T08:46:24Z</time>
      </trkpt>
      <trkpt lat="49.23066" lon="-0.46292">
        <ele>35.934098889883</ele>
        <time>2019-09-07T08:46:31Z</time>
      </trkpt>
      <trkpt lat="49.23071" lon="-0.46301">
        <ele>37.934247520536</ele>
        <time>2019-09-07T08:46:40Z</time>
      </trkpt>
      <trkpt lat="49.23079" lon="-0.46302">
        <ele>35.934540870737</ele>
        <time>2019-09-07T08:46:55Z</time>
      </trkpt>
      <trkpt lat="49.23088" lon="-0.46296">
        <ele>36.934832484207</ele>
        <time>2019-09-07T08:47:04Z</time>
      </trkpt>
      <trkpt lat="49.23094" lon="-0.46291">
        <ele>40.935081971823</ele>
        <time>2019-09-07T08:47:12Z</time>
      </trkpt>
      <trkpt lat="49.23102" lon="-0.46284">
        <ele>41.935354106616</ele>
        <time>2019-09-07T08:47:21Z</time>
      </trkpt>
      <trkpt lat="49.2311" lon="-0.46279">
        <ele>37.935641000318</ele>
        <time>2019-09-07T08:47:30Z</time>
      </trkpt>
      <trkpt lat="49.23118" lon="-0.46276">
        <ele>38.935943232975</ele>
        <time>2019-09-07T08:47:37Z</time>
      </trkpt>
      <trkpt lat="49.23124" lon="-0.46272">
        <ele>35.936146466103</ele>
        <time>2019-09-07T08:47:42Z</time>
      </trkpt>
      <trkpt lat="49.23132" lon="-0.46268">
        <ele>34.936427989267</ele>
        <time>2019-09-07T08:47:48Z</time>
      </trkpt>
      <trkpt lat="49.23138" lon="-0.46265">
        <ele>33.936661180618</ele>
        <time>2019-09-07T08:47:54Z</time>
      </trkpt>
      <trkpt lat="49.23145" lon="-0.46258">
        <ele>35.93690402721</ele>
        <time>2019-09-07T08:48:00Z</time>
      </trkpt>
      <trkpt lat="49.23152" lon="-0.46252">
        <ele>33.937166789145</ele>
        <time>2019-09-07T08:48:05Z</time>
      </trkpt>
      <trkpt lat="49.2316" lon="-0.46244">
        <ele>31.937443314267</ele>
        <time>2019-09-07T08:48:17Z</time>
      </trkpt>
      <trkpt lat="49.23167" lon="-0.46241">
        <ele>31.937718481894</ele>
        <time>2019-09-07T08:48:22Z</time>
      </trkpt>
      <trkpt lat="49.23173" lon="-0.46235">
        <ele>33.937936101816</ele>
        <time>2019-09-07T08:48:28Z</time>
      </trkpt>
      <trkpt lat="49.23181" lon="-0.4623">
        <ele>35.938217072592</ele>
        <time>2019-09-07T08:48:34Z</time>
      </trkpt>
      <trkpt lat="49.2319" lon="-0.46227">
        <ele>33.938519135546</ele>
        <time>2019-09-07T08:48:41Z</time>
      </trkpt>
      <trkpt lat="49.23197" lon="-0.46222">
        <ele>35.938769542095</ele>
        <time>2019-09-07T08:48:47Z</time>
      </trkpt>
      <trkpt lat="49.23205" lon="-0.46219">
        <ele>38.939056867751</ele>
        <time>2019-09-07T08:48:53Z</time>
      </trkpt>
      <trkpt lat="49.23213" lon="-0.46214">
        <ele>37.939349750123</ele>
        <time>2019-09-07T08:49:01Z</time>
      </trkpt>
      <trkpt lat="49.23221" lon="-0.46209">
        <ele>40.939633453518</ele>
        <time>2019-09-07T08:49:08Z</time>
      </trkpt>
      <trkpt lat="49.23227" lon="-0.46199">
        <ele>38.93987550745</ele>
        <time>2019-09-07T08:49:19Z</time>
      </trkpt>
      <trkpt lat="49.2323" lon="-0.46187">
        <ele>39.939985724537</ele>
        <time>2019-09-07T08:49:27Z</time>
      </trkpt>
      <trkpt lat="49.23236" lon="-0.46178">
        <ele>41.94023767196</ele>
        <time>2019-09-07T08:49:37Z</time>
      </trkpt>
      <trkpt lat="49.23244" lon="-0.46181">
        <ele>39.940498062703</ele>
        <time>2019-09-07T08:49:46Z</time>
      </trkpt>
      <trkpt lat="49.23249" lon="-0.4619">
        <ele>38.940634664703</ele>
        <time>2019-09-07T08:49:54Z</time>
      </trkpt>
      <trkpt lat="49.23252" lon="-0.46203">
        <ele>41.940710402575</ele>
        <time>2019-09-07T08:50:06Z</time>
      </trkpt>
      <trkpt lat="49.23254" lon="-0.46216">
        <ele>40.940738121883</ele>
        <time>2019-09-07T08:50:13Z</time>
      </trkpt>
      <trkpt lat="49.23259" lon="-0.46225">
        <ele>39.940858724964</ele>
        <time>2019-09-07T08:50:21Z</time>
      </trkpt>
      <trkpt lat="49.23263" lon="-0.46236">
        <ele>41.940976191639</ele>
        <time>2019-09-07T08:50:27Z</time>
      </trkpt>
      <trkpt lat="49.23267" lon="-0.46246">
        <ele>41.941091892767</ele>
        <time>2019-09-07T08:50:34Z</time>
      </trkpt>
      <trkpt lat="49.23273" lon="-0.46255">
        <ele>40.941280951571</ele>
        <time>2019-09-07T08:50:48Z</time>
      </trkpt>
      <trkpt lat="49.23282" lon="-0.46258">
        <ele>42.941555150586</ele>
        <time>2019-09-07T08:51:05Z</time>
      </trkpt>
      <trkpt lat="49.2329" lon="-0.46255">
        <ele>40.941834861246</ele>
        <time>2019-09-07T08:51:17Z</time>
      </trkpt>
      <trkpt lat="49.23298" lon="-0.46254">
        <ele>42.942121016606</ele>
        <time>2019-09-07T08:51:24Z</time>
      </trkpt>
      <trkpt lat="49.23305" lon="-0.46252">
        <ele>42.942355217219</ele>
        <time>2019-09-07T08:51:29Z</time>
      </trkpt>
      <trkpt lat="49.23313" lon="-0.46248">
        <ele>42.942639395611</ele>
        <time>2019-09-07T08:51:36Z</time>
      </trkpt>
      <trkpt lat="49.2332" lon="-0.4624">
        <ele>43.942912040059</ele>
        <time>2019-09-07T08:51:44Z</time>
      </trkpt>
      <trkpt lat="49.23327" lon="-0.46235">
        <ele>40.943171162371</ele>
        <time>2019-09-07T08:51:51Z</time>
      </trkpt>
      <trkpt lat="49.23335" lon="-0.46237">
        <ele>42.94343811603</ele>
        <time>2019-09-07T08:51:57Z</time>
      </trkpt>
      <trkpt lat="49.23342" lon="-0.46245">
        <ele>40.943656542438</ele>
        <time>2019-09-07T08:52:02Z</time>
      </trkpt>
      <trkpt lat="49.23348" lon="-0.46254">
        <ele>41.943804516802</ele>
        <time>2019-09-07T08:52:09Z</time>
      </trkpt>
      <trkpt lat="49.23352" lon="-0.46264">
        <ele>41.943943380382</ele>
        <time>2019-09-07T08:52:15Z</time>
      </trkpt>
      <trkpt lat="49.23357" lon="-0.46274">
        <ele>39.944064746952</ele>
        <time>2019-09-07T08:52:23Z</time>
      </trkpt>
      <trkpt lat="49.23362" lon="-0.46285">
        <ele>41.944207158178</ele>
        <time>2019-09-07T08:52:31Z</time>
      </trkpt>
      <trkpt lat="49.23366" lon="-0.46295">
        <ele>43.944330928403</ele>
        <time>2019-09-07T08:52:38Z</time>
      </trkpt>
      <trkpt lat="49.23371" lon="-0.46306">
        <ele>42.944458054363</ele>
        <time>2019-09-07T08:52:45Z</time>
      </trkpt>
      <trkpt lat="49.23373" lon="-0.46319">
        <ele>41.944497589043</ele>
        <time>2019-09-07T08:52:52Z</time>
      </trkpt>
      <trkpt lat="49.23377" lon="-0.4633">
        <ele>42.944606457404</ele>
        <time>2019-09-07T08:53:00Z</time>
      </trkpt>
      <trkpt lat="49.23381" lon="-0.46342">
        <ele>41.944698643733</ele>
        <time>2019-09-07T08:53:07Z</time>
      </trkpt>
      <trkpt lat="49.23383" lon="-0.46355">
        <ele>40.944760184734</ele>
        <time>2019-09-07T08:53:15Z</time>
      </trkpt>
      <trkpt lat="49.23384" lon="-0.46368">
        <ele>43.944753146103</ele>
        <time>2019-09-07T08:53:22Z</time>
      </trkpt>
      <trkpt lat="49.23387" lon="-0.46379">
        <ele>44.944831274523</ele>
        <time>2019-09-07T08:53:29Z</time>
      </trkpt>
      <trkpt lat="49.23389" lon="-0.46392">
        <ele>42.944852467106</ele>
        <time>2019-09-07T08:53:35Z</time>
      </trkpt>
      <trkpt lat="49.2339" lon="-0.46404">
        <ele>46.94486917816</ele>
        <time>2019-09-07T08:53:44Z</time>
      </trkpt>
      <trkpt lat="49.23392" lon="-0.46417">
        <ele>46.9449079024</ele>
        <time>2019-09-07T08:53:55Z</time>
      </trkpt>
      <trkpt lat="49.23394" lon="-0.4643">
        <ele>46.944924049633</ele>
        <time>2019-09-07T08:54:02Z</time>
      </trkpt>
      <trkpt lat="49.23396" lon="-0.46443">
        <ele>47.944959505624</ele>
        <time>2019-09-07T08:54:09Z</time>
      </trkpt>
      <trkpt lat="49.23397" lon="-0.46457">
        <ele>47.944957091453</ele>
        <time>2019-09-07T08:54:17Z</time>
      </trkpt>
      <trkpt lat="49.23398" lon="-0.46468">
        <ele>46.944965619456</ele>
        <time>2019-09-07T08:54:24Z</time>
      </trkpt>
      <trkpt lat="49.23402" lon="-0.4648">
        <ele>45.945068652515</ele>
        <time>2019-09-07T08:54:31Z</time>
      </trkpt>
      <trkpt lat="49.23405" lon="-0.46492">
        <ele>43.945139860882</ele>
        <time>2019-09-07T08:55:11Z</time>
      </trkpt>
      <trkpt lat="49.23408" lon="-0.46505">
        <ele>43.945205970873</ele>
        <time>2019-09-07T08:55:18Z</time>
      </trkpt>
      <trkpt lat="49.23409" lon="-0.46518">
        <ele>41.945220521071</ele>
        <time>2019-09-07T08:55:25Z</time>
      </trkpt>
      <trkpt lat="49.23413" lon="-0.4653">
        <ele>40.945317567281</ele>
        <time>2019-09-07T08:55:33Z</time>
      </trkpt>
      <trkpt lat="49.23415" lon="-0.46538">
        <ele>40.945382173696</ele>
        <time>2019-09-07T08:55:38Z</time>
      </trkpt>
      <trkpt lat="49.23417" lon="-0.4655">
        <ele>40.945416915374</ele>
        <time>2019-09-07T08:55:43Z</time>
      </trkpt>
      <trkpt lat="49.23424" lon="-0.46558">
        <ele>39.945627999061</ele>
        <time>2019-09-07T08:55:55Z</time>
      </trkpt>
      <trkpt lat="49.23431" lon="-0.46552">
        <ele>41.945897224653</ele>
        <time>2019-09-07T08:56:03Z</time>
      </trkpt>
      <trkpt lat="49.23439" lon="-0.46547">
        <ele>41.946165030016</ele>
        <time>2019-09-07T08:56:09Z</time>
      </trkpt>
      <trkpt lat="49.23447" lon="-0.46542">
        <ele>41.946459348507</ele>
        <time>2019-09-07T08:56:16Z</time>
      </trkpt>
      <trkpt lat="49.23447" lon="-0.46533">
        <ele>39.946491395153</ele>
        <time>2019-09-07T08:56:27Z</time>
      </trkpt>
      <trkpt lat="49.23455" lon="-0.46529">
        <ele>38.94679121591</ele>
        <time>2019-09-07T08:56:34Z</time>
      </trkpt>
      <trkpt lat="49.23464" lon="-0.46526">
        <ele>40.947087086593</ele>
        <time>2019-09-07T08:56:38Z</time>
      </trkpt>
      <trkpt lat="49.23471" lon="-0.46518">
        <ele>41.947362950912</ele>
        <time>2019-09-07T08:56:44Z</time>
      </trkpt>
      <trkpt lat="49.23479" lon="-0.46512">
        <ele>43.947630408261</ele>
        <time>2019-09-07T08:56:49Z</time>
      </trkpt>
      <trkpt lat="49.23487" lon="-0.46512">
        <ele>41.947906772794</ele>
        <time>2019-09-07T08:56:55Z</time>
      </trkpt>
      <trkpt lat="49.23494" lon="-0.46504">
        <ele>40.948169771659</ele>
        <time>2019-09-07T08:57:01Z</time>
      </trkpt>
      <trkpt lat="49.235" lon="-0.46499">
        <ele>40.948402089583</ele>
        <time>2019-09-07T08:57:07Z</time>
      </trkpt>
      <trkpt lat="49.23508" lon="-0.46494">
        <ele>42.948671782544</ele>
        <time>2019-09-07T08:57:13Z</time>
      </trkpt>
      <trkpt lat="49.23515" lon="-0.46488">
        <ele>41.948959810329</ele>
        <time>2019-09-07T08:57:20Z</time>
      </trkpt>
      <trkpt lat="49.23522" lon="-0.46479">
        <ele>40.949188034947</ele>
        <time>2019-09-07T08:57:31Z</time>
      </trkpt>
      <trkpt lat="49.23527" lon="-0.46469">
        <ele>42.949388511962</ele>
        <time>2019-09-07T08:57:37Z</time>
      </trkpt>
      <trkpt lat="49.23534" lon="-0.46464">
        <ele>41.949657101816</ele>
        <time>2019-09-07T08:57:42Z</time>
      </trkpt>
      <trkpt lat="49.23538" lon="-0.46453">
        <ele>41.949830560455</ele>
        <time>2019-09-07T08:57:49Z</time>
      </trkpt>
      <trkpt lat="49.23543" lon="-0.46443">
        <ele>37.950005348848</ele>
        <time>2019-09-07T08:57:56Z</time>
      </trkpt>
      <trkpt lat="49.2355" lon="-0.46436">
        <ele>39.950273506642</ele>
        <time>2019-09-07T08:58:03Z</time>
      </trkpt>
      <trkpt lat="49.23556" lon="-0.46429">
        <ele>41.950494109205</ele>
        <time>2019-09-07T08:58:10Z</time>
      </trkpt>
      <trkpt lat="49.23561" lon="-0.46418">
        <ele>42.950703441002</ele>
        <time>2019-09-07T08:58:15Z</time>
      </trkpt>
      <trkpt lat="49.23566" lon="-0.46408">
        <ele>41.950896391039</ele>
        <time>2019-09-07T08:58:23Z</time>
      </trkpt>
      <trkpt lat="49.23572" lon="-0.46402">
        <ele>41.951091652625</ele>
        <time>2019-09-07T08:58:29Z</time>
      </trkpt>
      <trkpt lat="49.23577" lon="-0.46391">
        <ele>39.951298423084</ele>
        <time>2019-09-07T08:58:35Z</time>
      </trkpt>
      <trkpt lat="49.23584" lon="-0.46383">
        <ele>39.951553218764</ele>
        <time>2019-09-07T08:58:42Z</time>
      </trkpt>
      <trkpt lat="49.2359" lon="-0.46377">
        <ele>40.951760718542</ele>
        <time>2019-09-07T09:00:05Z</time>
      </trkpt>
      <trkpt lat="49.23604" lon="-0.46368">
        <ele>37.952271468708</ele>
        <time>2019-09-07T09:00:10Z</time>
      </trkpt>
      <trkpt lat="49.23609" lon="-0.46358">
        <ele>42.952476950847</ele>
        <time>2019-09-07T09:00:17Z</time>
      </trkpt>
      <trkpt lat="49.23614" lon="-0.46348">
        <ele>38.9526531702</ele>
        <time>2019-09-07T09:00:25Z</time>
      </trkpt>
      <trkpt lat="49.2362" lon="-0.46339">
        <ele>38.952880003636</ele>
        <time>2019-09-07T09:00:31Z</time>
      </trkpt>
      <trkpt lat="49.23625" lon="-0.46329">
        <ele>39.95306011106</ele>
        <time>2019-09-07T09:00:37Z</time>
      </trkpt>
      <trkpt lat="49.2363" lon="-0.4632">
        <ele>39.95326252917</ele>
        <time>2019-09-07T09:00:45Z</time>
      </trkpt>
      <trkpt lat="49.23636" lon="-0.46313">
        <ele>39.953486285378</ele>
        <time>2019-09-07T09:00:52Z</time>
      </trkpt>
      <trkpt lat="49.23642" lon="-0.46305">
        <ele>41.953719635267</ele>
        <time>2019-09-07T09:00:58Z</time>
      </trkpt>
      <trkpt lat="49.23649" lon="-0.46297">
        <ele>44.953954525582</ele>
        <time>2019-09-07T09:01:05Z</time>
      </trkpt>
      <trkpt lat="49.23653" lon="-0.46286">
        <ele>42.954106790575</ele>
        <time>2019-09-07T09:01:11Z</time>
      </trkpt>
      <trkpt lat="49.23659" lon="-0.46277">
        <ele>40.954343498271</ele>
        <time>2019-09-07T09:01:18Z</time>
      </trkpt>
      <trkpt lat="49.23664" lon="-0.46267">
        <ele>40.954550444682</ele>
        <time>2019-09-07T09:01:24Z</time>
      </trkpt>
      <trkpt lat="49.2367" lon="-0.4626">
        <ele>40.954771113068</ele>
        <time>2019-09-07T09:01:31Z</time>
      </trkpt>
      <trkpt lat="49.23676" lon="-0.4625">
        <ele>34.954973332654</ele>
        <time>2019-09-07T09:01:44Z</time>
      </trkpt>
      <trkpt lat="49.2368" lon="-0.46241">
        <ele>35.955147049691</ele>
        <time>2019-09-07T09:01:55Z</time>
      </trkpt>
      <trkpt lat="49.23686" lon="-0.46231">
        <ele>38.955345013299</ele>
        <time>2019-09-07T09:01:59Z</time>
      </trkpt>
      <trkpt lat="49.23692" lon="-0.46223">
        <ele>39.955583506149</ele>
        <time>2019-09-07T09:02:05Z</time>
      </trkpt>
      <trkpt lat="49.23697" lon="-0.46212">
        <ele>40.955791878172</ele>
        <time>2019-09-07T09:02:12Z</time>
      </trkpt>
      <trkpt lat="49.23705" lon="-0.46206">
        <ele>40.956063700784</ele>
        <time>2019-09-07T09:02:19Z</time>
      </trkpt>
      <trkpt lat="49.2371" lon="-0.46199">
        <ele>40.956260847845</ele>
        <time>2019-09-07T09:02:23Z</time>
      </trkpt>
      <trkpt lat="49.23717" lon="-0.4619">
        <ele>37.956497021054</ele>
        <time>2019-09-07T09:02:30Z</time>
      </trkpt>
      <trkpt lat="49.23723" lon="-0.46181">
        <ele>37.956737018868</ele>
        <time>2019-09-07T09:02:37Z</time>
      </trkpt>
      <trkpt lat="49.2373" lon="-0.46172">
        <ele>37.956964433003</ele>
        <time>2019-09-07T09:02:44Z</time>
      </trkpt>
      <trkpt lat="49.23735" lon="-0.46162">
        <ele>39.957164247451</ele>
        <time>2019-09-07T09:02:51Z</time>
      </trkpt>
      <trkpt lat="49.23741" lon="-0.46152">
        <ele>40.957386374167</ele>
        <time>2019-09-07T09:02:57Z</time>
      </trkpt>
      <trkpt lat="49.23747" lon="-0.46143">
        <ele>36.957610464077</ele>
        <time>2019-09-07T09:03:05Z</time>
      </trkpt>
      <trkpt lat="49.23752" lon="-0.46134">
        <ele>37.957800485032</ele>
        <time>2019-09-07T09:03:12Z</time>
      </trkpt>
      <trkpt lat="49.23759" lon="-0.46125">
        <ele>42.958044061229</ele>
        <time>2019-09-07T09:03:55Z</time>
      </trkpt>
      <trkpt lat="49.23765" lon="-0.46116">
        <ele>41.9582667417</ele>
        <time>2019-09-07T09:04:04Z</time>
      </trkpt>
      <trkpt lat="49.23772" lon="-0.46108">
        <ele>41.958520248602</ele>
        <time>2019-09-07T09:04:39Z</time>
      </trkpt>
      <trkpt lat="49.23777" lon="-0.461">
        <ele>42.958723040548</ele>
        <time>2019-09-07T09:04:57Z</time>
      </trkpt>
      <trkpt lat="49.23784" lon="-0.46092">
        <ele>42.958945475386</ele>
        <time>2019-09-07T09:05:04Z</time>
      </trkpt>
      <trkpt lat="49.23789" lon="-0.46081">
        <ele>41.959138374552</ele>
        <time>2019-09-07T09:05:16Z</time>
      </trkpt>
      <trkpt lat="49.23795" lon="-0.46072">
        <ele>39.959362883256</ele>
        <time>2019-09-07T09:05:30Z</time>
      </trkpt>
      <trkpt lat="49.238" lon="-0.46062">
        <ele>38.959555932223</ele>
        <time>2019-09-07T09:05:39Z</time>
      </trkpt>
      <trkpt lat="49.23807" lon="-0.46055">
        <ele>38.959795758679</ele>
        <time>2019-09-07T09:05:46Z</time>
      </trkpt>
      <trkpt lat="49.23812" lon="-0.46045">
        <ele>40.960012218568</ele>
        <time>2019-09-07T09:05:53Z</time>
      </trkpt>
      <trkpt lat="49.23818" lon="-0.46036">
        <ele>39.960219435837</ele>
        <time>2019-09-07T09:06:14Z</time>
      </trkpt>
      <trkpt lat="49.23825" lon="-0.46028">
        <ele>39.960470276351</ele>
        <time>2019-09-07T09:06:31Z</time>
      </trkpt>
      <trkpt lat="49.2383" lon="-0.46018">
        <ele>38.960662829715</ele>
        <time>2019-09-07T09:06:39Z</time>
      </trkpt>
      <trkpt lat="49.23836" lon="-0.4601">
        <ele>38.960880222919</ele>
        <time>2019-09-07T09:06:47Z</time>
      </trkpt>
      <trkpt lat="49.23842" lon="-0.46001">
        <ele>37.961084975546</ele>
        <time>2019-09-07T09:06:53Z</time>
      </trkpt>
      <trkpt lat="49.23849" lon="-0.45993">
        <ele>40.96134614733</ele>
        <time>2019-09-07T09:07:01Z</time>
      </trkpt>
      <trkpt lat="49.23855" lon="-0.45985">
        <ele>42.961558177318</ele>
        <time>2019-09-07T09:07:08Z</time>
      </trkpt>
      <trkpt lat="49.23861" lon="-0.45975">
        <ele>41.961776227552</ele>
        <time>2019-09-07T09:07:22Z</time>
      </trkpt>
      <trkpt lat="49.23865" lon="-0.45963">
        <ele>40.961916919659</ele>
        <time>2019-09-07T09:07:30Z</time>
      </trkpt>
      <trkpt lat="49.23865" lon="-0.45949">
        <ele>42.961957343648</ele>
        <time>2019-09-07T09:07:37Z</time>
      </trkpt>
      <trkpt lat="49.23866" lon="-0.45935">
        <ele>42.962002809024</ele>
        <time>2019-09-07T09:07:44Z</time>
      </trkpt>
      <trkpt lat="49.23865" lon="-0.45923">
        <ele>41.962004302096</ele>
        <time>2019-09-07T09:08:04Z</time>
      </trkpt>
      <trkpt lat="49.23867" lon="-0.45912">
        <ele>42.962102924591</ele>
        <time>2019-09-07T09:08:11Z</time>
      </trkpt>
      <trkpt lat="49.23867" lon="-0.45899">
        <ele>43.962120809715</ele>
        <time>2019-09-07T09:08:18Z</time>
      </trkpt>
      <trkpt lat="49.23868" lon="-0.45886">
        <ele>45.962170189418</ele>
        <time>2019-09-07T09:08:25Z</time>
      </trkpt>
      <trkpt lat="49.23868" lon="-0.45874">
        <ele>43.962189676328</ele>
        <time>2019-09-07T09:08:32Z</time>
      </trkpt>
      <trkpt lat="49.23868" lon="-0.45861">
        <ele>44.96221515469</ele>
        <time>2019-09-07T09:08:38Z</time>
      </trkpt>
      <trkpt lat="49.23868" lon="-0.45848">
        <ele>42.962244797589</ele>
        <time>2019-09-07T09:08:45Z</time>
      </trkpt>
      <trkpt lat="49.23869" lon="-0.45835">
        <ele>44.962281819859</ele>
        <time>2019-09-07T09:08:53Z</time>
      </trkpt>
      <trkpt lat="49.23869" lon="-0.45822">
        <ele>41.962314095992</ele>
        <time>2019-09-07T09:08:59Z</time>
      </trkpt>
      <trkpt lat="49.23868" lon="-0.4581">
        <ele>39.96231368303</ele>
        <time>2019-09-07T09:09:06Z</time>
      </trkpt>
      <trkpt lat="49.2387" lon="-0.45798">
        <ele>41.962382465703</ele>
        <time>2019-09-07T09:09:13Z</time>
      </trkpt>
      <trkpt lat="49.23871" lon="-0.45787">
        <ele>43.962447564426</ele>
        <time>2019-09-07T09:09:19Z</time>
      </trkpt>
      <trkpt lat="49.23872" lon="-0.45775">
        <ele>41.962508294681</ele>
        <time>2019-09-07T09:09:27Z</time>
      </trkpt>
      <trkpt lat="49.23877" lon="-0.45764">
        <ele>39.962704098236</ele>
        <time>2019-09-07T09:09:34Z</time>
      </trkpt>
      <trkpt lat="49.23883" lon="-0.45753">
        <ele>39.962898022422</ele>
        <time>2019-09-07T09:09:40Z</time>
      </trkpt>
      <trkpt lat="49.23889" lon="-0.45746">
        <ele>39.963105871444</ele>
        <time>2019-09-07T09:09:46Z</time>
      </trkpt>
      <trkpt lat="49.23894" lon="-0.45736">
        <ele>39.963300914057</ele>
        <time>2019-09-07T09:09:53Z</time>
      </trkpt>
      <trkpt lat="49.239" lon="-0.45727">
        <ele>40.963520818395</ele>
        <time>2019-09-07T09:10:02Z</time>
      </trkpt>
      <trkpt lat="49.23903" lon="-0.45715">
        <ele>40.96365179895</ele>
        <time>2019-09-07T09:10:13Z</time>
      </trkpt>
      <trkpt lat="49.23907" lon="-0.45704">
        <ele>41.963788449064</ele>
        <time>2019-09-07T09:10:19Z</time>
      </trkpt>
      <trkpt lat="49.23911" lon="-0.45693">
        <ele>40.963955287304</ele>
        <time>2019-09-07T09:10:26Z</time>
      </trkpt>
      <trkpt lat="49.23914" lon="-0.45681">
        <ele>38.964076997217</ele>
        <time>2019-09-07T09:10:33Z</time>
      </trkpt>
      <trkpt lat="49.23918" lon="-0.4567">
        <ele>37.96421614913</ele>
        <time>2019-09-07T09:10:40Z</time>
      </trkpt>
      <trkpt lat="49.23921" lon="-0.45659">
        <ele>37.964323309586</ele>
        <time>2019-09-07T09:10:46Z</time>
      </trkpt>
      <trkpt lat="49.23924" lon="-0.45646">
        <ele>37.964438182771</ele>
        <time>2019-09-07T09:10:54Z</time>
      </trkpt>
      <trkpt lat="49.23928" lon="-0.45636">
        <ele>37.964600844419</ele>
        <time>2019-09-07T09:11:06Z</time>
      </trkpt>
      <trkpt lat="49.23931" lon="-0.45624">
        <ele>38.964721184976</ele>
        <time>2019-09-07T09:11:13Z</time>
      </trkpt>
      <trkpt lat="49.23933" lon="-0.45612">
        <ele>36.964820782285</ele>
        <time>2019-09-07T09:11:21Z</time>
      </trkpt>
      <trkpt lat="49.23937" lon="-0.45601">
        <ele>35.964947258189</ele>
        <time>2019-09-07T09:11:29Z</time>
      </trkpt>
      <trkpt lat="49.2394" lon="-0.45591">
        <ele>35.965068935912</ele>
        <time>2019-09-07T09:11:35Z</time>
      </trkpt>
      <trkpt lat="49.23942" lon="-0.45578">
        <ele>37.965157035047</ele>
        <time>2019-09-07T09:11:43Z</time>
      </trkpt>
      <trkpt lat="49.23944" lon="-0.45566">
        <ele>38.965266848641</ele>
        <time>2019-09-07T09:11:54Z</time>
      </trkpt>
      <trkpt lat="49.23947" lon="-0.45554">
        <ele>37.965373054311</ele>
        <time>2019-09-07T09:12:00Z</time>
      </trkpt>
      <trkpt lat="49.2395" lon="-0.45541">
        <ele>36.96549246236</ele>
        <time>2019-09-07T09:12:06Z</time>
      </trkpt>
      <trkpt lat="49.23956" lon="-0.45531">
        <ele>37.9656926311</ele>
        <time>2019-09-07T09:12:14Z</time>
      </trkpt>
      <trkpt lat="49.23959" lon="-0.45519">
        <ele>36.965834479322</ele>
        <time>2019-09-07T09:12:21Z</time>
      </trkpt>
      <trkpt lat="49.23962" lon="-0.45509">
        <ele>37.965952830916</ele>
        <time>2019-09-07T09:12:28Z</time>
      </trkpt>
      <trkpt lat="49.23965" lon="-0.45497">
        <ele>36.96606864032</ele>
        <time>2019-09-07T09:12:34Z</time>
      </trkpt>
      <trkpt lat="49.23967" lon="-0.45485">
        <ele>38.966132163365</ele>
        <time>2019-09-07T09:12:42Z</time>
      </trkpt>
      <trkpt lat="49.23972" lon="-0.45474">
        <ele>37.966315013009</ele>
        <time>2019-09-07T09:12:49Z</time>
      </trkpt>
      <trkpt lat="49.23977" lon="-0.45466">
        <ele>39.966507718158</ele>
        <time>2019-09-07T09:12:55Z</time>
      </trkpt>
      <trkpt lat="49.2398" lon="-0.45454">
        <ele>37.966624769691</ele>
        <time>2019-09-07T09:13:01Z</time>
      </trkpt>
      <trkpt lat="49.23983" lon="-0.45445">
        <ele>38.966736517029</ele>
        <time>2019-09-07T09:13:08Z</time>
      </trkpt>
      <trkpt lat="49.23987" lon="-0.45435">
        <ele>38.966877627807</ele>
        <time>2019-09-07T09:13:14Z</time>
      </trkpt>
      <trkpt lat="49.23991" lon="-0.45423">
        <ele>39.967020700696</ele>
        <time>2019-09-07T09:13:21Z</time>
      </trkpt>
      <trkpt lat="49.23995" lon="-0.45411">
        <ele>36.967174822963</ele>
        <time>2019-09-07T09:13:29Z</time>
      </trkpt>
      <trkpt lat="49.24001" lon="-0.45401">
        <ele>39.9673739554</ele>
        <time>2019-09-07T09:13:36Z</time>
      </trkpt>
      <trkpt lat="49.24007" lon="-0.45393">
        <ele>39.967612858135</ele>
        <time>2019-09-07T09:13:43Z</time>
      </trkpt>
      <trkpt lat="49.2401" lon="-0.45381">
        <ele>39.967728190353</ele>
        <time>2019-09-07T09:13:50Z</time>
      </trkpt>
      <trkpt lat="49.24016" lon="-0.45372">
        <ele>38.967913402754</ele>
        <time>2019-09-07T09:13:55Z</time>
      </trkpt>
      <trkpt lat="49.2402" lon="-0.45365">
        <ele>37.968060006484</ele>
        <time>2019-09-07T09:14:02Z</time>
      </trkpt>
      <trkpt lat="49.24027" lon="-0.45356">
        <ele>35.968301518437</ele>
        <time>2019-09-07T09:14:08Z</time>
      </trkpt>
      <trkpt lat="49.24033" lon="-0.45348">
        <ele>35.968510340892</ele>
        <time>2019-09-07T09:14:16Z</time>
      </trkpt>
      <trkpt lat="49.24038" lon="-0.45339">
        <ele>32.968695278722</ele>
        <time>2019-09-07T09:14:49Z</time>
      </trkpt>
      <trkpt lat="49.24045" lon="-0.45333">
        <ele>33.968926934024</ele>
        <time>2019-09-07T09:14:55Z</time>
      </trkpt>
      <trkpt lat="49.24053" lon="-0.45329">
        <ele>36.96918276036</ele>
        <time>2019-09-07T09:15:02Z</time>
      </trkpt>
      <trkpt lat="49.24061" lon="-0.45331">
        <ele>35.969466563265</ele>
        <time>2019-09-07T09:15:11Z</time>
      </trkpt>
      <trkpt lat="49.24067" lon="-0.45323">
        <ele>35.969663735746</ele>
        <time>2019-09-07T09:15:20Z</time>
      </trkpt>
      <trkpt lat="49.2406" lon="-0.4533">
        <ele>31.969420345035</ele>
        <time>2019-09-07T09:15:37Z</time>
      </trkpt>
      <trkpt lat="49.24056" lon="-0.45318">
        <ele>31.969311994728</ele>
        <time>2019-09-07T09:16:46Z</time>
      </trkpt>
      <trkpt lat="49.24061" lon="-0.45307">
        <ele>33.96948850874</ele>
        <time>2019-09-07T09:16:53Z</time>
      </trkpt>
      <trkpt lat="49.24065" lon="-0.45296">
        <ele>34.969649647274</ele>
        <time>2019-09-07T09:16:59Z</time>
      </trkpt>
      <trkpt lat="49.24068" lon="-0.45284">
        <ele>34.969765649425</ele>
        <time>2019-09-07T09:17:06Z</time>
      </trkpt>
      <trkpt lat="49.24071" lon="-0.45273">
        <ele>34.969878323344</ele>
        <time>2019-09-07T09:17:14Z</time>
      </trkpt>
      <trkpt lat="49.24076" lon="-0.45263">
        <ele>36.970038517078</ele>
        <time>2019-09-07T09:17:21Z</time>
      </trkpt>
      <trkpt lat="49.24081" lon="-0.45254">
        <ele>35.970206250952</ele>
        <time>2019-09-07T09:17:27Z</time>
      </trkpt>
      <trkpt lat="49.24085" lon="-0.45243">
        <ele>32.970371829253</ele>
        <time>2019-09-07T09:17:34Z</time>
      </trkpt>
      <trkpt lat="49.24089" lon="-0.45234">
        <ele>34.970511457251</ele>
        <time>2019-09-07T09:17:41Z</time>
      </trkpt>
      <trkpt lat="49.24096" lon="-0.45226">
        <ele>35.970744068983</ele>
        <time>2019-09-07T09:17:47Z</time>
      </trkpt>
      <trkpt lat="49.24099" lon="-0.45214">
        <ele>32.970859502927</ele>
        <time>2019-09-07T09:17:54Z</time>
      </trkpt>
      <trkpt lat="49.24104" lon="-0.45204">
        <ele>35.971029369425</ele>
        <time>2019-09-07T09:18:01Z</time>
      </trkpt>
      <trkpt lat="49.24112" lon="-0.45198">
        <ele>33.971292344412</ele>
        <time>2019-09-07T09:18:08Z</time>
      </trkpt>
      <trkpt lat="49.24118" lon="-0.45189">
        <ele>34.971501520743</ele>
        <time>2019-09-07T09:18:15Z</time>
      </trkpt>
      <trkpt lat="49.24125" lon="-0.45181">
        <ele>34.971739946283</ele>
        <time>2019-09-07T09:18:22Z</time>
      </trkpt>
      <trkpt lat="49.24128" lon="-0.4517">
        <ele>30.971867819609</ele>
        <time>2019-09-07T09:18:33Z</time>
      </trkpt>
      <trkpt lat="49.24135" lon="-0.45163">
        <ele>33.972108880894</ele>
        <time>2019-09-07T09:18:39Z</time>
      </trkpt>
      <trkpt lat="49.24141" lon="-0.45154">
        <ele>33.972311246296</ele>
        <time>2019-09-07T09:18:47Z</time>
      </trkpt>
      <trkpt lat="49.24148" lon="-0.45147">
        <ele>31.972524655574</ele>
        <time>2019-09-07T09:18:55Z</time>
      </trkpt>
      <trkpt lat="49.24154" lon="-0.45138">
        <ele>32.972753884916</ele>
        <time>2019-09-07T09:19:04Z</time>
      </trkpt>
      <trkpt lat="49.2416" lon="-0.45127">
        <ele>29.972933900892</ele>
        <time>2019-09-07T09:19:12Z</time>
      </trkpt>
      <trkpt lat="49.24165" lon="-0.45118">
        <ele>29.973121937774</ele>
        <time>2019-09-07T09:19:56Z</time>
      </trkpt>
      <trkpt lat="49.24165" lon="-0.45106">
        <ele>34.973121700817</ele>
        <time>2019-09-07T09:20:03Z</time>
      </trkpt>
      <trkpt lat="49.24169" lon="-0.45096">
        <ele>34.973293210728</ele>
        <time>2019-09-07T09:20:09Z</time>
      </trkpt>
      <trkpt lat="49.24177" lon="-0.4509">
        <ele>33.973556666977</ele>
        <time>2019-09-07T09:20:15Z</time>
      </trkpt>
      <trkpt lat="49.24184" lon="-0.45084">
        <ele>33.973787705331</ele>
        <time>2019-09-07T09:20:23Z</time>
      </trkpt>
      <trkpt lat="49.24192" lon="-0.45077">
        <ele>31.974031208</ele>
        <time>2019-09-07T09:20:30Z</time>
      </trkpt>
      <trkpt lat="49.24199" lon="-0.45071">
        <ele>30.974268614621</ele>
        <time>2019-09-07T09:20:37Z</time>
      </trkpt>
      <trkpt lat="49.24204" lon="-0.45059">
        <ele>30.97443688392</ele>
        <time>2019-09-07T09:20:44Z</time>
      </trkpt>
      <trkpt lat="49.2421" lon="-0.45052">
        <ele>28.974659212864</ele>
        <time>2019-09-07T09:20:51Z</time>
      </trkpt>
      <trkpt lat="49.24218" lon="-0.45046">
        <ele>26.974908892984</ele>
        <time>2019-09-07T09:20:59Z</time>
      </trkpt>
      <trkpt lat="49.24223" lon="-0.45038">
        <ele>26.975094840143</ele>
        <time>2019-09-07T09:21:06Z</time>
      </trkpt>
      <trkpt lat="49.24229" lon="-0.45029">
        <ele>26.975280274464</ele>
        <time>2019-09-07T09:21:13Z</time>
      </trkpt>
      <trkpt lat="49.24234" lon="-0.45019">
        <ele>30.975456486536</ele>
        <time>2019-09-07T09:21:20Z</time>
      </trkpt>
      <trkpt lat="49.24239" lon="-0.45008">
        <ele>30.975626376146</ele>
        <time>2019-09-07T09:21:27Z</time>
      </trkpt>
      <trkpt lat="49.24242" lon="-0.44997">
        <ele>31.975752049617</ele>
        <time>2019-09-07T09:21:35Z</time>
      </trkpt>
      <trkpt lat="49.24238" lon="-0.44986">
        <ele>32.975634148807</ele>
        <time>2019-09-07T09:21:44Z</time>
      </trkpt>
      <trkpt lat="49.24232" lon="-0.44977">
        <ele>33.975438145748</ele>
        <time>2019-09-07T09:21:51Z</time>
      </trkpt>
      <trkpt lat="49.24226" lon="-0.44969">
        <ele>33.975255699174</ele>
        <time>2019-09-07T09:21:58Z</time>
      </trkpt>
      <trkpt lat="49.2422" lon="-0.44959">
        <ele>33.975096293621</ele>
        <time>2019-09-07T09:22:05Z</time>
      </trkpt>
      <trkpt lat="49.24215" lon="-0.44948">
        <ele>30.974939981698</ele>
        <time>2019-09-07T09:22:12Z</time>
      </trkpt>
      <trkpt lat="49.24209" lon="-0.4494">
        <ele>35.974757989935</ele>
        <time>2019-09-07T09:22:26Z</time>
      </trkpt>
      <trkpt lat="49.24202" lon="-0.44933">
        <ele>38.974558486113</ele>
        <time>2019-09-07T09:22:33Z</time>
      </trkpt>
      <trkpt lat="49.24196" lon="-0.44924">
        <ele>39.974373305836</ele>
        <time>2019-09-07T09:22:41Z</time>
      </trkpt>
      <trkpt lat="49.24192" lon="-0.44913">
        <ele>33.974266976818</ele>
        <time>2019-09-07T09:22:51Z</time>
      </trkpt>
      <trkpt lat="49.24192" lon="-0.449">
        <ele>31.974267224253</ele>
        <time>2019-09-07T09:22:57Z</time>
      </trkpt>
      <trkpt lat="49.2419" lon="-0.44887">
        <ele>33.974224768516</ele>
        <time>2019-09-07T09:23:05Z</time>
      </trkpt>
      <trkpt lat="49.24185" lon="-0.44876">
        <ele>33.974089757934</ele>
        <time>2019-09-07T09:23:15Z</time>
      </trkpt>
      <trkpt lat="49.24179" lon="-0.44866">
        <ele>33.973904455019</ele>
        <time>2019-09-07T09:23:39Z</time>
      </trkpt>
      <trkpt lat="49.24171" lon="-0.4486">
        <ele>33.973656780371</ele>
        <time>2019-09-07T09:24:02Z</time>
      </trkpt>
      <trkpt lat="49.24163" lon="-0.44856">
        <ele>32.973398285432</ele>
        <time>2019-09-07T09:24:09Z</time>
      </trkpt>
      <trkpt lat="49.24171" lon="-0.44854">
        <ele>30.973666659985</ele>
        <time>2019-09-07T09:25:16Z</time>
      </trkpt>
      <trkpt lat="49.24178" lon="-0.44859">
        <ele>31.973885828831</ele>
        <time>2019-09-07T09:25:25Z</time>
      </trkpt>
      <trkpt lat="49.24184" lon="-0.4485">
        <ele>32.974090856347</ele>
        <time>2019-09-07T09:25:49Z</time>
      </trkpt>
      <trkpt lat="49.24189" lon="-0.4484">
        <ele>34.974258431277</ele>
        <time>2019-09-07T09:25:56Z</time>
      </trkpt>
      <trkpt lat="49.24192" lon="-0.44831">
        <ele>33.974360883636</ele>
        <time>2019-09-07T09:26:02Z</time>
      </trkpt>
      <trkpt lat="49.24198" lon="-0.4482">
        <ele>33.974551565761</ele>
        <time>2019-09-07T09:26:08Z</time>
      </trkpt>
      <trkpt lat="49.24202" lon="-0.44809">
        <ele>30.974714380005</ele>
        <time>2019-09-07T09:26:16Z</time>
      </trkpt>
      <trkpt lat="49.24208" lon="-0.44799">
        <ele>32.974918730839</ele>
        <time>2019-09-07T09:26:23Z</time>
      </trkpt>
      <trkpt lat="49.24216" lon="-0.44793">
        <ele>34.975174684709</ele>
        <time>2019-09-07T09:26:29Z</time>
      </trkpt>
      <trkpt lat="49.24221" lon="-0.44787">
        <ele>32.975335790545</ele>
        <time>2019-09-07T09:27:20Z</time>
      </trkpt>
      <trkpt lat="49.2423" lon="-0.44779">
        <ele>29.975618558133</ele>
        <time>2019-09-07T09:27:24Z</time>
      </trkpt>
      <trkpt lat="49.24237" lon="-0.44784">
        <ele>30.975843435452</ele>
        <time>2019-09-07T09:27:37Z</time>
      </trkpt>
      <trkpt lat="49.24245" lon="-0.44789">
        <ele>32.976081101181</ele>
        <time>2019-09-07T09:27:51Z</time>
      </trkpt>
      <trkpt lat="49.24253" lon="-0.44785">
        <ele>32.976343484836</ele>
        <time>2019-09-07T09:27:59Z</time>
      </trkpt>
      <trkpt lat="49.24258" lon="-0.44775">
        <ele>33.97650559763</ele>
        <time>2019-09-07T09:28:06Z</time>
      </trkpt>
      <trkpt lat="49.24266" lon="-0.44771">
        <ele>31.976778349125</ele>
        <time>2019-09-07T09:28:18Z</time>
      </trkpt>
      <trkpt lat="49.24269" lon="-0.4476">
        <ele>32.976882628795</ele>
        <time>2019-09-07T09:28:25Z</time>
      </trkpt>
      <trkpt lat="49.24275" lon="-0.44754">
        <ele>33.977095439864</ele>
        <time>2019-09-07T09:28:49Z</time>
      </trkpt>
      <trkpt lat="49.24284" lon="-0.44749">
        <ele>35.977358487333</ele>
        <time>2019-09-07T09:28:54Z</time>
      </trkpt>
      <trkpt lat="49.24289" lon="-0.44739">
        <ele>32.977550047716</ele>
        <time>2019-09-07T09:29:01Z</time>
      </trkpt>
      <trkpt lat="49.24296" lon="-0.44733">
        <ele>33.977760765854</ele>
        <time>2019-09-07T09:29:13Z</time>
      </trkpt>
      <trkpt lat="49.24298" lon="-0.44723">
        <ele>34.977858032876</ele>
        <time>2019-09-07T09:29:27Z</time>
      </trkpt>
      <trkpt lat="49.24302" lon="-0.44711">
        <ele>36.977992008581</ele>
        <time>2019-09-07T09:29:34Z</time>
      </trkpt>
      <trkpt lat="49.24308" lon="-0.44704">
        <ele>36.978187839347</ele>
        <time>2019-09-07T09:29:41Z</time>
      </trkpt>
      <trkpt lat="49.24314" lon="-0.44693">
        <ele>37.978381891638</ele>
        <time>2019-09-07T09:29:47Z</time>
      </trkpt>
      <trkpt lat="49.24318" lon="-0.44682">
        <ele>33.978519110455</ele>
        <time>2019-09-07T09:29:56Z</time>
      </trkpt>
      <trkpt lat="49.24316" lon="-0.44668">
        <ele>31.978463505628</ele>
        <time>2019-09-07T09:30:17Z</time>
      </trkpt>
      <trkpt lat="49.2431" lon="-0.44662">
        <ele>33.978292615604</ele>
        <time>2019-09-07T09:30:25Z</time>
      </trkpt>
      <trkpt lat="49.24304" lon="-0.44654">
        <ele>29.978112985264</ele>
        <time>2019-09-07T09:30:33Z</time>
      </trkpt>
      <trkpt lat="49.24297" lon="-0.44648">
        <ele>29.977886786796</ele>
        <time>2019-09-07T09:30:40Z</time>
      </trkpt>
      <trkpt lat="49.24289" lon="-0.44642">
        <ele>30.977649742129</ele>
        <time>2019-09-07T09:30:49Z</time>
      </trkpt>
      <trkpt lat="49.24281" lon="-0.44638">
        <ele>32.977404893809</ele>
        <time>2019-09-07T09:30:58Z</time>
      </trkpt>
      <trkpt lat="49.24273" lon="-0.44633">
        <ele>34.977152572499</ele>
        <time>2019-09-07T09:31:10Z</time>
      </trkpt>
      <trkpt lat="49.24266" lon="-0.44627">
        <ele>34.976941356261</ele>
        <time>2019-09-07T09:31:15Z</time>
      </trkpt>
      <trkpt lat="49.24257" lon="-0.44623">
        <ele>36.976683994447</ele>
        <time>2019-09-07T09:31:22Z</time>
      </trkpt>
      <trkpt lat="49.2425" lon="-0.44618">
        <ele>38.976462790579</ele>
        <time>2019-09-07T09:31:28Z</time>
      </trkpt>
      <trkpt lat="49.24243" lon="-0.44613">
        <ele>37.976236619496</ele>
        <time>2019-09-07T09:31:35Z</time>
      </trkpt>
      <trkpt lat="49.24235" lon="-0.44607">
        <ele>36.97599677684</ele>
        <time>2019-09-07T09:31:42Z</time>
      </trkpt>
      <trkpt lat="49.24227" lon="-0.44601">
        <ele>35.975763921674</ele>
        <time>2019-09-07T09:31:49Z</time>
      </trkpt>
      <trkpt lat="49.24221" lon="-0.44595">
        <ele>37.975572663767</ele>
        <time>2019-09-07T09:31:57Z</time>
      </trkpt>
      <trkpt lat="49.24213" lon="-0.44589">
        <ele>37.975323734286</ele>
        <time>2019-09-07T09:32:05Z</time>
      </trkpt>
      <trkpt lat="49.24205" lon="-0.44584">
        <ele>37.9750860661</ele>
        <time>2019-09-07T09:32:14Z</time>
      </trkpt>
      <trkpt lat="49.24197" lon="-0.44581">
        <ele>37.974849335683</ele>
        <time>2019-09-07T09:32:21Z</time>
      </trkpt>
      <trkpt lat="49.2419" lon="-0.44575">
        <ele>38.974628930086</ele>
        <time>2019-09-07T09:32:38Z</time>
      </trkpt>
      <trkpt lat="49.24183" lon="-0.44569">
        <ele>38.974409264765</ele>
        <time>2019-09-07T09:32:45Z</time>
      </trkpt>
      <trkpt lat="49.24178" lon="-0.44558">
        <ele>36.974285083491</ele>
        <time>2019-09-07T09:32:53Z</time>
      </trkpt>
      <trkpt lat="49.24181" lon="-0.44545">
        <ele>35.974374536759</ele>
        <time>2019-09-07T09:33:01Z</time>
      </trkpt>
      <trkpt lat="49.24181" lon="-0.44533">
        <ele>36.974402023326</ele>
        <time>2019-09-07T09:33:08Z</time>
      </trkpt>
      <trkpt lat="49.24185" lon="-0.44522">
        <ele>34.974529102281</ele>
        <time>2019-09-07T09:33:16Z</time>
      </trkpt>
      <trkpt lat="49.24186" lon="-0.4451">
        <ele>36.974598392381</ele>
        <time>2019-09-07T09:33:22Z</time>
      </trkpt>
      <trkpt lat="49.24187" lon="-0.44497">
        <ele>36.974642494675</ele>
        <time>2019-09-07T09:33:30Z</time>
      </trkpt>
      <trkpt lat="49.24188" lon="-0.44483">
        <ele>38.974694870429</ele>
        <time>2019-09-07T09:33:39Z</time>
      </trkpt>
      <trkpt lat="49.24191" lon="-0.4447">
        <ele>35.974782003403</ele>
        <time>2019-09-07T09:33:46Z</time>
      </trkpt>
      <trkpt lat="49.24193" lon="-0.44457">
        <ele>34.974871151485</ele>
        <time>2019-09-07T09:33:58Z</time>
      </trkpt>
      <trkpt lat="49.24194" lon="-0.44444">
        <ele>32.974909407359</ele>
        <time>2019-09-07T09:34:15Z</time>
      </trkpt>
      <trkpt lat="49.24198" lon="-0.44433">
        <ele>30.975049154356</ele>
        <time>2019-09-07T09:34:20Z</time>
      </trkpt>
      <trkpt lat="49.24201" lon="-0.4442">
        <ele>29.975175903293</ele>
        <time>2019-09-07T09:34:27Z</time>
      </trkpt>
      <trkpt lat="49.24204" lon="-0.44409">
        <ele>27.97528555864</ele>
        <time>2019-09-07T09:34:34Z</time>
      </trkpt>
      <trkpt lat="49.24206" lon="-0.44397">
        <ele>28.975369055095</ele>
        <time>2019-09-07T09:34:41Z</time>
      </trkpt>
      <trkpt lat="49.24209" lon="-0.44385">
        <ele>30.975473313347</ele>
        <time>2019-09-07T09:34:50Z</time>
      </trkpt>
      <trkpt lat="49.24214" lon="-0.44374">
        <ele>32.975641222255</ele>
        <time>2019-09-07T09:35:12Z</time>
      </trkpt>
      <trkpt lat="49.24217" lon="-0.44361">
        <ele>29.975733150899</ele>
        <time>2019-09-07T09:35:22Z</time>
      </trkpt>
      <trkpt lat="49.24219" lon="-0.44348">
        <ele>28.975816290242</ele>
        <time>2019-09-07T09:35:30Z</time>
      </trkpt>
      <trkpt lat="49.24224" lon="-0.44338">
        <ele>32.975999466517</ele>
        <time>2019-09-07T09:35:36Z</time>
      </trkpt>
      <trkpt lat="49.2423" lon="-0.44329">
        <ele>30.976191150397</ele>
        <time>2019-09-07T09:35:43Z</time>
      </trkpt>
      <trkpt lat="49.24231" lon="-0.44315">
        <ele>30.976227538445</ele>
        <time>2019-09-07T09:35:50Z</time>
      </trkpt>
      <trkpt lat="49.24232" lon="-0.44302">
        <ele>28.976283491168</ele>
        <time>2019-09-07T09:35:57Z</time>
      </trkpt>
      <trkpt lat="49.24235" lon="-0.4429">
        <ele>29.976401321221</ele>
        <time>2019-09-07T09:36:04Z</time>
      </trkpt>
      <trkpt lat="49.24238" lon="-0.44277">
        <ele>31.976508894931</ele>
        <time>2019-09-07T09:36:14Z</time>
      </trkpt>
      <trkpt lat="49.24241" lon="-0.44264">
        <ele>30.976599644696</ele>
        <time>2019-09-07T09:36:30Z</time>
      </trkpt>
      <trkpt lat="49.2424" lon="-0.44251">
        <ele>30.976589925685</ele>
        <time>2019-09-07T09:36:38Z</time>
      </trkpt>
      <trkpt lat="49.24241" lon="-0.44237">
        <ele>32.976628460851</ele>
        <time>2019-09-07T09:36:46Z</time>
      </trkpt>
      <trkpt lat="49.24239" lon="-0.44225">
        <ele>32.976590699033</ele>
        <time>2019-09-07T09:36:53Z</time>
      </trkpt>
      <trkpt lat="49.24239" lon="-0.44212">
        <ele>31.976605029083</ele>
        <time>2019-09-07T09:37:01Z</time>
      </trkpt>
      <trkpt lat="49.24243" lon="-0.442">
        <ele>33.976729729081</ele>
        <time>2019-09-07T09:37:08Z</time>
      </trkpt>
      <trkpt lat="49.24247" lon="-0.44188">
        <ele>32.976873824378</ele>
        <time>2019-09-07T09:37:14Z</time>
      </trkpt>
      <trkpt lat="49.24247" lon="-0.44174">
        <ele>32.976912505305</ele>
        <time>2019-09-07T09:37:25Z</time>
      </trkpt>
      <trkpt lat="49.24249" lon="-0.44161">
        <ele>34.976986465471</ele>
        <time>2019-09-07T09:37:33Z</time>
      </trkpt>
      <trkpt lat="49.24249" lon="-0.44148">
        <ele>35.97700491502</ele>
        <time>2019-09-07T09:37:42Z</time>
      </trkpt>
      <trkpt lat="49.2425" lon="-0.44136">
        <ele>34.977028246403</ele>
        <time>2019-09-07T09:37:50Z</time>
      </trkpt>
      <trkpt lat="49.24249" lon="-0.44124">
        <ele>36.977026119629</ele>
        <time>2019-09-07T09:37:57Z</time>
      </trkpt>
      <trkpt lat="49.24247" lon="-0.44112">
        <ele>35.976975689032</ele>
        <time>2019-09-07T09:38:05Z</time>
      </trkpt>
      <trkpt lat="49.24248" lon="-0.441">
        <ele>37.977018992395</ele>
        <time>2019-09-07T09:38:12Z</time>
      </trkpt>
      <trkpt lat="49.24249" lon="-0.44087">
        <ele>36.977060949469</ele>
        <time>2019-09-07T09:38:20Z</time>
      </trkpt>
      <trkpt lat="49.24253" lon="-0.44076">
        <ele>36.977188768244</ele>
        <time>2019-09-07T09:38:31Z</time>
      </trkpt>
      <trkpt lat="49.24257" lon="-0.44064">
        <ele>36.977329963599</ele>
        <time>2019-09-07T09:38:38Z</time>
      </trkpt>
      <trkpt lat="49.2426" lon="-0.44052">
        <ele>36.977428417423</ele>
        <time>2019-09-07T09:38:45Z</time>
      </trkpt>
      <trkpt lat="49.2426" lon="-0.44039">
        <ele>41.977448457983</ele>
        <time>2019-09-07T09:38:54Z</time>
      </trkpt>
      <trkpt lat="49.24261" lon="-0.44027">
        <ele>40.977514784827</ele>
        <time>2019-09-07T09:39:01Z</time>
      </trkpt>
      <trkpt lat="49.24263" lon="-0.44015">
        <ele>39.977579524671</ele>
        <time>2019-09-07T09:39:09Z</time>
      </trkpt>
      <trkpt lat="49.24265" lon="-0.44003">
        <ele>39.977643103424</ele>
        <time>2019-09-07T09:39:16Z</time>
      </trkpt>
      <trkpt lat="49.24268" lon="-0.43992">
        <ele>41.977768259645</ele>
        <time>2019-09-07T09:39:23Z</time>
      </trkpt>
      <trkpt lat="49.24272" lon="-0.43981">
        <ele>41.977900504605</ele>
        <time>2019-09-07T09:39:32Z</time>
      </trkpt>
      <trkpt lat="49.24275" lon="-0.43968">
        <ele>40.977991508629</ele>
        <time>2019-09-07T09:39:38Z</time>
      </trkpt>
      <trkpt lat="49.24278" lon="-0.43956">
        <ele>41.978111235233</ele>
        <time>2019-09-07T09:39:47Z</time>
      </trkpt>
      <trkpt lat="49.24282" lon="-0.43945">
        <ele>41.978245697362</ele>
        <time>2019-09-07T09:39:54Z</time>
      </trkpt>
      <trkpt lat="49.24286" lon="-0.43933">
        <ele>42.978383688887</ele>
        <time>2019-09-07T09:40:00Z</time>
      </trkpt>
      <trkpt lat="49.24292" lon="-0.43923">
        <ele>42.978566984409</ele>
        <time>2019-09-07T09:40:14Z</time>
      </trkpt>
      <trkpt lat="49.24294" lon="-0.4391">
        <ele>44.978624797079</ele>
        <time>2019-09-07T09:40:23Z</time>
      </trkpt>
      <trkpt lat="49.24297" lon="-0.43898">
        <ele>44.978731606102</ele>
        <time>2019-09-07T09:40:31Z</time>
      </trkpt>
      <trkpt lat="49.243" lon="-0.43886">
        <ele>43.978855221995</ele>
        <time>2019-09-07T09:40:40Z</time>
      </trkpt>
      <trkpt lat="49.24304" lon="-0.43876">
        <ele>42.978986018971</ele>
        <time>2019-09-07T09:40:46Z</time>
      </trkpt>
      <trkpt lat="49.24308" lon="-0.43864">
        <ele>43.979099034867</ele>
        <time>2019-09-07T09:40:53Z</time>
      </trkpt>
      <trkpt lat="49.2431" lon="-0.43853">
        <ele>44.979174794542</ele>
        <time>2019-09-07T09:40:59Z</time>
      </trkpt>
      <trkpt lat="49.24314" lon="-0.43843">
        <ele>44.979319085866</ele>
        <time>2019-09-07T09:41:06Z</time>
      </trkpt>
      <trkpt lat="49.2432" lon="-0.43833">
        <ele>44.979518470719</ele>
        <time>2019-09-07T09:41:16Z</time>
      </trkpt>
      <trkpt lat="49.24323" lon="-0.4382">
        <ele>45.979613783019</ele>
        <time>2019-09-07T09:41:23Z</time>
      </trkpt>
      <trkpt lat="49.24325" lon="-0.43807">
        <ele>47.979680745296</ele>
        <time>2019-09-07T09:41:36Z</time>
      </trkpt>
      <trkpt lat="49.24328" lon="-0.43794">
        <ele>48.979784200448</ele>
        <time>2019-09-07T09:41:42Z</time>
      </trkpt>
      <trkpt lat="49.2433" lon="-0.43782">
        <ele>50.979855394834</ele>
        <time>2019-09-07T09:41:48Z</time>
      </trkpt>
      <trkpt lat="49.24335" lon="-0.43771">
        <ele>49.980016303749</ele>
        <time>2019-09-07T09:41:55Z</time>
      </trkpt>
      <trkpt lat="49.24338" lon="-0.43758">
        <ele>49.980130473852</ele>
        <time>2019-09-07T09:42:03Z</time>
      </trkpt>
      <trkpt lat="49.24341" lon="-0.43746">
        <ele>50.980237216918</ele>
        <time>2019-09-07T09:42:10Z</time>
      </trkpt>
      <trkpt lat="49.24343" lon="-0.43733">
        <ele>50.980295697698</ele>
        <time>2019-09-07T09:42:18Z</time>
      </trkpt>
      <trkpt lat="49.24347" lon="-0.43723">
        <ele>50.980422184639</ele>
        <time>2019-09-07T09:42:33Z</time>
      </trkpt>
      <trkpt lat="49.2435" lon="-0.43714">
        <ele>52.980544560674</ele>
        <time>2019-09-07T09:42:46Z</time>
      </trkpt>
      <trkpt lat="49.24354" lon="-0.43702">
        <ele>51.980660181494</ele>
        <time>2019-09-07T09:42:53Z</time>
      </trkpt>
      <trkpt lat="49.24355" lon="-0.43691">
        <ele>53.980707893558</ele>
        <time>2019-09-07T09:42:59Z</time>
      </trkpt>
      <trkpt lat="49.24356" lon="-0.43677">
        <ele>52.980750148248</ele>
        <time>2019-09-07T09:43:08Z</time>
      </trkpt>
      <trkpt lat="49.24358" lon="-0.43666">
        <ele>52.980822786452</ele>
        <time>2019-09-07T09:43:15Z</time>
      </trkpt>
      <trkpt lat="49.24359" lon="-0.43654">
        <ele>53.980875027571</ele>
        <time>2019-09-07T09:43:21Z</time>
      </trkpt>
      <trkpt lat="49.2436" lon="-0.43641">
        <ele>55.980919146523</ele>
        <time>2019-09-07T09:43:28Z</time>
      </trkpt>
      <trkpt lat="49.2436" lon="-0.43628">
        <ele>53.98092025091</ele>
        <time>2019-09-07T09:43:36Z</time>
      </trkpt>
      <trkpt lat="49.2436" lon="-0.43615">
        <ele>51.980949644028</ele>
        <time>2019-09-07T09:43:44Z</time>
      </trkpt>
      <trkpt lat="49.24362" lon="-0.43603">
        <ele>50.981013481573</ele>
        <time>2019-09-07T09:43:50Z</time>
      </trkpt>
      <trkpt lat="49.24363" lon="-0.43591">
        <ele>52.981040590712</ele>
        <time>2019-09-07T09:43:57Z</time>
      </trkpt>
      <trkpt lat="49.24365" lon="-0.43579">
        <ele>49.981117837218</ele>
        <time>2019-09-07T09:44:03Z</time>
      </trkpt>
      <trkpt lat="49.24367" lon="-0.43567">
        <ele>47.981181270098</ele>
        <time>2019-09-07T09:44:10Z</time>
      </trkpt>
      <trkpt lat="49.24369" lon="-0.43556">
        <ele>46.981256304452</ele>
        <time>2019-09-07T09:44:16Z</time>
      </trkpt>
      <trkpt lat="49.24371" lon="-0.43543">
        <ele>45.981338522178</ele>
        <time>2019-09-07T09:44:24Z</time>
      </trkpt>
      <trkpt lat="49.24369" lon="-0.4353">
        <ele>47.981292334613</ele>
        <time>2019-09-07T09:44:31Z</time>
      </trkpt>
      <trkpt lat="49.2437" lon="-0.43518">
        <ele>49.981332737697</ele>
        <time>2019-09-07T09:44:37Z</time>
      </trkpt>
      <trkpt lat="49.24371" lon="-0.43506">
        <ele>50.981367947954</ele>
        <time>2019-09-07T09:44:43Z</time>
      </trkpt>
      <trkpt lat="49.24371" lon="-0.43493">
        <ele>50.981387583024</ele>
        <time>2019-09-07T09:44:50Z</time>
      </trkpt>
      <trkpt lat="49.24372" lon="-0.4348">
        <ele>50.981415923475</ele>
        <time>2019-09-07T09:44:57Z</time>
      </trkpt>
      <trkpt lat="49.24372" lon="-0.43467">
        <ele>51.981457520961</ele>
        <time>2019-09-07T09:45:04Z</time>
      </trkpt>
      <trkpt lat="49.24373" lon="-0.43454">
        <ele>51.981483039701</ele>
        <time>2019-09-07T09:45:11Z</time>
      </trkpt>
      <trkpt lat="49.24374" lon="-0.43442">
        <ele>52.981525948626</ele>
        <time>2019-09-07T09:45:18Z</time>
      </trkpt>
      <trkpt lat="49.24375" lon="-0.43429">
        <ele>53.981556476363</ele>
        <time>2019-09-07T09:45:25Z</time>
      </trkpt>
      <trkpt lat="49.24375" lon="-0.43416">
        <ele>56.981580380929</ele>
        <time>2019-09-07T09:45:35Z</time>
      </trkpt>
      <trkpt lat="49.24375" lon="-0.43403">
        <ele>55.981593071523</ele>
        <time>2019-09-07T09:45:42Z</time>
      </trkpt>
      <trkpt lat="49.24375" lon="-0.43391">
        <ele>54.981622416933</ele>
        <time>2019-09-07T09:45:48Z</time>
      </trkpt>
      <trkpt lat="49.24377" lon="-0.43378">
        <ele>52.981685580659</ele>
        <time>2019-09-07T09:45:55Z</time>
      </trkpt>
      <trkpt lat="49.24379" lon="-0.43366">
        <ele>52.981742512677</ele>
        <time>2019-09-07T09:46:02Z</time>
      </trkpt>
      <trkpt lat="49.24379" lon="-0.43354">
        <ele>53.981771837616</ele>
        <time>2019-09-07T09:46:09Z</time>
      </trkpt>
      <trkpt lat="49.24381" lon="-0.43342">
        <ele>54.981821260958</ele>
        <time>2019-09-07T09:46:15Z</time>
      </trkpt>
      <trkpt lat="49.2438" lon="-0.43328">
        <ele>54.981820265579</ele>
        <time>2019-09-07T09:46:24Z</time>
      </trkpt>
      <trkpt lat="49.24382" lon="-0.43315">
        <ele>52.981894444446</ele>
        <time>2019-09-07T09:46:31Z</time>
      </trkpt>
      <trkpt lat="49.24384" lon="-0.43303">
        <ele>51.981964251919</ele>
        <time>2019-09-07T09:46:38Z</time>
      </trkpt>
      <trkpt lat="49.24384" lon="-0.43291">
        <ele>52.98197571721</ele>
        <time>2019-09-07T09:46:44Z</time>
      </trkpt>
      <trkpt lat="49.24386" lon="-0.43279">
        <ele>51.982050724683</ele>
        <time>2019-09-07T09:46:51Z</time>
      </trkpt>
      <trkpt lat="49.24386" lon="-0.43265">
        <ele>53.982062624944</ele>
        <time>2019-09-07T09:46:58Z</time>
      </trkpt>
      <trkpt lat="49.24387" lon="-0.43252">
        <ele>52.982109170346</ele>
        <time>2019-09-07T09:47:06Z</time>
      </trkpt>
      <trkpt lat="49.24387" lon="-0.4324">
        <ele>52.982121674447</ele>
        <time>2019-09-07T09:47:12Z</time>
      </trkpt>
      <trkpt lat="49.24389" lon="-0.43226">
        <ele>52.982188408898</ele>
        <time>2019-09-07T09:47:19Z</time>
      </trkpt>
      <trkpt lat="49.2439" lon="-0.43214">
        <ele>49.982213850593</ele>
        <time>2019-09-07T09:47:25Z</time>
      </trkpt>
      <trkpt lat="49.24391" lon="-0.43202">
        <ele>49.982262873289</ele>
        <time>2019-09-07T09:47:36Z</time>
      </trkpt>
      <trkpt lat="49.24391" lon="-0.43188">
        <ele>50.982277497036</ele>
        <time>2019-09-07T09:47:43Z</time>
      </trkpt>
      <trkpt lat="49.24392" lon="-0.43176">
        <ele>51.982311266225</ele>
        <time>2019-09-07T09:47:50Z</time>
      </trkpt>
      <trkpt lat="49.24392" lon="-0.43162">
        <ele>53.982339085659</ele>
        <time>2019-09-07T09:47:57Z</time>
      </trkpt>
      <trkpt lat="49.24392" lon="-0.4315">
        <ele>53.982356039375</ele>
        <time>2019-09-07T09:48:04Z</time>
      </trkpt>
      <trkpt lat="49.24394" lon="-0.43137">
        <ele>53.982400131449</ele>
        <time>2019-09-07T09:48:12Z</time>
      </trkpt>
      <trkpt lat="49.24394" lon="-0.43125">
        <ele>53.982420909578</ele>
        <time>2019-09-07T09:48:18Z</time>
      </trkpt>
      <trkpt lat="49.24394" lon="-0.43111">
        <ele>52.982446756673</ele>
        <time>2019-09-07T09:48:25Z</time>
      </trkpt>
      <trkpt lat="49.24396" lon="-0.43098">
        <ele>54.982519328822</ele>
        <time>2019-09-07T09:48:32Z</time>
      </trkpt>
      <trkpt lat="49.24397" lon="-0.43085">
        <ele>56.98256387733</ele>
        <time>2019-09-07T09:48:40Z</time>
      </trkpt>
      <trkpt lat="49.24399" lon="-0.43073">
        <ele>56.982620301167</ele>
        <time>2019-09-07T09:48:47Z</time>
      </trkpt>
      <trkpt lat="49.244" lon="-0.4306">
        <ele>52.982671445339</ele>
        <time>2019-09-07T09:48:54Z</time>
      </trkpt>
      <trkpt lat="49.244" lon="-0.43048">
        <ele>52.982684845889</ele>
        <time>2019-09-07T09:49:00Z</time>
      </trkpt>
      <trkpt lat="49.24399" lon="-0.43035">
        <ele>54.982659667795</ele>
        <time>2019-09-07T09:49:06Z</time>
      </trkpt>
      <trkpt lat="49.244" lon="-0.43023">
        <ele>55.982690988478</ele>
        <time>2019-09-07T09:49:14Z</time>
      </trkpt>
      <trkpt lat="49.24402" lon="-0.43011">
        <ele>53.982763797218</ele>
        <time>2019-09-07T09:49:20Z</time>
      </trkpt>
      <trkpt lat="49.24406" lon="-0.42999">
        <ele>55.982880464668</ele>
        <time>2019-09-07T09:49:28Z</time>
      </trkpt>
      <trkpt lat="49.24406" lon="-0.4299">
        <ele>55.982906332995</ele>
        <time>2019-09-07T09:49:33Z</time>
      </trkpt>
      <trkpt lat="49.24412" lon="-0.4298">
        <ele>54.983083803842</ele>
        <time>2019-09-07T09:49:41Z</time>
      </trkpt>
      <trkpt lat="49.24414" lon="-0.42967">
        <ele>53.983153556799</ele>
        <time>2019-09-07T09:49:48Z</time>
      </trkpt>
      <trkpt lat="49.24416" lon="-0.42956">
        <ele>53.983230528349</ele>
        <time>2019-09-07T09:49:55Z</time>
      </trkpt>
      <trkpt lat="49.2442" lon="-0.42944">
        <ele>51.983336787747</ele>
        <time>2019-09-07T09:50:02Z</time>
      </trkpt>
      <trkpt lat="49.24422" lon="-0.42934">
        <ele>52.983400790377</ele>
        <time>2019-09-07T09:50:07Z</time>
      </trkpt>
      <trkpt lat="49.24421" lon="-0.4292">
        <ele>53.983404522125</ele>
        <time>2019-09-07T09:50:12Z</time>
      </trkpt>
      <trkpt lat="49.24425" lon="-0.42908">
        <ele>54.983519621283</ele>
        <time>2019-09-07T09:50:21Z</time>
      </trkpt>
      <trkpt lat="49.24428" lon="-0.42896">
        <ele>54.983618376439</ele>
        <time>2019-09-07T09:50:29Z</time>
      </trkpt>
      <trkpt lat="49.24431" lon="-0.42883">
        <ele>55.98372376658</ele>
        <time>2019-09-07T09:50:37Z</time>
      </trkpt>
      <trkpt lat="49.24434" lon="-0.42871">
        <ele>55.983817111812</ele>
        <time>2019-09-07T09:50:44Z</time>
      </trkpt>
      <trkpt lat="49.24437" lon="-0.42858">
        <ele>56.983910209444</ele>
        <time>2019-09-07T09:50:52Z</time>
      </trkpt>
      <trkpt lat="49.24439" lon="-0.42845">
        <ele>56.983990432946</ele>
        <time>2019-09-07T09:51:00Z</time>
      </trkpt>
      <trkpt lat="49.24441" lon="-0.42834">
        <ele>56.984048015868</ele>
        <time>2019-09-07T09:51:07Z</time>
      </trkpt>
      <trkpt lat="49.24444" lon="-0.42821">
        <ele>56.984140599632</ele>
        <time>2019-09-07T09:51:13Z</time>
      </trkpt>
      <trkpt lat="49.24446" lon="-0.42809">
        <ele>56.984203513017</ele>
        <time>2019-09-07T09:51:20Z</time>
      </trkpt>
      <trkpt lat="49.24446" lon="-0.42796">
        <ele>57.984237596712</ele>
        <time>2019-09-07T09:51:29Z</time>
      </trkpt>
      <trkpt lat="49.24447" lon="-0.42784">
        <ele>56.984258400404</ele>
        <time>2019-09-07T09:51:39Z</time>
      </trkpt>
      <trkpt lat="49.2445" lon="-0.42773">
        <ele>57.984364488426</ele>
        <time>2019-09-07T09:51:46Z</time>
      </trkpt>
      <trkpt lat="49.24452" lon="-0.4276">
        <ele>56.984426091321</ele>
        <time>2019-09-07T09:51:53Z</time>
      </trkpt>
      <trkpt lat="49.24452" lon="-0.42747">
        <ele>59.984440313621</ele>
        <time>2019-09-07T09:52:00Z</time>
      </trkpt>
      <trkpt lat="49.24453" lon="-0.42735">
        <ele>57.98449061882</ele>
        <time>2019-09-07T09:52:07Z</time>
      </trkpt>
      <trkpt lat="49.24452" lon="-0.42722">
        <ele>57.984470072096</ele>
        <time>2019-09-07T09:52:14Z</time>
      </trkpt>
      <trkpt lat="49.24455" lon="-0.42711">
        <ele>58.984547346519</ele>
        <time>2019-09-07T09:52:20Z</time>
      </trkpt>
      <trkpt lat="49.24455" lon="-0.42698">
        <ele>58.98455921668</ele>
        <time>2019-09-07T09:52:27Z</time>
      </trkpt>
      <trkpt lat="49.24455" lon="-0.42685">
        <ele>58.984570338769</ele>
        <time>2019-09-07T09:52:34Z</time>
      </trkpt>
      <trkpt lat="49.24457" lon="-0.42672">
        <ele>59.984646936119</ele>
        <time>2019-09-07T09:52:46Z</time>
      </trkpt>
      <trkpt lat="49.24456" lon="-0.4266">
        <ele>57.984626756052</ele>
        <time>2019-09-07T09:52:53Z</time>
      </trkpt>
      <trkpt lat="49.24455" lon="-0.42646">
        <ele>57.984620357952</ele>
        <time>2019-09-07T09:52:59Z</time>
      </trkpt>
      <trkpt lat="49.24456" lon="-0.42633">
        <ele>57.984643234542</ele>
        <time>2019-09-07T09:53:06Z</time>
      </trkpt>
      <trkpt lat="49.24456" lon="-0.4262">
        <ele>57.984656709075</ele>
        <time>2019-09-07T09:53:13Z</time>
      </trkpt>
      <trkpt lat="49.24455" lon="-0.42608">
        <ele>57.984633423851</ele>
        <time>2019-09-07T09:53:19Z</time>
      </trkpt>
      <trkpt lat="49.24455" lon="-0.42595">
        <ele>59.984663886064</ele>
        <time>2019-09-07T09:53:26Z</time>
      </trkpt>
      <trkpt lat="49.24454" lon="-0.42581">
        <ele>60.984647858397</ele>
        <time>2019-09-07T09:53:33Z</time>
      </trkpt>
      <trkpt lat="49.24456" lon="-0.42568">
        <ele>60.98471518085</ele>
        <time>2019-09-07T09:53:41Z</time>
      </trkpt>
      <trkpt lat="49.24456" lon="-0.42556">
        <ele>60.984728023295</ele>
        <time>2019-09-07T09:53:48Z</time>
      </trkpt>
      <trkpt lat="49.24457" lon="-0.42544">
        <ele>60.984759795547</ele>
        <time>2019-09-07T09:53:54Z</time>
      </trkpt>
      <trkpt lat="49.24457" lon="-0.42531">
        <ele>60.984767492305</ele>
        <time>2019-09-07T09:54:00Z</time>
      </trkpt>
      <trkpt lat="49.24461" lon="-0.42519">
        <ele>59.984886254555</ele>
        <time>2019-09-07T09:54:09Z</time>
      </trkpt>
      <trkpt lat="49.24463" lon="-0.42507">
        <ele>57.984966184259</ele>
        <time>2019-09-07T09:54:16Z</time>
      </trkpt>
      <trkpt lat="49.24463" lon="-0.42493">
        <ele>58.984970953171</ele>
        <time>2019-09-07T09:54:23Z</time>
      </trkpt>
      <trkpt lat="49.24463" lon="-0.4248">
        <ele>57.984987307912</ele>
        <time>2019-09-07T09:54:32Z</time>
      </trkpt>
      <trkpt lat="49.24465" lon="-0.42467">
        <ele>58.985058540796</ele>
        <time>2019-09-07T09:54:39Z</time>
      </trkpt>
      <trkpt lat="49.24466" lon="-0.42454">
        <ele>59.985087388963</ele>
        <time>2019-09-07T09:54:48Z</time>
      </trkpt>
      <trkpt lat="49.24468" lon="-0.42442">
        <ele>59.985149210105</ele>
        <time>2019-09-07T09:54:54Z</time>
      </trkpt>
      <trkpt lat="49.2447" lon="-0.4243">
        <ele>57.985221270429</ele>
        <time>2019-09-07T09:55:00Z</time>
      </trkpt>
      <trkpt lat="49.24472" lon="-0.42418">
        <ele>57.985296434662</ele>
        <time>2019-09-07T09:55:06Z</time>
      </trkpt>
      <trkpt lat="49.24473" lon="-0.42404">
        <ele>59.985317033001</ele>
        <time>2019-09-07T09:55:13Z</time>
      </trkpt>
      <trkpt lat="49.24475" lon="-0.42393">
        <ele>59.98539415052</ele>
        <time>2019-09-07T09:55:19Z</time>
      </trkpt>
      <trkpt lat="49.24475" lon="-0.4238">
        <ele>59.985407227689</ele>
        <time>2019-09-07T09:55:25Z</time>
      </trkpt>
      <trkpt lat="49.24476" lon="-0.42367">
        <ele>61.985449423598</ele>
        <time>2019-09-07T09:55:33Z</time>
      </trkpt>
      <trkpt lat="49.24477" lon="-0.42354">
        <ele>62.985485798371</ele>
        <time>2019-09-07T09:55:41Z</time>
      </trkpt>
      <trkpt lat="49.2448" lon="-0.42342">
        <ele>61.985567336364</ele>
        <time>2019-09-07T09:55:47Z</time>
      </trkpt>
      <trkpt lat="49.24481" lon="-0.4233">
        <ele>61.985616107349</ele>
        <time>2019-09-07T09:55:55Z</time>
      </trkpt>
      <trkpt lat="49.24484" lon="-0.4232">
        <ele>62.98570043753</ele>
        <time>2019-09-07T09:56:00Z</time>
      </trkpt>
      <trkpt lat="49.24486" lon="-0.42306">
        <ele>62.985757780562</ele>
        <time>2019-09-07T09:56:08Z</time>
      </trkpt>
      <trkpt lat="49.24488" lon="-0.42294">
        <ele>61.985836308246</ele>
        <time>2019-09-07T09:56:16Z</time>
      </trkpt>
      <trkpt lat="49.24489" lon="-0.42282">
        <ele>60.985856217362</ele>
        <time>2019-09-07T09:56:22Z</time>
      </trkpt>
      <trkpt lat="49.24489" lon="-0.42269">
        <ele>59.985893072375</ele>
        <time>2019-09-07T09:56:29Z</time>
      </trkpt>
      <trkpt lat="49.2449" lon="-0.42256">
        <ele>62.985914694408</ele>
        <time>2019-09-07T09:56:37Z</time>
      </trkpt>
      <trkpt lat="49.24493" lon="-0.42245">
        <ele>61.986019145625</ele>
        <time>2019-09-07T09:56:44Z</time>
      </trkpt>
      <trkpt lat="49.24493" lon="-0.42234">
        <ele>62.986021579653</ele>
        <time>2019-09-07T09:56:50Z</time>
      </trkpt>
      <trkpt lat="49.24495" lon="-0.42221">
        <ele>61.986074302686</ele>
        <time>2019-09-07T09:56:57Z</time>
      </trkpt>
      <trkpt lat="49.24497" lon="-0.42209">
        <ele>60.98616066979</ele>
        <time>2019-09-07T09:57:04Z</time>
      </trkpt>
      <trkpt lat="49.245" lon="-0.42198">
        <ele>59.986249869034</ele>
        <time>2019-09-07T09:57:11Z</time>
      </trkpt>
      <trkpt lat="49.24501" lon="-0.42186">
        <ele>59.98628308321</ele>
        <time>2019-09-07T09:57:18Z</time>
      </trkpt>
      <trkpt lat="49.24502" lon="-0.42174">
        <ele>60.986322929821</ele>
        <time>2019-09-07T09:57:25Z</time>
      </trkpt>
      <trkpt lat="49.24504" lon="-0.42162">
        <ele>60.98638193955</ele>
        <time>2019-09-07T09:57:31Z</time>
      </trkpt>
      <trkpt lat="49.24506" lon="-0.42149">
        <ele>61.986444483039</ele>
        <time>2019-09-07T09:57:39Z</time>
      </trkpt>
      <trkpt lat="49.24508" lon="-0.42138">
        <ele>60.986515672496</ele>
        <time>2019-09-07T09:57:47Z</time>
      </trkpt>
      <trkpt lat="49.24507" lon="-0.42125">
        <ele>59.986493045792</ele>
        <time>2019-09-07T09:57:53Z</time>
      </trkpt>
      <trkpt lat="49.2451" lon="-0.42114">
        <ele>60.98657020909</ele>
        <time>2019-09-07T09:58:03Z</time>
      </trkpt>
      <trkpt lat="49.2451" lon="-0.42102">
        <ele>60.986604677656</ele>
        <time>2019-09-07T09:58:13Z</time>
      </trkpt>
      <trkpt lat="49.24512" lon="-0.42088">
        <ele>61.986657656078</ele>
        <time>2019-09-07T09:58:20Z</time>
      </trkpt>
      <trkpt lat="49.24511" lon="-0.42075">
        <ele>61.986636241634</ele>
        <time>2019-09-07T09:58:28Z</time>
      </trkpt>
      <trkpt lat="49.24513" lon="-0.42064">
        <ele>62.986705782604</ele>
        <time>2019-09-07T09:58:35Z</time>
      </trkpt>
      <trkpt lat="49.24516" lon="-0.42051">
        <ele>63.986799766688</ele>
        <time>2019-09-07T09:58:44Z</time>
      </trkpt>
      <trkpt lat="49.24518" lon="-0.4204">
        <ele>64.986861548227</ele>
        <time>2019-09-07T09:58:53Z</time>
      </trkpt>
      <trkpt lat="49.2452" lon="-0.42027">
        <ele>64.986928562175</ele>
        <time>2019-09-07T09:59:03Z</time>
      </trkpt>
      <trkpt lat="49.24522" lon="-0.42015">
        <ele>63.986976422598</ele>
        <time>2019-09-07T09:59:11Z</time>
      </trkpt>
      <trkpt lat="49.24522" lon="-0.42002">
        <ele>62.987003392194</ele>
        <time>2019-09-07T09:59:18Z</time>
      </trkpt>
      <trkpt lat="49.24524" lon="-0.41989">
        <ele>62.987062399183</ele>
        <time>2019-09-07T09:59:26Z</time>
      </trkpt>
      <trkpt lat="49.24527" lon="-0.41978">
        <ele>62.987147643752</ele>
        <time>2019-09-07T09:59:33Z</time>
      </trkpt>
      <trkpt lat="49.24528" lon="-0.41964">
        <ele>63.987183157585</ele>
        <time>2019-09-07T09:59:41Z</time>
      </trkpt>
      <trkpt lat="49.24529" lon="-0.41952">
        <ele>63.987215254345</ele>
        <time>2019-09-07T09:59:49Z</time>
      </trkpt>
      <trkpt lat="49.24531" lon="-0.41941">
        <ele>64.987298340083</ele>
        <time>2019-09-07T09:59:54Z</time>
      </trkpt>
      <trkpt lat="49.24533" lon="-0.41928">
        <ele>62.987351145309</ele>
        <time>2019-09-07T10:00:00Z</time>
      </trkpt>
      <trkpt lat="49.24535" lon="-0.41915">
        <ele>63.987402512519</ele>
        <time>2019-09-07T10:00:06Z</time>
      </trkpt>
      <trkpt lat="49.24536" lon="-0.41903">
        <ele>63.987457159021</ele>
        <time>2019-09-07T10:00:14Z</time>
      </trkpt>
      <trkpt lat="49.24538" lon="-0.4189">
        <ele>60.987510788284</ele>
        <time>2019-09-07T10:00:21Z</time>
      </trkpt>
      <trkpt lat="49.24538" lon="-0.41877">
        <ele>61.987535822836</ele>
        <time>2019-09-07T10:00:28Z</time>
      </trkpt>
      <trkpt lat="49.24539" lon="-0.41864">
        <ele>61.987553892917</ele>
        <time>2019-09-07T10:00:35Z</time>
      </trkpt>
      <trkpt lat="49.24541" lon="-0.41852">
        <ele>63.987623129439</ele>
        <time>2019-09-07T10:00:43Z</time>
      </trkpt>
      <trkpt lat="49.24542" lon="-0.41839">
        <ele>62.987658144326</ele>
        <time>2019-09-07T10:00:49Z</time>
      </trkpt>
      <trkpt lat="49.24543" lon="-0.41825">
        <ele>61.987704374295</ele>
        <time>2019-09-07T10:00:57Z</time>
      </trkpt>
      <trkpt lat="49.24544" lon="-0.41812">
        <ele>62.98773706959</ele>
        <time>2019-09-07T10:01:04Z</time>
      </trkpt>
      <trkpt lat="49.24547" lon="-0.41799">
        <ele>62.98781419893</ele>
        <time>2019-09-07T10:01:11Z</time>
      </trkpt>
      <trkpt lat="49.24548" lon="-0.41786">
        <ele>63.987862894677</ele>
        <time>2019-09-07T10:01:19Z</time>
      </trkpt>
      <trkpt lat="49.2455" lon="-0.41773">
        <ele>63.98792391745</ele>
        <time>2019-09-07T10:01:27Z</time>
      </trkpt>
      <trkpt lat="49.24551" lon="-0.41761">
        <ele>65.987970717439</ele>
        <time>2019-09-07T10:01:34Z</time>
      </trkpt>
      <trkpt lat="49.24553" lon="-0.41749">
        <ele>64.98801216064</ele>
        <time>2019-09-07T10:01:40Z</time>
      </trkpt>
      <trkpt lat="49.24553" lon="-0.41737">
        <ele>64.98803653393</ele>
        <time>2019-09-07T10:01:46Z</time>
      </trkpt>
      <trkpt lat="49.24555" lon="-0.41725">
        <ele>65.988090287085</ele>
        <time>2019-09-07T10:01:54Z</time>
      </trkpt>
      <trkpt lat="49.24558" lon="-0.41713">
        <ele>66.988174410299</ele>
        <time>2019-09-07T10:02:10Z</time>
      </trkpt>
      <trkpt lat="49.24559" lon="-0.417">
        <ele>66.98820551162</ele>
        <time>2019-09-07T10:02:17Z</time>
      </trkpt>
      <trkpt lat="49.24562" lon="-0.41687">
        <ele>65.988306110034</ele>
        <time>2019-09-07T10:02:33Z</time>
      </trkpt>
      <trkpt lat="49.24564" lon="-0.41674">
        <ele>65.988364192811</ele>
        <time>2019-09-07T10:02:41Z</time>
      </trkpt>
      <trkpt lat="49.24567" lon="-0.41662">
        <ele>64.988454816009</ele>
        <time>2019-09-07T10:02:50Z</time>
      </trkpt>
      <trkpt lat="49.24569" lon="-0.41649">
        <ele>63.988527068875</ele>
        <time>2019-09-07T10:02:57Z</time>
      </trkpt>
      <trkpt lat="49.2457" lon="-0.41637">
        <ele>62.988559267468</ele>
        <time>2019-09-07T10:03:04Z</time>
      </trkpt>
      <trkpt lat="49.24572" lon="-0.41625">
        <ele>62.988620841135</ele>
        <time>2019-09-07T10:03:11Z</time>
      </trkpt>
      <trkpt lat="49.24574" lon="-0.41612">
        <ele>62.988669855293</ele>
        <time>2019-09-07T10:03:18Z</time>
      </trkpt>
      <trkpt lat="49.24576" lon="-0.41599">
        <ele>62.988732885178</ele>
        <time>2019-09-07T10:03:25Z</time>
      </trkpt>
      <trkpt lat="49.24578" lon="-0.41587">
        <ele>61.98879898566</ele>
        <time>2019-09-07T10:03:33Z</time>
      </trkpt>
      <trkpt lat="49.2458" lon="-0.41574">
        <ele>61.988864314071</ele>
        <time>2019-09-07T10:03:40Z</time>
      </trkpt>
      <trkpt lat="49.24582" lon="-0.41561">
        <ele>62.988910882968</ele>
        <time>2019-09-07T10:03:48Z</time>
      </trkpt>
      <trkpt lat="49.24584" lon="-0.41549">
        <ele>61.988989309847</ele>
        <time>2019-09-07T10:03:56Z</time>
      </trkpt>
      <trkpt lat="49.24584" lon="-0.41537">
        <ele>60.988985264726</ele>
        <time>2019-09-07T10:04:01Z</time>
      </trkpt>
      <trkpt lat="49.24586" lon="-0.41524">
        <ele>60.989052394842</ele>
        <time>2019-09-07T10:04:09Z</time>
      </trkpt>
      <trkpt lat="49.24588" lon="-0.41511">
        <ele>61.989109411223</ele>
        <time>2019-09-07T10:04:17Z</time>
      </trkpt>
      <trkpt lat="49.24589" lon="-0.41499">
        <ele>61.989162483056</ele>
        <time>2019-09-07T10:04:24Z</time>
      </trkpt>
      <trkpt lat="49.24592" lon="-0.41486">
        <ele>61.989242891582</ele>
        <time>2019-09-07T10:04:32Z</time>
      </trkpt>
      <trkpt lat="49.24594" lon="-0.41473">
        <ele>61.989294293528</ele>
        <time>2019-09-07T10:04:39Z</time>
      </trkpt>
      <trkpt lat="49.24598" lon="-0.41463">
        <ele>59.989410641945</ele>
        <time>2019-09-07T10:04:46Z</time>
      </trkpt>
      <trkpt lat="49.24601" lon="-0.41451">
        <ele>57.98948645326</ele>
        <time>2019-09-07T10:04:54Z</time>
      </trkpt>
      <trkpt lat="49.24601" lon="-0.41438">
        <ele>56.989491506315</ele>
        <time>2019-09-07T10:05:00Z</time>
      </trkpt>
      <trkpt lat="49.24604" lon="-0.41426">
        <ele>57.98958195616</ele>
        <time>2019-09-07T10:05:08Z</time>
      </trkpt>
      <trkpt lat="49.24606" lon="-0.41413">
        <ele>58.989644012835</ele>
        <time>2019-09-07T10:05:15Z</time>
      </trkpt>
      <trkpt lat="49.24606" lon="-0.414">
        <ele>58.989651115586</ele>
        <time>2019-09-07T10:05:21Z</time>
      </trkpt>
      <trkpt lat="49.24608" lon="-0.41388">
        <ele>56.989730743763</ele>
        <time>2019-09-07T10:05:29Z</time>
      </trkpt>
      <trkpt lat="49.24611" lon="-0.41376">
        <ele>55.98979573127</ele>
        <time>2019-09-07T10:05:36Z</time>
      </trkpt>
      <trkpt lat="49.2461" lon="-0.41364">
        <ele>58.989777857043</ele>
        <time>2019-09-07T10:05:42Z</time>
      </trkpt>
      <trkpt lat="49.24612" lon="-0.41351">
        <ele>57.989859736163</ele>
        <time>2019-09-07T10:05:49Z</time>
      </trkpt>
      <trkpt lat="49.24613" lon="-0.41338">
        <ele>57.989882849715</ele>
        <time>2019-09-07T10:05:58Z</time>
      </trkpt>
      <trkpt lat="49.24606" lon="-0.4133">
        <ele>58.989702377484</ele>
        <time>2019-09-07T10:06:06Z</time>
      </trkpt>
      <trkpt lat="49.24601" lon="-0.41321">
        <ele>58.989570781316</ele>
        <time>2019-09-07T10:06:12Z</time>
      </trkpt>
      <trkpt lat="49.24597" lon="-0.4131">
        <ele>57.989468819357</ele>
        <time>2019-09-07T10:06:20Z</time>
      </trkpt>
      <trkpt lat="49.24588" lon="-0.41307">
        <ele>59.989262282122</ele>
        <time>2019-09-07T10:06:26Z</time>
      </trkpt>
      <trkpt lat="49.24581" lon="-0.41303">
        <ele>59.989066127921</ele>
        <time>2019-09-07T10:06:32Z</time>
      </trkpt>
      <trkpt lat="49.24574" lon="-0.41297">
        <ele>60.98890089225</ele>
        <time>2019-09-07T10:06:39Z</time>
      </trkpt>
      <trkpt lat="49.24566" lon="-0.41292">
        <ele>60.988696874044</ele>
        <time>2019-09-07T10:06:45Z</time>
      </trkpt>
      <trkpt lat="49.2456" lon="-0.41285">
        <ele>61.988527635359</ele>
        <time>2019-09-07T10:06:51Z</time>
      </trkpt>
      <trkpt lat="49.24553" lon="-0.41278">
        <ele>61.988361078432</ele>
        <time>2019-09-07T10:06:58Z</time>
      </trkpt>
      <trkpt lat="49.24546" lon="-0.41273">
        <ele>62.98816985461</ele>
        <time>2019-09-07T10:07:05Z</time>
      </trkpt>
      <trkpt lat="49.24538" lon="-0.41268">
        <ele>63.987973715262</ele>
        <time>2019-09-07T10:07:12Z</time>
      </trkpt>
      <trkpt lat="49.2453" lon="-0.41263">
        <ele>63.987769588681</ele>
        <time>2019-09-07T10:07:19Z</time>
      </trkpt>
      <trkpt lat="49.24523" lon="-0.41257">
        <ele>61.987592502172</ele>
        <time>2019-09-07T10:07:27Z</time>
      </trkpt>
      <trkpt lat="49.24516" lon="-0.41254">
        <ele>62.987405270236</ele>
        <time>2019-09-07T10:07:33Z</time>
      </trkpt>
      <trkpt lat="49.24509" lon="-0.41248">
        <ele>62.98723126557</ele>
        <time>2019-09-07T10:07:39Z</time>
      </trkpt>
      <trkpt lat="49.24502" lon="-0.41242">
        <ele>63.987046021907</ele>
        <time>2019-09-07T10:07:44Z</time>
      </trkpt>
      <trkpt lat="49.24494" lon="-0.41236">
        <ele>64.986863103837</ele>
        <time>2019-09-07T10:07:54Z</time>
      </trkpt>
      <trkpt lat="49.24487" lon="-0.41231">
        <ele>63.986670205762</ele>
        <time>2019-09-07T10:08:00Z</time>
      </trkpt>
      <trkpt lat="49.24479" lon="-0.41225">
        <ele>64.98647169711</ele>
        <time>2019-09-07T10:08:08Z</time>
      </trkpt>
      <trkpt lat="49.24471" lon="-0.4122">
        <ele>62.986277816054</ele>
        <time>2019-09-07T10:08:15Z</time>
      </trkpt>
      <trkpt lat="49.24465" lon="-0.41214">
        <ele>64.986125518507</ele>
        <time>2019-09-07T10:08:19Z</time>
      </trkpt>
      <trkpt lat="49.24459" lon="-0.41208">
        <ele>63.985958208253</ele>
        <time>2019-09-07T10:08:26Z</time>
      </trkpt>
      <trkpt lat="49.24451" lon="-0.41201">
        <ele>64.985768704125</ele>
        <time>2019-09-07T10:08:33Z</time>
      </trkpt>
      <trkpt lat="49.24445" lon="-0.41194">
        <ele>63.985606294971</ele>
        <time>2019-09-07T10:08:40Z</time>
      </trkpt>
      <trkpt lat="49.24437" lon="-0.41187">
        <ele>61.985418089858</ele>
        <time>2019-09-07T10:08:47Z</time>
      </trkpt>
      <trkpt lat="49.2443" lon="-0.41181">
        <ele>64.985236906699</ele>
        <time>2019-09-07T10:08:54Z</time>
      </trkpt>
      <trkpt lat="49.24423" lon="-0.41172">
        <ele>66.985079069902</ele>
        <time>2019-09-07T10:09:00Z</time>
      </trkpt>
      <trkpt lat="49.24416" lon="-0.41164">
        <ele>66.984906703229</ele>
        <time>2019-09-07T10:09:07Z</time>
      </trkpt>
      <trkpt lat="49.2441" lon="-0.41158">
        <ele>65.984740590572</ele>
        <time>2019-09-07T10:09:13Z</time>
      </trkpt>
      <trkpt lat="49.24403" lon="-0.41151">
        <ele>64.984570637858</ele>
        <time>2019-09-07T10:09:19Z</time>
      </trkpt>
      <trkpt lat="49.24396" lon="-0.41143">
        <ele>64.984410410001</ele>
        <time>2019-09-07T10:09:27Z</time>
      </trkpt>
      <trkpt lat="49.24389" lon="-0.41136">
        <ele>66.984233139137</ele>
        <time>2019-09-07T10:09:35Z</time>
      </trkpt>
      <trkpt lat="49.24382" lon="-0.41129">
        <ele>65.984046221044</ele>
        <time>2019-09-07T10:09:43Z</time>
      </trkpt>
      <trkpt lat="49.24375" lon="-0.41122">
        <ele>64.98387537118</ele>
        <time>2019-09-07T10:09:50Z</time>
      </trkpt>
      <trkpt lat="49.24369" lon="-0.41112">
        <ele>62.983730577363</ele>
        <time>2019-09-07T10:09:57Z</time>
      </trkpt>
      <trkpt lat="49.24361" lon="-0.41107">
        <ele>63.983542320837</ele>
        <time>2019-09-07T10:10:06Z</time>
      </trkpt>
      <trkpt lat="49.24353" lon="-0.41101">
        <ele>61.983342510332</ele>
        <time>2019-09-07T10:10:16Z</time>
      </trkpt>
      <trkpt lat="49.24345" lon="-0.41099">
        <ele>63.983136936059</ele>
        <time>2019-09-07T10:10:31Z</time>
      </trkpt>
      <trkpt lat="49.24338" lon="-0.41093">
        <ele>60.982964961046</ele>
        <time>2019-09-07T10:10:37Z</time>
      </trkpt>
      <trkpt lat="49.24331" lon="-0.41088">
        <ele>62.982766755099</ele>
        <time>2019-09-07T10:10:44Z</time>
      </trkpt>
      <trkpt lat="49.24324" lon="-0.41083">
        <ele>62.982597276587</ele>
        <time>2019-09-07T10:10:49Z</time>
      </trkpt>
      <trkpt lat="49.24316" lon="-0.41078">
        <ele>62.982397379738</ele>
        <time>2019-09-07T10:10:55Z</time>
      </trkpt>
      <trkpt lat="49.24309" lon="-0.41072">
        <ele>62.9822241067</ele>
        <time>2019-09-07T10:11:01Z</time>
      </trkpt>
      <trkpt lat="49.24302" lon="-0.41063">
        <ele>62.982060217204</ele>
        <time>2019-09-07T10:11:30Z</time>
      </trkpt>
      <trkpt lat="49.24294" lon="-0.41058">
        <ele>62.981855958337</ele>
        <time>2019-09-07T10:11:41Z</time>
      </trkpt>
      <trkpt lat="49.24287" lon="-0.41053">
        <ele>61.981673217719</ele>
        <time>2019-09-07T10:11:50Z</time>
      </trkpt>
      <trkpt lat="49.24279" lon="-0.41047">
        <ele>63.981481515617</ele>
        <time>2019-09-07T10:11:55Z</time>
      </trkpt>
      <trkpt lat="49.2427" lon="-0.41044">
        <ele>65.981263377144</ele>
        <time>2019-09-07T10:12:03Z</time>
      </trkpt>
      <trkpt lat="49.24262" lon="-0.41039">
        <ele>63.981065153994</ele>
        <time>2019-09-07T10:12:10Z</time>
      </trkpt>
      <trkpt lat="49.24255" lon="-0.41036">
        <ele>62.980885633095</ele>
        <time>2019-09-07T10:12:17Z</time>
      </trkpt>
      <trkpt lat="49.24248" lon="-0.4103">
        <ele>62.980705904116</ele>
        <time>2019-09-07T10:12:26Z</time>
      </trkpt>
      <trkpt lat="49.2424" lon="-0.41024">
        <ele>61.980510998847</ele>
        <time>2019-09-07T10:12:33Z</time>
      </trkpt>
      <trkpt lat="49.24232" lon="-0.41019">
        <ele>61.980320207553</ele>
        <time>2019-09-07T10:12:39Z</time>
      </trkpt>
      <trkpt lat="49.24224" lon="-0.41013">
        <ele>62.980119028734</ele>
        <time>2019-09-07T10:12:47Z</time>
      </trkpt>
      <trkpt lat="49.24217" lon="-0.41008">
        <ele>61.979936799748</ele>
        <time>2019-09-07T10:12:56Z</time>
      </trkpt>
      <trkpt lat="49.2421" lon="-0.41001">
        <ele>62.979782673491</ele>
        <time>2019-09-07T10:13:03Z</time>
      </trkpt>
      <trkpt lat="49.24202" lon="-0.40999">
        <ele>62.979577971382</ele>
        <time>2019-09-07T10:13:08Z</time>
      </trkpt>
      <trkpt lat="49.24194" lon="-0.40995">
        <ele>62.97937224302</ele>
        <time>2019-09-07T10:13:17Z</time>
      </trkpt>
      <trkpt lat="49.24186" lon="-0.40988">
        <ele>62.979188440664</ele>
        <time>2019-09-07T10:13:22Z</time>
      </trkpt>
      <trkpt lat="49.24178" lon="-0.40991">
        <ele>62.978980264258</ele>
        <time>2019-09-07T10:13:31Z</time>
      </trkpt>
      <trkpt lat="49.2417" lon="-0.40995">
        <ele>61.978759796016</ele>
        <time>2019-09-07T10:13:39Z</time>
      </trkpt>
      <trkpt lat="49.24163" lon="-0.41003">
        <ele>62.97856928507</ele>
        <time>2019-09-07T10:13:46Z</time>
      </trkpt>
      <trkpt lat="49.2416" lon="-0.4101">
        <ele>65.978478763864</ele>
        <time>2019-09-07T10:14:16Z</time>
      </trkpt>
      <trkpt lat="49.24139" lon="-0.41001">
        <ele>62.977961696557</ele>
        <time>2019-09-07T10:14:21Z</time>
      </trkpt>
      <trkpt lat="49.24134" lon="-0.4101">
        <ele>59.977826928933</ele>
        <time>2019-09-07T10:14:26Z</time>
      </trkpt>
      <trkpt lat="49.24127" lon="-0.41008">
        <ele>61.977632041958</ele>
        <time>2019-09-07T10:14:30Z</time>
      </trkpt>
      <trkpt lat="49.24121" lon="-0.41">
        <ele>59.977502999723</ele>
        <time>2019-09-07T10:14:39Z</time>
      </trkpt>
      <trkpt lat="49.24112" lon="-0.40993">
        <ele>56.977280438951</ele>
        <time>2019-09-07T10:14:44Z</time>
      </trkpt>
      <trkpt lat="49.24104" lon="-0.4099">
        <ele>61.977067871079</ele>
        <time>2019-09-07T10:14:59Z</time>
      </trkpt>
      <trkpt lat="49.24099" lon="-0.4099">
        <ele>61.976960434183</ele>
        <time>2019-09-07T10:15:03Z</time>
      </trkpt>
      <trkpt lat="49.24099" lon="-0.4099">
        <ele>61.976960434183</ele>
        <time>2019-09-07T10:15:04Z</time>
      </trkpt>
      <trkpt lat="49.24097" lon="-0.40986">
        <ele>62.976903693359</ele>
        <time>2019-09-07T10:15:05Z</time>
      </trkpt>
      <trkpt lat="49.24097" lon="-0.40986">
        <ele>62.976903693359</ele>
        <time>2019-09-07T10:15:11Z</time>
      </trkpt>
      <trkpt lat="49.24097" lon="-0.40986">
        <ele>62.976903693359</ele>
        <time>2019-09-07T10:15:12Z</time>
      </trkpt>
    </trkseg>
  </trk>
</gpx>